<?xml version='1.0' encoding='UTF-8'?><gpx version="1.1" creator="JPX - https://github.com/jenetics/jpx" xmlns="http://www.topografix.com/GPX/1/1"><trk><trkseg><trkpt lat="43.6799842" lon="10.9437633"><ele>127.0</ele><time>2026-04-04T12:53:19.516Z</time></trkpt><trkpt lat="43.6799227" lon="10.9437081"><ele>127.0</ele><time>2026-04-04T12:53:25.794Z</time></trkpt><trkpt lat="43.679868" lon="10.9436431"><ele>127.0</ele><time>2026-04-04T12:53:32.793Z</time></trkpt><trkpt lat="43.679824" lon="10.94358"><ele>127.0</ele><time>2026-04-04T12:53:38.794Z</time></trkpt><trkpt lat="43.6797704" lon="10.9435314"><ele>127.0</ele><time>2026-04-04T12:53:44.793Z</time></trkpt><trkpt lat="43.6797139" lon="10.9434867"><ele>127.0</ele><time>2026-04-04T12:53:49.793Z</time></trkpt><trkpt lat="43.6796527" lon="10.9434403"><ele>127.0</ele><time>2026-04-04T12:53:55.794Z</time></trkpt><trkpt lat="43.6795887" lon="10.9434215"><ele>127.28571428571429</ele><time>2026-04-04T12:54:00.795Z</time></trkpt><trkpt lat="43.679529" lon="10.9433759"><ele>127.57142857142856</ele><time>2026-04-04T12:54:06.793Z</time></trkpt><trkpt lat="43.6794822" lon="10.9433149"><ele>127.85714285714285</ele><time>2026-04-04T12:54:11.793Z</time></trkpt><trkpt lat="43.6794328" lon="10.9432587"><ele>128.14285714285714</ele><time>2026-04-04T12:54:16.793Z</time></trkpt><trkpt lat="43.679363" lon="10.9432442"><ele>128.42857142857142</ele><time>2026-04-04T12:54:23.713Z</time></trkpt><trkpt lat="43.6793075" lon="10.9431807"><ele>128.7142857142857</ele><time>2026-04-04T12:54:29.795Z</time></trkpt><trkpt lat="43.679266" lon="10.9431112"><ele>129.0</ele><time>2026-04-04T12:54:35.793Z</time></trkpt><trkpt lat="43.6792028" lon="10.9430711"><ele>128.99999999999997</ele><time>2026-04-04T12:54:41.77Z</time></trkpt><trkpt lat="43.6791673" lon="10.9429874"><ele>129.0</ele><time>2026-04-04T12:54:49.795Z</time></trkpt><trkpt lat="43.6791231" lon="10.9429164"><ele>129.0</ele><time>2026-04-04T12:54:56.793Z</time></trkpt><trkpt lat="43.6790965" lon="10.9428291"><ele>129.0</ele><time>2026-04-04T12:55:05.804Z</time></trkpt><trkpt lat="43.6790526" lon="10.9427592"><ele>129.0</ele><time>2026-04-04T12:55:14.697Z</time></trkpt><trkpt lat="43.6790254" lon="10.9426784"><ele>128.99999999999997</ele><time>2026-04-04T12:55:20.792Z</time></trkpt><trkpt lat="43.6789781" lon="10.9426127"><ele>129.0</ele><time>2026-04-04T12:55:28.748Z</time></trkpt><trkpt lat="43.678911" lon="10.9426168"><ele>128.99999999999997</ele><time>2026-04-04T12:55:35.796Z</time></trkpt><trkpt lat="43.6788401" lon="10.9425874"><ele>129.0</ele><time>2026-04-04T12:55:44.868Z</time></trkpt><trkpt lat="43.6787861" lon="10.9425376"><ele>129.0</ele><time>2026-04-04T12:55:48.794Z</time></trkpt><trkpt lat="43.6787403" lon="10.9424597"><ele>129.0</ele><time>2026-04-04T12:55:53.893Z</time></trkpt><trkpt lat="43.6786962" lon="10.9423885"><ele>129.0</ele><time>2026-04-04T12:55:59.792Z</time></trkpt><trkpt lat="43.6786435" lon="10.9423343"><ele>128.99999999999997</ele><time>2026-04-04T12:56:05.698Z</time></trkpt><trkpt lat="43.6786019" lon="10.9422589"><ele>129.0</ele><time>2026-04-04T12:56:11.806Z</time></trkpt><trkpt lat="43.678564" lon="10.9421843"><ele>128.85714285714283</ele><time>2026-04-04T12:56:17.795Z</time></trkpt><trkpt lat="43.6785215" lon="10.942116"><ele>128.71428571428572</ele><time>2026-04-04T12:56:23.793Z</time></trkpt><trkpt lat="43.6784714" lon="10.9420555"><ele>128.57142857142856</ele><time>2026-04-04T12:56:29.792Z</time></trkpt><trkpt lat="43.6784215" lon="10.9420006"><ele>128.42857142857142</ele><time>2026-04-04T12:56:35.716Z</time></trkpt><trkpt lat="43.6783834" lon="10.9419288"><ele>128.28571428571428</ele><time>2026-04-04T12:56:42.809Z</time></trkpt><trkpt lat="43.6783365" lon="10.9418623"><ele>128.14285714285714</ele><time>2026-04-04T12:56:49.792Z</time></trkpt><trkpt lat="43.6782946" lon="10.9417957"><ele>128.0</ele><time>2026-04-04T12:56:55.869Z</time></trkpt><trkpt lat="43.67825" lon="10.9417079"><ele>128.0</ele><time>2026-04-04T12:57:02.792Z</time></trkpt><trkpt lat="43.678198" lon="10.9416469"><ele>127.99999999999999</ele><time>2026-04-04T12:57:09.792Z</time></trkpt><trkpt lat="43.678142" lon="10.941595"><ele>128.0</ele><time>2026-04-04T12:57:15.805Z</time></trkpt><trkpt lat="43.6780833" lon="10.9415416"><ele>128.0</ele><time>2026-04-04T12:57:22.793Z</time></trkpt><trkpt lat="43.6780262" lon="10.9414853"><ele>127.99999999999999</ele><time>2026-04-04T12:57:28.803Z</time></trkpt><trkpt lat="43.6779616" lon="10.9414409"><ele>128.0</ele><time>2026-04-04T12:57:35.792Z</time></trkpt><trkpt lat="43.6779038" lon="10.9413967"><ele>128.0</ele><time>2026-04-04T12:57:41.792Z</time></trkpt><trkpt lat="43.6778478" lon="10.9413473"><ele>128.0</ele><time>2026-04-04T12:57:47.792Z</time></trkpt><trkpt lat="43.6777878" lon="10.941293"><ele>127.99999999999999</ele><time>2026-04-04T12:57:53.792Z</time></trkpt><trkpt lat="43.6777321" lon="10.9412492"><ele>128.0</ele><time>2026-04-04T12:57:59.792Z</time></trkpt><trkpt lat="43.6776728" lon="10.9412115"><ele>128.0</ele><time>2026-04-04T12:58:05.868Z</time></trkpt><trkpt lat="43.6776135" lon="10.9411671"><ele>127.99999999999999</ele><time>2026-04-04T12:58:12.792Z</time></trkpt><trkpt lat="43.6775508" lon="10.9411477"><ele>128.0</ele><time>2026-04-04T12:58:18.727Z</time></trkpt><trkpt lat="43.6774944" lon="10.9411087"><ele>128.0</ele><time>2026-04-04T12:58:24.799Z</time></trkpt><trkpt lat="43.6774335" lon="10.9410807"><ele>128.0</ele><time>2026-04-04T12:58:30.794Z</time></trkpt><trkpt lat="43.677366" lon="10.9410769"><ele>127.99999999999999</ele><time>2026-04-04T12:58:37.797Z</time></trkpt><trkpt lat="43.677301" lon="10.9410634"><ele>128.0</ele><time>2026-04-04T12:58:43.806Z</time></trkpt><trkpt lat="43.6772629" lon="10.9409856"><ele>128.0</ele><time>2026-04-04T12:58:49.793Z</time></trkpt><trkpt lat="43.6772735" lon="10.940895"><ele>127.99999999999999</ele><time>2026-04-04T12:58:54.792Z</time></trkpt><trkpt lat="43.677264" lon="10.9408061"><ele>128.0</ele><time>2026-04-04T12:58:59.793Z</time></trkpt><trkpt lat="43.6772249" lon="10.9407238"><ele>128.0</ele><time>2026-04-04T12:59:05.792Z</time></trkpt><trkpt lat="43.6771868" lon="10.9406389"><ele>128.0</ele><time>2026-04-04T12:59:11.868Z</time></trkpt><trkpt lat="43.6771656" lon="10.9405514"><ele>127.99999999999999</ele><time>2026-04-04T12:59:17.793Z</time></trkpt><trkpt lat="43.6771528" lon="10.9404598"><ele>128.0</ele><time>2026-04-04T12:59:22.792Z</time></trkpt><trkpt lat="43.6771249" lon="10.9403742"><ele>128.0</ele><time>2026-04-04T12:59:28.793Z</time></trkpt><trkpt lat="43.6770857" lon="10.9402981"><ele>127.99999999999999</ele><time>2026-04-04T12:59:33.807Z</time></trkpt><trkpt lat="43.6770542" lon="10.9402221"><ele>128.0</ele><time>2026-04-04T12:59:39.795Z</time></trkpt><trkpt lat="43.6770208" lon="10.9401399"><ele>128.0</ele><time>2026-04-04T12:59:44.869Z</time></trkpt><trkpt lat="43.6769956" lon="10.940053"><ele>127.85714285714285</ele><time>2026-04-04T12:59:50.812Z</time></trkpt><trkpt lat="43.6769695" lon="10.9399637"><ele>127.7142857142857</ele><time>2026-04-04T12:59:56.793Z</time></trkpt><trkpt lat="43.6769341" lon="10.9398814"><ele>127.57142857142857</ele><time>2026-04-04T13:00:02.808Z</time></trkpt><trkpt lat="43.6768915" lon="10.9397994"><ele>127.42857142857142</ele><time>2026-04-04T13:00:08.736Z</time></trkpt><trkpt lat="43.676849" lon="10.9397226"><ele>127.28571428571428</ele><time>2026-04-04T13:00:14.807Z</time></trkpt><trkpt lat="43.676815" lon="10.9396334"><ele>127.14285714285714</ele><time>2026-04-04T13:00:20.869Z</time></trkpt><trkpt lat="43.6767856" lon="10.9395482"><ele>127.0</ele><time>2026-04-04T13:00:26.793Z</time></trkpt><trkpt lat="43.676755" lon="10.9394708"><ele>127.0</ele><time>2026-04-04T13:00:31.792Z</time></trkpt><trkpt lat="43.6767262" lon="10.9393719"><ele>127.0</ele><time>2026-04-04T13:00:38.792Z</time></trkpt><trkpt lat="43.6767065" lon="10.9392859"><ele>127.0</ele><time>2026-04-04T13:00:43.869Z</time></trkpt><trkpt lat="43.6766699" lon="10.9392016"><ele>127.0</ele><time>2026-04-04T13:00:49.807Z</time></trkpt><trkpt lat="43.676634" lon="10.9391227"><ele>127.0</ele><time>2026-04-04T13:00:55.796Z</time></trkpt><trkpt lat="43.676579" lon="10.9390649"><ele>127.0</ele><time>2026-04-04T13:01:01.804Z</time></trkpt><trkpt lat="43.676513" lon="10.9390168"><ele>127.0</ele><time>2026-04-04T13:01:07.812Z</time></trkpt><trkpt lat="43.6764544" lon="10.9389667"><ele>126.28571428571429</ele><time>2026-04-04T13:01:13.717Z</time></trkpt><trkpt lat="43.6764011" lon="10.9388955"><ele>125.57142857142856</ele><time>2026-04-04T13:01:20.793Z</time></trkpt><trkpt lat="43.6763698" lon="10.9388176"><ele>124.85714285714285</ele><time>2026-04-04T13:01:26.792Z</time></trkpt><trkpt lat="43.6763364" lon="10.9387311"><ele>124.14285714285714</ele><time>2026-04-04T13:01:32.809Z</time></trkpt><trkpt lat="43.6763085" lon="10.9386495"><ele>123.42857142857142</ele><time>2026-04-04T13:01:37.793Z</time></trkpt><trkpt lat="43.6762716" lon="10.9385648"><ele>122.7142857142857</ele><time>2026-04-04T13:01:43.792Z</time></trkpt><trkpt lat="43.6762291" lon="10.938492"><ele>121.99999999999999</ele><time>2026-04-04T13:01:49.881Z</time></trkpt><trkpt lat="43.6761746" lon="10.9384293"><ele>120.99999999999999</ele><time>2026-04-04T13:01:55.803Z</time></trkpt><trkpt lat="43.6761325" lon="10.9383637"><ele>120.0</ele><time>2026-04-04T13:02:01.792Z</time></trkpt><trkpt lat="43.6760952" lon="10.9382781"><ele>118.99999999999999</ele><time>2026-04-04T13:02:07.736Z</time></trkpt><trkpt lat="43.6760632" lon="10.9381906"><ele>117.99999999999999</ele><time>2026-04-04T13:02:13.793Z</time></trkpt><trkpt lat="43.6760427" lon="10.9381069"><ele>117.0</ele><time>2026-04-04T13:02:18.792Z</time></trkpt><trkpt lat="43.6760327" lon="10.9380099"><ele>115.99999999999999</ele><time>2026-04-04T13:02:24.867Z</time></trkpt><trkpt lat="43.6760124" lon="10.9379181"><ele>114.99999999999999</ele><time>2026-04-04T13:02:30.792Z</time></trkpt><trkpt lat="43.6760312" lon="10.9378256"><ele>114.99999999999999</ele><time>2026-04-04T13:02:36.821Z</time></trkpt><trkpt lat="43.6760569" lon="10.9377326"><ele>115.0</ele><time>2026-04-04T13:02:42.792Z</time></trkpt><trkpt lat="43.6760901" lon="10.9376372"><ele>114.99999999999999</ele><time>2026-04-04T13:02:48.829Z</time></trkpt><trkpt lat="43.6761184" lon="10.937557"><ele>114.99999999999999</ele><time>2026-04-04T13:02:54.792Z</time></trkpt><trkpt lat="43.6761381" lon="10.9374578"><ele>115.0</ele><time>2026-04-04T13:03:00.774Z</time></trkpt><trkpt lat="43.676163" lon="10.9373637"><ele>114.99999999999999</ele><time>2026-04-04T13:03:06.792Z</time></trkpt><trkpt lat="43.6761924" lon="10.9372681"><ele>114.99999999999999</ele><time>2026-04-04T13:03:12.839Z</time></trkpt><trkpt lat="43.6762158" lon="10.9371859"><ele>112.85714285714285</ele><time>2026-04-04T13:03:17.792Z</time></trkpt><trkpt lat="43.6762327" lon="10.9370862"><ele>110.71428571428571</ele><time>2026-04-04T13:03:24.8Z</time></trkpt><trkpt lat="43.6762514" lon="10.9369969"><ele>108.57142857142857</ele><time>2026-04-04T13:03:30.813Z</time></trkpt><trkpt lat="43.6762772" lon="10.9369112"><ele>106.42857142857142</ele><time>2026-04-04T13:03:36.793Z</time></trkpt><trkpt lat="43.6763109" lon="10.9368241"><ele>104.28571428571428</ele><time>2026-04-04T13:03:42.812Z</time></trkpt><trkpt lat="43.6763481" lon="10.9367449"><ele>102.14285714285715</ele><time>2026-04-04T13:03:48.8Z</time></trkpt><trkpt lat="43.6763724" lon="10.9366612"><ele>100.0</ele><time>2026-04-04T13:03:54.85Z</time></trkpt><trkpt lat="43.6764063" lon="10.9365799"><ele>99.57142857142858</ele><time>2026-04-04T13:04:00.838Z</time></trkpt><trkpt lat="43.6764436" lon="10.9365013"><ele>99.14285714285714</ele><time>2026-04-04T13:04:06.807Z</time></trkpt><trkpt lat="43.6764694" lon="10.9364153"><ele>98.71428571428572</ele><time>2026-04-04T13:04:12.796Z</time></trkpt><trkpt lat="43.6764983" lon="10.9363268"><ele>98.28571428571429</ele><time>2026-04-04T13:04:19.723Z</time></trkpt><trkpt lat="43.6765178" lon="10.9362371"><ele>97.85714285714286</ele><time>2026-04-04T13:04:25.793Z</time></trkpt><trkpt lat="43.6765383" lon="10.9361488"><ele>97.42857142857143</ele><time>2026-04-04T13:04:31.751Z</time></trkpt><trkpt lat="43.6765676" lon="10.9360714"><ele>97.0</ele><time>2026-04-04T13:04:37.75Z</time></trkpt><trkpt lat="43.6765997" lon="10.9359895"><ele>97.0</ele><time>2026-04-04T13:04:43.769Z</time></trkpt><trkpt lat="43.6766402" lon="10.9359195"><ele>97.0</ele><time>2026-04-04T13:04:49.776Z</time></trkpt><trkpt lat="43.676687" lon="10.9358504"><ele>97.0</ele><time>2026-04-04T13:04:55.815Z</time></trkpt><trkpt lat="43.676722" lon="10.9357682"><ele>97.0</ele><time>2026-04-04T13:05:01.812Z</time></trkpt><trkpt lat="43.6767376" lon="10.9356802"><ele>97.0</ele><time>2026-04-04T13:05:07.792Z</time></trkpt><trkpt lat="43.6767315" lon="10.9355888"><ele>97.0</ele><time>2026-04-04T13:05:13.714Z</time></trkpt><trkpt lat="43.6767414" lon="10.9355004"><ele>97.0</ele><time>2026-04-04T13:05:19.792Z</time></trkpt><trkpt lat="43.6767536" lon="10.9354098"><ele>96.42857142857143</ele><time>2026-04-04T13:05:25.792Z</time></trkpt><trkpt lat="43.6767727" lon="10.9353196"><ele>95.85714285714286</ele><time>2026-04-04T13:05:31.792Z</time></trkpt><trkpt lat="43.6767906" lon="10.9352255"><ele>95.28571428571429</ele><time>2026-04-04T13:05:37.793Z</time></trkpt><trkpt lat="43.6768191" lon="10.9351367"><ele>94.71428571428572</ele><time>2026-04-04T13:05:43.807Z</time></trkpt><trkpt lat="43.676842" lon="10.9350539"><ele>94.14285714285714</ele><time>2026-04-04T13:05:49.792Z</time></trkpt><trkpt lat="43.676849" lon="10.9349588"><ele>93.57142857142858</ele><time>2026-04-04T13:05:54.792Z</time></trkpt><trkpt lat="43.6768608" lon="10.9348731"><ele>93.0</ele><time>2026-04-04T13:05:59.81Z</time></trkpt><trkpt lat="43.676876" lon="10.9347772"><ele>92.00000000000001</ele><time>2026-04-04T13:06:05.905Z</time></trkpt><trkpt lat="43.6768709" lon="10.9346823"><ele>91.0</ele><time>2026-04-04T13:06:12.474Z</time></trkpt><trkpt lat="43.6768625" lon="10.9345919"><ele>90.0</ele><time>2026-04-04T13:06:18.792Z</time></trkpt><trkpt lat="43.6768306" lon="10.9344981"><ele>89.0</ele><time>2026-04-04T13:06:29.792Z</time></trkpt><trkpt lat="43.6768063" lon="10.9344101"><ele>88.0</ele><time>2026-04-04T13:06:34.819Z</time></trkpt><trkpt lat="43.6768004" lon="10.934323"><ele>87.00000000000001</ele><time>2026-04-04T13:06:39.792Z</time></trkpt><trkpt lat="43.6767999" lon="10.9342173"><ele>86.0</ele><time>2026-04-04T13:06:45.834Z</time></trkpt><trkpt lat="43.6767964" lon="10.9341148"><ele>84.57142857142858</ele><time>2026-04-04T13:06:51.772Z</time></trkpt><trkpt lat="43.6767907" lon="10.9340188"><ele>83.14285714285714</ele><time>2026-04-04T13:06:57.832Z</time></trkpt><trkpt lat="43.6767833" lon="10.9339245"><ele>81.71428571428572</ele><time>2026-04-04T13:07:03.803Z</time></trkpt><trkpt lat="43.6767724" lon="10.9338326"><ele>80.28571428571429</ele><time>2026-04-04T13:07:09.791Z</time></trkpt><trkpt lat="43.6767738" lon="10.9337379"><ele>78.85714285714286</ele><time>2026-04-04T13:07:15.792Z</time></trkpt><trkpt lat="43.6767751" lon="10.9336338"><ele>77.42857142857143</ele><time>2026-04-04T13:07:21.799Z</time></trkpt><trkpt lat="43.6767783" lon="10.9335295"><ele>76.0</ele><time>2026-04-04T13:07:27.809Z</time></trkpt><trkpt lat="43.676784" lon="10.933442"><ele>75.57142857142857</ele><time>2026-04-04T13:07:32.822Z</time></trkpt><trkpt lat="43.6767849" lon="10.9333549"><ele>75.14285714285715</ele><time>2026-04-04T13:07:38.76Z</time></trkpt><trkpt lat="43.6767872" lon="10.933258"><ele>74.71428571428572</ele><time>2026-04-04T13:07:43.791Z</time></trkpt><trkpt lat="43.6767837" lon="10.9331576"><ele>74.28571428571428</ele><time>2026-04-04T13:07:49.705Z</time></trkpt><trkpt lat="43.6767807" lon="10.9330687"><ele>73.85714285714286</ele><time>2026-04-04T13:07:54.792Z</time></trkpt><trkpt lat="43.6767693" lon="10.932969"><ele>73.42857142857143</ele><time>2026-04-04T13:08:00.792Z</time></trkpt><trkpt lat="43.676764" lon="10.93288"><ele>73.0</ele><time>2026-04-04T13:08:05.821Z</time></trkpt><trkpt lat="43.6767537" lon="10.9327771"><ele>73.0</ele><time>2026-04-04T13:08:11.802Z</time></trkpt><trkpt lat="43.6767346" lon="10.9326821"><ele>73.0</ele><time>2026-04-04T13:08:17.739Z</time></trkpt><trkpt lat="43.6767317" lon="10.9325946"><ele>73.0</ele><time>2026-04-04T13:08:22.791Z</time></trkpt><trkpt lat="43.6767216" lon="10.9325066"><ele>73.0</ele><time>2026-04-04T13:08:27.805Z</time></trkpt><trkpt lat="43.6766968" lon="10.9324247"><ele>73.0</ele><time>2026-04-04T13:08:32.791Z</time></trkpt><trkpt lat="43.6766629" lon="10.9323487"><ele>73.0</ele><time>2026-04-04T13:08:38.791Z</time></trkpt><trkpt lat="43.6766321" lon="10.9322586"><ele>73.0</ele><time>2026-04-04T13:08:44.83Z</time></trkpt><trkpt lat="43.6765982" lon="10.9321803"><ele>72.42857142857143</ele><time>2026-04-04T13:08:50.791Z</time></trkpt><trkpt lat="43.6765687" lon="10.932101"><ele>71.85714285714286</ele><time>2026-04-04T13:08:56.807Z</time></trkpt><trkpt lat="43.6765238" lon="10.9320347"><ele>71.28571428571429</ele><time>2026-04-04T13:09:02.792Z</time></trkpt><trkpt lat="43.6764947" lon="10.9319488"><ele>70.71428571428572</ele><time>2026-04-04T13:09:08.792Z</time></trkpt><trkpt lat="43.6764641" lon="10.9318645"><ele>70.14285714285715</ele><time>2026-04-04T13:09:14.791Z</time></trkpt><trkpt lat="43.6764377" lon="10.9317826"><ele>69.57142857142857</ele><time>2026-04-04T13:09:20.791Z</time></trkpt><trkpt lat="43.6764093" lon="10.9317014"><ele>69.0</ele><time>2026-04-04T13:09:26.711Z</time></trkpt><trkpt lat="43.6763784" lon="10.9316192"><ele>68.0</ele><time>2026-04-04T13:09:33.791Z</time></trkpt><trkpt lat="43.6763603" lon="10.9315313"><ele>67.0</ele><time>2026-04-04T13:09:39.737Z</time></trkpt><trkpt lat="43.6763214" lon="10.9314555"><ele>66.0</ele><time>2026-04-04T13:09:45.808Z</time></trkpt><trkpt lat="43.6762877" lon="10.9313725"><ele>65.0</ele><time>2026-04-04T13:09:52.792Z</time></trkpt><trkpt lat="43.6762477" lon="10.9312938"><ele>64.0</ele><time>2026-04-04T13:09:59.785Z</time></trkpt><trkpt lat="43.6762093" lon="10.9312198"><ele>63.0</ele><time>2026-04-04T13:10:05.797Z</time></trkpt><trkpt lat="43.6761672" lon="10.9311517"><ele>62.0</ele><time>2026-04-04T13:10:11.791Z</time></trkpt><trkpt lat="43.6761197" lon="10.9310838"><ele>62.0</ele><time>2026-04-04T13:10:17.811Z</time></trkpt><trkpt lat="43.676071" lon="10.9310211"><ele>62.00000000000001</ele><time>2026-04-04T13:10:23.805Z</time></trkpt><trkpt lat="43.6760277" lon="10.9309485"><ele>62.0</ele><time>2026-04-04T13:10:29.791Z</time></trkpt><trkpt lat="43.6759807" lon="10.9308826"><ele>62.0</ele><time>2026-04-04T13:10:35.801Z</time></trkpt><trkpt lat="43.6759263" lon="10.9308215"><ele>62.00000000000001</ele><time>2026-04-04T13:10:42.792Z</time></trkpt><trkpt lat="43.6758779" lon="10.9307584"><ele>62.0</ele><time>2026-04-04T13:10:48.791Z</time></trkpt><trkpt lat="43.6758191" lon="10.9306796"><ele>62.0</ele><time>2026-04-04T13:10:56.791Z</time></trkpt><trkpt lat="43.6757695" lon="10.9306041"><ele>60.85714285714286</ele><time>2026-04-04T13:11:02.709Z</time></trkpt><trkpt lat="43.6757305" lon="10.9305221"><ele>59.71428571428572</ele><time>2026-04-04T13:11:08.791Z</time></trkpt><trkpt lat="43.6757153" lon="10.9304298"><ele>58.57142857142857</ele><time>2026-04-04T13:11:15.81Z</time></trkpt><trkpt lat="43.6757128" lon="10.9303271"><ele>57.42857142857143</ele><time>2026-04-04T13:11:20.792Z</time></trkpt><trkpt lat="43.6757287" lon="10.9302303"><ele>56.285714285714285</ele><time>2026-04-04T13:11:25.805Z</time></trkpt><trkpt lat="43.6757373" lon="10.9301344"><ele>55.14285714285714</ele><time>2026-04-04T13:11:31.791Z</time></trkpt><trkpt lat="43.675739" lon="10.9300302"><ele>54.0</ele><time>2026-04-04T13:11:37.804Z</time></trkpt><trkpt lat="43.6757614" lon="10.9299445"><ele>52.42857142857143</ele><time>2026-04-04T13:11:43.812Z</time></trkpt><trkpt lat="43.6757809" lon="10.9298585"><ele>50.857142857142854</ele><time>2026-04-04T13:11:49.792Z</time></trkpt><trkpt lat="43.6757938" lon="10.9297709"><ele>49.28571428571429</ele><time>2026-04-04T13:11:55.791Z</time></trkpt><trkpt lat="43.6758171" lon="10.9296819"><ele>47.714285714285715</ele><time>2026-04-04T13:12:01.791Z</time></trkpt><trkpt lat="43.6758322" lon="10.9295933"><ele>46.142857142857146</ele><time>2026-04-04T13:12:07.792Z</time></trkpt><trkpt lat="43.6758533" lon="10.9294997"><ele>44.57142857142858</ele><time>2026-04-04T13:12:13.792Z</time></trkpt><trkpt lat="43.675867" lon="10.929401"><ele>43.0</ele><time>2026-04-04T13:12:19.805Z</time></trkpt><trkpt lat="43.6758751" lon="10.9293136"><ele>42.57142857142858</ele><time>2026-04-04T13:12:25.792Z</time></trkpt><trkpt lat="43.6758823" lon="10.9292167"><ele>42.142857142857146</ele><time>2026-04-04T13:12:31.803Z</time></trkpt><trkpt lat="43.6758983" lon="10.9291216"><ele>41.714285714285715</ele><time>2026-04-04T13:12:38.713Z</time></trkpt><trkpt lat="43.6758926" lon="10.9290279"><ele>41.28571428571429</ele><time>2026-04-04T13:12:44.791Z</time></trkpt><trkpt lat="43.675903" lon="10.9289349"><ele>40.85714285714286</ele><time>2026-04-04T13:12:50.792Z</time></trkpt><trkpt lat="43.6759086" lon="10.9288416"><ele>40.42857142857143</ele><time>2026-04-04T13:12:56.791Z</time></trkpt><trkpt lat="43.6759043" lon="10.9287522"><ele>40.0</ele><time>2026-04-04T13:13:02.792Z</time></trkpt><trkpt lat="43.6759089" lon="10.928656"><ele>40.0</ele><time>2026-04-04T13:13:08.837Z</time></trkpt><trkpt lat="43.6759095" lon="10.9285672"><ele>40.0</ele><time>2026-04-04T13:13:14.792Z</time></trkpt><trkpt lat="43.6758993" lon="10.928478"><ele>40.0</ele><time>2026-04-04T13:13:20.797Z</time></trkpt><trkpt lat="43.6758872" lon="10.9283871"><ele>40.0</ele><time>2026-04-04T13:13:26.806Z</time></trkpt><trkpt lat="43.6758746" lon="10.9283008"><ele>40.0</ele><time>2026-04-04T13:13:32.791Z</time></trkpt><trkpt lat="43.675851" lon="10.9282105"><ele>40.0</ele><time>2026-04-04T13:13:39.806Z</time></trkpt><trkpt lat="43.6758929" lon="10.9281266"><ele>40.0</ele><time>2026-04-04T13:14:48.791Z</time></trkpt><trkpt lat="43.6759266" lon="10.9280478"><ele>39.857142857142854</ele><time>2026-04-04T13:14:53.792Z</time></trkpt><trkpt lat="43.6759842" lon="10.9280015"><ele>39.714285714285715</ele><time>2026-04-04T13:14:58.791Z</time></trkpt><trkpt lat="43.6760474" lon="10.9279512"><ele>39.57142857142857</ele><time>2026-04-04T13:15:04.804Z</time></trkpt><trkpt lat="43.676106" lon="10.9278898"><ele>39.42857142857143</ele><time>2026-04-04T13:15:10.792Z</time></trkpt><trkpt lat="43.6761644" lon="10.9278346"><ele>39.285714285714285</ele><time>2026-04-04T13:15:16.874Z</time></trkpt><trkpt lat="43.6762127" lon="10.9277596"><ele>39.142857142857146</ele><time>2026-04-04T13:15:22.791Z</time></trkpt><trkpt lat="43.6762623" lon="10.9276935"><ele>39.0</ele><time>2026-04-04T13:15:28.791Z</time></trkpt><trkpt lat="43.6763166" lon="10.9276386"><ele>39.0</ele><time>2026-04-04T13:15:34.747Z</time></trkpt><trkpt lat="43.6763683" lon="10.9275711"><ele>39.0</ele><time>2026-04-04T13:15:40.791Z</time></trkpt><trkpt lat="43.6764137" lon="10.9274951"><ele>39.0</ele><time>2026-04-04T13:15:46.655Z</time></trkpt><trkpt lat="43.676452" lon="10.9274055"><ele>39.0</ele><time>2026-04-04T13:15:52.791Z</time></trkpt><trkpt lat="43.6764767" lon="10.9273219"><ele>39.0</ele><time>2026-04-04T13:15:58.805Z</time></trkpt><trkpt lat="43.6765283" lon="10.9272503"><ele>39.0</ele><time>2026-04-04T13:16:04.72Z</time></trkpt><trkpt lat="43.6765773" lon="10.9271827"><ele>39.0</ele><time>2026-04-04T13:16:10.759Z</time></trkpt><trkpt lat="43.6766235" lon="10.9271059"><ele>39.0</ele><time>2026-04-04T13:16:16.791Z</time></trkpt><trkpt lat="43.6766704" lon="10.9270339"><ele>39.0</ele><time>2026-04-04T13:16:22.791Z</time></trkpt><trkpt lat="43.6767191" lon="10.9269719"><ele>39.0</ele><time>2026-04-04T13:16:28.755Z</time></trkpt><trkpt lat="43.6767677" lon="10.9269111"><ele>39.0</ele><time>2026-04-04T13:16:34.873Z</time></trkpt><trkpt lat="43.6768092" lon="10.9268369"><ele>39.0</ele><time>2026-04-04T13:16:40.791Z</time></trkpt><trkpt lat="43.6768609" lon="10.9267808"><ele>39.0</ele><time>2026-04-04T13:16:47.796Z</time></trkpt><trkpt lat="43.6769099" lon="10.9267136"><ele>39.0</ele><time>2026-04-04T13:16:52.804Z</time></trkpt><trkpt lat="43.6769389" lon="10.9266193"><ele>39.285714285714285</ele><time>2026-04-04T13:16:58.812Z</time></trkpt><trkpt lat="43.6769746" lon="10.9265413"><ele>39.57142857142857</ele><time>2026-04-04T13:17:04.801Z</time></trkpt><trkpt lat="43.6770139" lon="10.9264613"><ele>39.857142857142854</ele><time>2026-04-04T13:17:10.697Z</time></trkpt><trkpt lat="43.6770543" lon="10.9263813"><ele>40.14285714285714</ele><time>2026-04-04T13:17:16.819Z</time></trkpt><trkpt lat="43.6771003" lon="10.9263117"><ele>40.42857142857143</ele><time>2026-04-04T13:17:22.827Z</time></trkpt><trkpt lat="43.6771344" lon="10.9262376"><ele>40.71428571428571</ele><time>2026-04-04T13:17:27.815Z</time></trkpt><trkpt lat="43.6771764" lon="10.9261574"><ele>41.0</ele><time>2026-04-04T13:17:34.43Z</time></trkpt><trkpt lat="43.6772154" lon="10.9260702"><ele>40.99999999999999</ele><time>2026-04-04T13:17:40.793Z</time></trkpt><trkpt lat="43.6772249" lon="10.9259728"><ele>41.0</ele><time>2026-04-04T13:17:47.81Z</time></trkpt><trkpt lat="43.6772742" lon="10.925908"><ele>41.0</ele><time>2026-04-04T13:17:52.907Z</time></trkpt><trkpt lat="43.6773089" lon="10.9258256"><ele>41.0</ele><time>2026-04-04T13:17:58.395Z</time></trkpt><trkpt lat="43.6773323" lon="10.9257203"><ele>41.0</ele><time>2026-04-04T13:18:14.794Z</time></trkpt><trkpt lat="43.677338" lon="10.9256197"><ele>40.99999999999999</ele><time>2026-04-04T13:18:20.793Z</time></trkpt><trkpt lat="43.6773514" lon="10.92553"><ele>41.0</ele><time>2026-04-04T13:18:26.788Z</time></trkpt><trkpt lat="43.6773784" lon="10.9254479"><ele>40.99999999999999</ele><time>2026-04-04T13:18:32.793Z</time></trkpt><trkpt lat="43.6774016" lon="10.9253648"><ele>41.0</ele><time>2026-04-04T13:18:38.808Z</time></trkpt><trkpt lat="43.6774348" lon="10.9252806"><ele>41.0</ele><time>2026-04-04T13:18:44.794Z</time></trkpt><trkpt lat="43.6774482" lon="10.9251806"><ele>41.0</ele><time>2026-04-04T13:18:50.793Z</time></trkpt><trkpt lat="43.677461" lon="10.9250843"><ele>41.0</ele><time>2026-04-04T13:18:56.794Z</time></trkpt><trkpt lat="43.677486" lon="10.9249885"><ele>40.99999999999999</ele><time>2026-04-04T13:19:02.804Z</time></trkpt><trkpt lat="43.6774976" lon="10.9249002"><ele>41.0</ele><time>2026-04-04T13:19:08.793Z</time></trkpt><trkpt lat="43.6775306" lon="10.9248064"><ele>40.99999999999999</ele><time>2026-04-04T13:19:15.803Z</time></trkpt><trkpt lat="43.6775458" lon="10.9247122"><ele>41.0</ele><time>2026-04-04T13:19:20.793Z</time></trkpt><trkpt lat="43.67754" lon="10.9246255"><ele>41.0</ele><time>2026-04-04T13:19:25.798Z</time></trkpt><trkpt lat="43.6775411" lon="10.9245272"><ele>41.0</ele><time>2026-04-04T13:19:31.714Z</time></trkpt><trkpt lat="43.6775585" lon="10.9244408"><ele>41.0</ele><time>2026-04-04T13:19:37.795Z</time></trkpt><trkpt lat="43.677586" lon="10.9243575"><ele>40.99999999999999</ele><time>2026-04-04T13:19:43.794Z</time></trkpt><trkpt lat="43.6776137" lon="10.9242588"><ele>41.0</ele><time>2026-04-04T13:19:50.794Z</time></trkpt><trkpt lat="43.6776428" lon="10.9241705"><ele>41.14285714285714</ele><time>2026-04-04T13:19:56.804Z</time></trkpt><trkpt lat="43.6776596" lon="10.9240742"><ele>41.285714285714285</ele><time>2026-04-04T13:20:02.793Z</time></trkpt><trkpt lat="43.6776617" lon="10.9239798"><ele>41.42857142857143</ele><time>2026-04-04T13:20:08.801Z</time></trkpt><trkpt lat="43.6776839" lon="10.9238903"><ele>41.57142857142857</ele><time>2026-04-04T13:20:14.736Z</time></trkpt><trkpt lat="43.6777107" lon="10.923795"><ele>41.714285714285715</ele><time>2026-04-04T13:20:20.793Z</time></trkpt><trkpt lat="43.6777249" lon="10.9237049"><ele>41.857142857142854</ele><time>2026-04-04T13:20:26.793Z</time></trkpt><trkpt lat="43.6777364" lon="10.9236104"><ele>42.0</ele><time>2026-04-04T13:20:32.797Z</time></trkpt><trkpt lat="43.6777474" lon="10.9235099"><ele>42.0</ele><time>2026-04-04T13:20:38.804Z</time></trkpt><trkpt lat="43.6777656" lon="10.923415"><ele>42.0</ele><time>2026-04-04T13:20:44.793Z</time></trkpt><trkpt lat="43.6777768" lon="10.9233203"><ele>42.0</ele><time>2026-04-04T13:20:50.698Z</time></trkpt><trkpt lat="43.6777928" lon="10.9232319"><ele>42.0</ele><time>2026-04-04T13:20:56.794Z</time></trkpt><trkpt lat="43.6778062" lon="10.9231414"><ele>42.0</ele><time>2026-04-04T13:21:02.81Z</time></trkpt><trkpt lat="43.6778343" lon="10.9230525"><ele>42.0</ele><time>2026-04-04T13:21:08.774Z</time></trkpt><trkpt lat="43.6778493" lon="10.9229608"><ele>42.0</ele><time>2026-04-04T13:21:14.748Z</time></trkpt><trkpt lat="43.6778564" lon="10.9228716"><ele>42.57142857142857</ele><time>2026-04-04T13:21:20.797Z</time></trkpt><trkpt lat="43.6778937" lon="10.9227926"><ele>43.14285714285714</ele><time>2026-04-04T13:21:27.794Z</time></trkpt><trkpt lat="43.6779422" lon="10.9227235"><ele>43.714285714285715</ele><time>2026-04-04T13:21:33.795Z</time></trkpt><trkpt lat="43.6779918" lon="10.9226692"><ele>44.285714285714285</ele><time>2026-04-04T13:21:40.794Z</time></trkpt><trkpt lat="43.6780362" lon="10.9226057"><ele>44.857142857142854</ele><time>2026-04-04T13:21:47.793Z</time></trkpt><trkpt lat="43.6780717" lon="10.9225328"><ele>45.42857142857143</ele><time>2026-04-04T13:21:54.806Z</time></trkpt><trkpt lat="43.678104" lon="10.9224529"><ele>46.0</ele><time>2026-04-04T13:22:02.793Z</time></trkpt><trkpt lat="43.678141" lon="10.9223661"><ele>46.0</ele><time>2026-04-04T13:22:09.793Z</time></trkpt><trkpt lat="43.6781754" lon="10.922282"><ele>46.0</ele><time>2026-04-04T13:22:15.793Z</time></trkpt><trkpt lat="43.6782117" lon="10.9222071"><ele>46.0</ele><time>2026-04-04T13:22:21.926Z</time></trkpt><trkpt lat="43.6782495" lon="10.9221224"><ele>46.0</ele><time>2026-04-04T13:22:28.876Z</time></trkpt><trkpt lat="43.6782827" lon="10.9220361"><ele>46.0</ele><time>2026-04-04T13:22:35.873Z</time></trkpt><trkpt lat="43.678318" lon="10.9219495"><ele>46.0</ele><time>2026-04-04T13:22:42.793Z</time></trkpt><trkpt lat="43.6783438" lon="10.9218656"><ele>46.0</ele><time>2026-04-04T13:22:47.794Z</time></trkpt><trkpt lat="43.6783735" lon="10.9217822"><ele>45.85714285714286</ele><time>2026-04-04T13:22:52.793Z</time></trkpt><trkpt lat="43.6784022" lon="10.9216868"><ele>45.71428571428571</ele><time>2026-04-04T13:22:58.808Z</time></trkpt><trkpt lat="43.6784181" lon="10.9215964"><ele>45.57142857142857</ele><time>2026-04-04T13:23:03.793Z</time></trkpt><trkpt lat="43.6784635" lon="10.921523"><ele>45.42857142857143</ele><time>2026-04-04T13:23:09.805Z</time></trkpt><trkpt lat="43.678527" lon="10.921488"><ele>45.28571428571429</ele><time>2026-04-04T13:23:15.793Z</time></trkpt><trkpt lat="43.6785665" lon="10.9214188"><ele>45.14285714285714</ele><time>2026-04-04T13:23:20.873Z</time></trkpt><trkpt lat="43.6786241" lon="10.9213679"><ele>45.0</ele><time>2026-04-04T13:23:26.81Z</time></trkpt><trkpt lat="43.6786788" lon="10.9213158"><ele>45.0</ele><time>2026-04-04T13:23:32.793Z</time></trkpt><trkpt lat="43.6787316" lon="10.9212477"><ele>45.0</ele><time>2026-04-04T13:23:37.793Z</time></trkpt><trkpt lat="43.6787955" lon="10.921199"><ele>45.0</ele><time>2026-04-04T13:23:42.793Z</time></trkpt><trkpt lat="43.6788563" lon="10.9212221"><ele>45.0</ele><time>2026-04-04T13:23:48.794Z</time></trkpt><trkpt lat="43.6789026" lon="10.9213029"><ele>45.0</ele><time>2026-04-04T13:23:55.836Z</time></trkpt><trkpt lat="43.6789483" lon="10.9213774"><ele>45.0</ele><time>2026-04-04T13:24:03.853Z</time></trkpt><trkpt lat="43.6789835" lon="10.9214498"><ele>45.0</ele><time>2026-04-04T13:24:09.808Z</time></trkpt><trkpt lat="43.6790197" lon="10.9215222"><ele>45.0</ele><time>2026-04-04T13:24:15.793Z</time></trkpt><trkpt lat="43.6790613" lon="10.9215888"><ele>45.0</ele><time>2026-04-04T13:24:21.796Z</time></trkpt><trkpt lat="43.6791016" lon="10.9216644"><ele>45.0</ele><time>2026-04-04T13:24:28.837Z</time></trkpt><trkpt lat="43.6791425" lon="10.9217338"><ele>45.0</ele><time>2026-04-04T13:24:34.814Z</time></trkpt><trkpt lat="43.6791794" lon="10.9218136"><ele>45.0</ele><time>2026-04-04T13:24:40.793Z</time></trkpt><trkpt lat="43.6792162" lon="10.9218867"><ele>45.0</ele><time>2026-04-04T13:24:46.805Z</time></trkpt><trkpt lat="43.679238" lon="10.9219789"><ele>45.0</ele><time>2026-04-04T13:24:53.794Z</time></trkpt><trkpt lat="43.679246" lon="10.9220776"><ele>45.857142857142854</ele><time>2026-04-04T13:25:00.793Z</time></trkpt><trkpt lat="43.6792344" lon="10.9221727"><ele>46.714285714285715</ele><time>2026-04-04T13:25:07.922Z</time></trkpt><trkpt lat="43.6792241" lon="10.9222639"><ele>47.57142857142857</ele><time>2026-04-04T13:25:14.885Z</time></trkpt><trkpt lat="43.6792487" lon="10.9223625"><ele>48.42857142857143</ele><time>2026-04-04T13:25:20.793Z</time></trkpt><trkpt lat="43.6792323" lon="10.9224584"><ele>49.28571428571429</ele><time>2026-04-04T13:25:26.793Z</time></trkpt><trkpt lat="43.6792174" lon="10.9225486"><ele>50.142857142857146</ele><time>2026-04-04T13:25:32.828Z</time></trkpt><trkpt lat="43.6792016" lon="10.9226413"><ele>51.0</ele><time>2026-04-04T13:25:39.709Z</time></trkpt><trkpt lat="43.6791922" lon="10.9227372"><ele>51.42857142857143</ele><time>2026-04-04T13:25:46.793Z</time></trkpt><trkpt lat="43.6792001" lon="10.9228271"><ele>51.85714285714286</ele><time>2026-04-04T13:25:53.793Z</time></trkpt><trkpt lat="43.679207" lon="10.9229214"><ele>52.285714285714285</ele><time>2026-04-04T13:26:00.793Z</time></trkpt><trkpt lat="43.6791907" lon="10.9230214"><ele>52.714285714285715</ele><time>2026-04-04T13:26:07.802Z</time></trkpt><trkpt lat="43.6791656" lon="10.9231059"><ele>53.14285714285714</ele><time>2026-04-04T13:26:14.813Z</time></trkpt><trkpt lat="43.6791454" lon="10.9232015"><ele>53.57142857142857</ele><time>2026-04-04T13:26:21.793Z</time></trkpt><trkpt lat="43.6791228" lon="10.9232944"><ele>54.0</ele><time>2026-04-04T13:26:29.71Z</time></trkpt><trkpt lat="43.6791271" lon="10.9234153"><ele>54.57142857142857</ele><time>2026-04-04T13:26:51.793Z</time></trkpt><trkpt lat="43.6791225" lon="10.9235123"><ele>55.14285714285714</ele><time>2026-04-04T13:26:57.794Z</time></trkpt><trkpt lat="43.6791232" lon="10.9236042"><ele>55.71428571428572</ele><time>2026-04-04T13:27:04.21Z</time></trkpt><trkpt lat="43.6791276" lon="10.9237026"><ele>56.28571428571429</ele><time>2026-04-04T13:27:11.788Z</time></trkpt><trkpt lat="43.6791135" lon="10.9237995"><ele>56.85714285714286</ele><time>2026-04-04T13:27:18.788Z</time></trkpt><trkpt lat="43.679108" lon="10.923891"><ele>57.42857142857144</ele><time>2026-04-04T13:27:25.814Z</time></trkpt><trkpt lat="43.6791163" lon="10.9239889"><ele>58.00000000000001</ele><time>2026-04-04T13:27:35.788Z</time></trkpt><trkpt lat="43.6791289" lon="10.9240819"><ele>58.00000000000001</ele><time>2026-04-04T13:27:42.774Z</time></trkpt><trkpt lat="43.6791427" lon="10.9241692"><ele>58.0</ele><time>2026-04-04T13:27:49.788Z</time></trkpt><trkpt lat="43.6791436" lon="10.9242619"><ele>58.00000000000001</ele><time>2026-04-04T13:27:56.798Z</time></trkpt><trkpt lat="43.679143" lon="10.9243556"><ele>58.00000000000001</ele><time>2026-04-04T13:28:03.756Z</time></trkpt><trkpt lat="43.6791443" lon="10.9244435"><ele>58.0</ele><time>2026-04-04T13:28:10.788Z</time></trkpt><trkpt lat="43.6791427" lon="10.9245397"><ele>58.00000000000001</ele><time>2026-04-04T13:28:17.789Z</time></trkpt><trkpt lat="43.6791579" lon="10.9246324"><ele>58.00000000000001</ele><time>2026-04-04T13:28:24.789Z</time></trkpt><trkpt lat="43.6791708" lon="10.9247226"><ele>58.85714285714286</ele><time>2026-04-04T13:28:31.788Z</time></trkpt><trkpt lat="43.6791684" lon="10.9248155"><ele>59.714285714285715</ele><time>2026-04-04T13:28:38.715Z</time></trkpt><trkpt lat="43.6791649" lon="10.9249098"><ele>60.57142857142857</ele><time>2026-04-04T13:28:45.713Z</time></trkpt><trkpt lat="43.6791759" lon="10.9250052"><ele>61.42857142857143</ele><time>2026-04-04T13:28:52.871Z</time></trkpt><trkpt lat="43.679187" lon="10.9251079"><ele>62.28571428571428</ele><time>2026-04-04T13:29:00.788Z</time></trkpt><trkpt lat="43.6792084" lon="10.9251976"><ele>63.14285714285714</ele><time>2026-04-04T13:29:07.788Z</time></trkpt><trkpt lat="43.6792256" lon="10.9252863"><ele>64.0</ele><time>2026-04-04T13:29:14.809Z</time></trkpt><trkpt lat="43.679245" lon="10.9253764"><ele>64.57142857142857</ele><time>2026-04-04T13:29:21.768Z</time></trkpt><trkpt lat="43.679274" lon="10.9254699"><ele>65.14285714285714</ele><time>2026-04-04T13:29:28.808Z</time></trkpt><trkpt lat="43.6792887" lon="10.9255551"><ele>65.71428571428571</ele><time>2026-04-04T13:29:35.789Z</time></trkpt><trkpt lat="43.679308" lon="10.9256489"><ele>66.28571428571428</ele><time>2026-04-04T13:29:42.788Z</time></trkpt><trkpt lat="43.6793323" lon="10.9257418"><ele>66.85714285714286</ele><time>2026-04-04T13:29:51.229Z</time></trkpt><trkpt lat="43.6793521" lon="10.925827"><ele>67.42857142857142</ele><time>2026-04-04T13:29:56.789Z</time></trkpt><trkpt lat="43.6793699" lon="10.9259176"><ele>68.0</ele><time>2026-04-04T13:30:03.789Z</time></trkpt><trkpt lat="43.6793909" lon="10.9260019"><ele>68.28571428571428</ele><time>2026-04-04T13:30:10.788Z</time></trkpt><trkpt lat="43.6794159" lon="10.9260845"><ele>68.57142857142857</ele><time>2026-04-04T13:30:17.789Z</time></trkpt><trkpt lat="43.6794399" lon="10.926175"><ele>68.85714285714286</ele><time>2026-04-04T13:30:25.77Z</time></trkpt><trkpt lat="43.6794574" lon="10.9262604"><ele>69.14285714285714</ele><time>2026-04-04T13:30:32.788Z</time></trkpt><trkpt lat="43.6794811" lon="10.9263423"><ele>69.42857142857143</ele><time>2026-04-04T13:30:39.788Z</time></trkpt><trkpt lat="43.6795028" lon="10.926436"><ele>69.71428571428571</ele><time>2026-04-04T13:30:46.788Z</time></trkpt><trkpt lat="43.6795289" lon="10.9265218"><ele>70.0</ele><time>2026-04-04T13:30:53.81Z</time></trkpt><trkpt lat="43.6795709" lon="10.9265942"><ele>71.0</ele><time>2026-04-04T13:30:59.797Z</time></trkpt><trkpt lat="43.6796087" lon="10.9266713"><ele>72.0</ele><time>2026-04-04T13:31:05.887Z</time></trkpt><trkpt lat="43.6796528" lon="10.9267501"><ele>73.0</ele><time>2026-04-04T13:31:13.837Z</time></trkpt><trkpt lat="43.6796867" lon="10.9268334"><ele>74.0</ele><time>2026-04-04T13:31:20.788Z</time></trkpt><trkpt lat="43.6797325" lon="10.9268933"><ele>75.0</ele><time>2026-04-04T13:31:26.788Z</time></trkpt><trkpt lat="43.6797753" lon="10.9269684"><ele>76.0</ele><time>2026-04-04T13:31:33.788Z</time></trkpt><trkpt lat="43.6798128" lon="10.9270436"><ele>77.0</ele><time>2026-04-04T13:31:39.788Z</time></trkpt><trkpt lat="43.6798358" lon="10.9271352"><ele>77.28571428571429</ele><time>2026-04-04T13:31:46.835Z</time></trkpt><trkpt lat="43.6798573" lon="10.9272173"><ele>77.57142857142857</ele><time>2026-04-04T13:31:52.812Z</time></trkpt><trkpt lat="43.679885" lon="10.9273074"><ele>77.85714285714286</ele><time>2026-04-04T13:31:59.788Z</time></trkpt><trkpt lat="43.6799086" lon="10.9274006"><ele>78.14285714285714</ele><time>2026-04-04T13:32:06.69Z</time></trkpt><trkpt lat="43.6799364" lon="10.9274888"><ele>78.42857142857143</ele><time>2026-04-04T13:32:12.788Z</time></trkpt><trkpt lat="43.6799625" lon="10.9275742"><ele>78.71428571428572</ele><time>2026-04-04T13:32:18.788Z</time></trkpt><trkpt lat="43.6799857" lon="10.9276627"><ele>79.0</ele><time>2026-04-04T13:32:24.764Z</time></trkpt><trkpt lat="43.6800087" lon="10.9277535"><ele>79.00000000000001</ele><time>2026-04-04T13:32:30.846Z</time></trkpt><trkpt lat="43.680045" lon="10.9278367"><ele>79.0</ele><time>2026-04-04T13:32:38.788Z</time></trkpt><trkpt lat="43.680051" lon="10.9279237"><ele>79.0</ele><time>2026-04-04T13:32:44.845Z</time></trkpt><trkpt lat="43.6800753" lon="10.9280114"><ele>79.0</ele><time>2026-04-04T13:32:50.789Z</time></trkpt><trkpt lat="43.68013" lon="10.9280809"><ele>79.0</ele><time>2026-04-04T13:32:56.789Z</time></trkpt><trkpt lat="43.6801817" lon="10.9281405"><ele>79.00000000000001</ele><time>2026-04-04T13:33:02.791Z</time></trkpt><trkpt lat="43.6802284" lon="10.9282083"><ele>79.0</ele><time>2026-04-04T13:33:08.788Z</time></trkpt><trkpt lat="43.6802674" lon="10.9282908"><ele>79.42857142857143</ele><time>2026-04-04T13:33:15.748Z</time></trkpt><trkpt lat="43.6803059" lon="10.9283699"><ele>79.85714285714286</ele><time>2026-04-04T13:33:22.789Z</time></trkpt><trkpt lat="43.6803683" lon="10.9284302"><ele>80.28571428571428</ele><time>2026-04-04T13:33:25.788Z</time></trkpt><trkpt lat="43.6804098" lon="10.92851"><ele>80.71428571428572</ele><time>2026-04-04T13:33:31.789Z</time></trkpt><trkpt lat="43.6804472" lon="10.9285834"><ele>81.14285714285714</ele><time>2026-04-04T13:33:39.788Z</time></trkpt><trkpt lat="43.6804872" lon="10.9286643"><ele>81.57142857142857</ele><time>2026-04-04T13:33:46.789Z</time></trkpt><trkpt lat="43.6805273" lon="10.928734"><ele>82.0</ele><time>2026-04-04T13:33:53.789Z</time></trkpt><trkpt lat="43.6805694" lon="10.9288032"><ele>81.99999999999999</ele><time>2026-04-04T13:34:00.788Z</time></trkpt><trkpt lat="43.6806206" lon="10.9288752"><ele>82.0</ele><time>2026-04-04T13:34:08.142Z</time></trkpt><trkpt lat="43.680663" lon="10.9289532"><ele>82.0</ele><time>2026-04-04T13:34:16.78Z</time></trkpt><trkpt lat="43.6807164" lon="10.9290214"><ele>82.0</ele><time>2026-04-04T13:34:27.788Z</time></trkpt><trkpt lat="43.6807452" lon="10.9291076"><ele>82.0</ele><time>2026-04-04T13:34:33.789Z</time></trkpt><trkpt lat="43.6807757" lon="10.9291887"><ele>81.99999999999999</ele><time>2026-04-04T13:34:39.789Z</time></trkpt><trkpt lat="43.680811" lon="10.9292643"><ele>82.0</ele><time>2026-04-04T13:34:45.789Z</time></trkpt><trkpt lat="43.6808497" lon="10.9293417"><ele>81.99999999999999</ele><time>2026-04-04T13:34:51.789Z</time></trkpt><trkpt lat="43.680892" lon="10.9294122"><ele>82.0</ele><time>2026-04-04T13:34:57.788Z</time></trkpt><trkpt lat="43.6809378" lon="10.9294833"><ele>82.0</ele><time>2026-04-04T13:35:03.788Z</time></trkpt><trkpt lat="43.6809811" lon="10.9295624"><ele>82.0</ele><time>2026-04-04T13:35:09.788Z</time></trkpt><trkpt lat="43.6810296" lon="10.9296463"><ele>82.0</ele><time>2026-04-04T13:35:16.82Z</time></trkpt><trkpt lat="43.6810694" lon="10.9297179"><ele>81.99999999999999</ele><time>2026-04-04T13:35:22.802Z</time></trkpt><trkpt lat="43.6811048" lon="10.9297972"><ele>82.0</ele><time>2026-04-04T13:35:28.789Z</time></trkpt><trkpt lat="43.6811468" lon="10.9298723"><ele>82.28571428571428</ele><time>2026-04-04T13:35:34.788Z</time></trkpt><trkpt lat="43.6811882" lon="10.9299444"><ele>82.57142857142857</ele><time>2026-04-04T13:35:40.798Z</time></trkpt><trkpt lat="43.6812266" lon="10.9300235"><ele>82.85714285714286</ele><time>2026-04-04T13:35:46.872Z</time></trkpt><trkpt lat="43.681269" lon="10.930104"><ele>83.14285714285714</ele><time>2026-04-04T13:35:53.651Z</time></trkpt><trkpt lat="43.681308" lon="10.9301802"><ele>83.42857142857143</ele><time>2026-04-04T13:35:59.788Z</time></trkpt><trkpt lat="43.6813513" lon="10.9302575"><ele>83.71428571428571</ele><time>2026-04-04T13:36:05.788Z</time></trkpt><trkpt lat="43.6814032" lon="10.9303243"><ele>84.0</ele><time>2026-04-04T13:36:11.871Z</time></trkpt><trkpt lat="43.6814355" lon="10.9304106"><ele>84.85714285714286</ele><time>2026-04-04T13:36:17.788Z</time></trkpt><trkpt lat="43.6814795" lon="10.9304885"><ele>85.71428571428572</ele><time>2026-04-04T13:36:23.795Z</time></trkpt><trkpt lat="43.681518" lon="10.9305679"><ele>86.57142857142857</ele><time>2026-04-04T13:36:29.788Z</time></trkpt><trkpt lat="43.6815563" lon="10.9306398"><ele>87.42857142857143</ele><time>2026-04-04T13:36:35.788Z</time></trkpt><trkpt lat="43.6815949" lon="10.9307173"><ele>88.28571428571429</ele><time>2026-04-04T13:36:41.871Z</time></trkpt><trkpt lat="43.6816356" lon="10.930789"><ele>89.14285714285714</ele><time>2026-04-04T13:36:47.789Z</time></trkpt><trkpt lat="43.6816807" lon="10.9308513"><ele>90.0</ele><time>2026-04-04T13:36:53.788Z</time></trkpt><trkpt lat="43.6817266" lon="10.9309223"><ele>90.28571428571428</ele><time>2026-04-04T13:36:59.737Z</time></trkpt><trkpt lat="43.6817711" lon="10.9309856"><ele>90.57142857142858</ele><time>2026-04-04T13:37:06.792Z</time></trkpt><trkpt lat="43.6818138" lon="10.931061"><ele>90.85714285714286</ele><time>2026-04-04T13:37:13.791Z</time></trkpt><trkpt lat="43.6818536" lon="10.9311305"><ele>91.14285714285714</ele><time>2026-04-04T13:37:19.788Z</time></trkpt><trkpt lat="43.6818881" lon="10.9312049"><ele>91.42857142857142</ele><time>2026-04-04T13:37:25.789Z</time></trkpt><trkpt lat="43.6819269" lon="10.9312852"><ele>91.71428571428572</ele><time>2026-04-04T13:37:32.788Z</time></trkpt><trkpt lat="43.6819573" lon="10.9313688"><ele>92.0</ele><time>2026-04-04T13:37:39.789Z</time></trkpt><trkpt lat="43.6819848" lon="10.9314487"><ele>93.28571428571429</ele><time>2026-04-04T13:37:46.788Z</time></trkpt><trkpt lat="43.6820396" lon="10.9315154"><ele>94.57142857142857</ele><time>2026-04-04T13:37:54.833Z</time></trkpt><trkpt lat="43.6820678" lon="10.9315979"><ele>95.85714285714286</ele><time>2026-04-04T13:38:00.789Z</time></trkpt><trkpt lat="43.6821045" lon="10.931673"><ele>97.14285714285714</ele><time>2026-04-04T13:38:06.753Z</time></trkpt><trkpt lat="43.6821361" lon="10.9317617"><ele>98.42857142857142</ele><time>2026-04-04T13:38:12.796Z</time></trkpt><trkpt lat="43.6821715" lon="10.9318395"><ele>99.71428571428571</ele><time>2026-04-04T13:38:18.788Z</time></trkpt><trkpt lat="43.682201" lon="10.9319202"><ele>101.0</ele><time>2026-04-04T13:38:25.789Z</time></trkpt><trkpt lat="43.6822502" lon="10.9319914"><ele>101.85714285714286</ele><time>2026-04-04T13:38:31.788Z</time></trkpt><trkpt lat="43.6822894" lon="10.9320603"><ele>102.71428571428571</ele><time>2026-04-04T13:38:37.588Z</time></trkpt><trkpt lat="43.6823306" lon="10.932133"><ele>103.57142857142858</ele><time>2026-04-04T13:38:43.792Z</time></trkpt><trkpt lat="43.6823724" lon="10.9322095"><ele>104.42857142857143</ele><time>2026-04-04T13:38:50.79Z</time></trkpt><trkpt lat="43.682427" lon="10.932263"><ele>105.28571428571429</ele><time>2026-04-04T13:38:57.792Z</time></trkpt><trkpt lat="43.6824645" lon="10.9323391"><ele>106.14285714285715</ele><time>2026-04-04T13:39:03.789Z</time></trkpt><trkpt lat="43.68251" lon="10.9324079"><ele>107.0</ele><time>2026-04-04T13:39:09.79Z</time></trkpt><trkpt lat="43.6825577" lon="10.9324688"><ele>107.00000000000001</ele><time>2026-04-04T13:39:15.842Z</time></trkpt><trkpt lat="43.6826144" lon="10.9325126"><ele>107.0</ele><time>2026-04-04T13:39:21.788Z</time></trkpt><trkpt lat="43.6826823" lon="10.9325502"><ele>107.0</ele><time>2026-04-04T13:39:27.797Z</time></trkpt><trkpt lat="43.6827487" lon="10.9325907"><ele>107.0</ele><time>2026-04-04T13:39:33.789Z</time></trkpt><trkpt lat="43.6828147" lon="10.932625"><ele>107.0</ele><time>2026-04-04T13:39:39.796Z</time></trkpt><trkpt lat="43.6828721" lon="10.9326839"><ele>107.00000000000001</ele><time>2026-04-04T13:39:45.789Z</time></trkpt><trkpt lat="43.6829263" lon="10.9327528"><ele>107.0</ele><time>2026-04-04T13:39:51.792Z</time></trkpt><trkpt lat="43.6829696" lon="10.9328251"><ele>108.57142857142858</ele><time>2026-04-04T13:39:57.789Z</time></trkpt><trkpt lat="43.6830153" lon="10.9329019"><ele>110.14285714285714</ele><time>2026-04-04T13:40:03.79Z</time></trkpt><trkpt lat="43.6830626" lon="10.9329797"><ele>111.71428571428572</ele><time>2026-04-04T13:40:09.789Z</time></trkpt><trkpt lat="43.6831072" lon="10.9330505"><ele>113.28571428571429</ele><time>2026-04-04T13:40:15.789Z</time></trkpt><trkpt lat="43.6831578" lon="10.9331192"><ele>114.85714285714286</ele><time>2026-04-04T13:40:21.796Z</time></trkpt><trkpt lat="43.6832109" lon="10.9331754"><ele>116.42857142857143</ele><time>2026-04-04T13:40:27.789Z</time></trkpt><trkpt lat="43.6832696" lon="10.9332196"><ele>118.0</ele><time>2026-04-04T13:40:33.793Z</time></trkpt><trkpt lat="43.6833335" lon="10.933253"><ele>118.0</ele><time>2026-04-04T13:40:40.789Z</time></trkpt><trkpt lat="43.6834019" lon="10.9332835"><ele>118.0</ele><time>2026-04-04T13:40:47.731Z</time></trkpt><trkpt lat="43.6834645" lon="10.9333056"><ele>118.0</ele><time>2026-04-04T13:40:53.789Z</time></trkpt><trkpt lat="43.6835348" lon="10.9333244"><ele>118.0</ele><time>2026-04-04T13:41:00.792Z</time></trkpt><trkpt lat="43.6836071" lon="10.933349"><ele>118.0</ele><time>2026-04-04T13:41:07.789Z</time></trkpt><trkpt lat="43.6836701" lon="10.9333838"><ele>118.0</ele><time>2026-04-04T13:41:13.791Z</time></trkpt><trkpt lat="43.6837339" lon="10.9334255"><ele>118.0</ele><time>2026-04-04T13:41:19.789Z</time></trkpt><trkpt lat="43.6837893" lon="10.9334843"><ele>118.14285714285714</ele><time>2026-04-04T13:41:25.789Z</time></trkpt><trkpt lat="43.6838469" lon="10.9335396"><ele>118.28571428571429</ele><time>2026-04-04T13:41:31.814Z</time></trkpt><trkpt lat="43.6839024" lon="10.9335961"><ele>118.42857142857143</ele><time>2026-04-04T13:41:37.789Z</time></trkpt><trkpt lat="43.6839662" lon="10.9336348"><ele>118.57142857142857</ele><time>2026-04-04T13:41:43.795Z</time></trkpt><trkpt lat="43.684027" lon="10.9336838"><ele>118.71428571428572</ele><time>2026-04-04T13:41:49.789Z</time></trkpt><trkpt lat="43.6840809" lon="10.9337293"><ele>118.85714285714286</ele><time>2026-04-04T13:41:54.719Z</time></trkpt><trkpt lat="43.6841465" lon="10.9337809"><ele>119.0</ele><time>2026-04-04T13:42:00.789Z</time></trkpt><trkpt lat="43.6841961" lon="10.9338385"><ele>119.0</ele><time>2026-04-04T13:42:05.79Z</time></trkpt><trkpt lat="43.6842581" lon="10.9338932"><ele>119.0</ele><time>2026-04-04T13:42:11.79Z</time></trkpt><trkpt lat="43.6843006" lon="10.9339624"><ele>119.0</ele><time>2026-04-04T13:42:16.789Z</time></trkpt><trkpt lat="43.6843392" lon="10.9340383"><ele>119.0</ele><time>2026-04-04T13:42:22.791Z</time></trkpt><trkpt lat="43.6843722" lon="10.93413"><ele>119.0</ele><time>2026-04-04T13:42:28.789Z</time></trkpt><trkpt lat="43.6843989" lon="10.9342095"><ele>119.0</ele><time>2026-04-04T13:42:33.789Z</time></trkpt><trkpt lat="43.6844353" lon="10.9343002"><ele>119.0</ele><time>2026-04-04T13:42:39.795Z</time></trkpt><trkpt lat="43.6844766" lon="10.9343823"><ele>118.42857142857143</ele><time>2026-04-04T13:42:45.789Z</time></trkpt><trkpt lat="43.684513" lon="10.9344674"><ele>117.85714285714286</ele><time>2026-04-04T13:42:51.79Z</time></trkpt><trkpt lat="43.684541" lon="10.9345465"><ele>117.28571428571428</ele><time>2026-04-04T13:42:57.789Z</time></trkpt><trkpt lat="43.684572" lon="10.9346327"><ele>116.71428571428571</ele><time>2026-04-04T13:43:03.533Z</time></trkpt><trkpt lat="43.6846073" lon="10.9347194"><ele>116.14285714285714</ele><time>2026-04-04T13:43:09.789Z</time></trkpt><trkpt lat="43.6846379" lon="10.9348003"><ele>115.57142857142856</ele><time>2026-04-04T13:43:15.789Z</time></trkpt><trkpt lat="43.6846737" lon="10.9348861"><ele>114.99999999999999</ele><time>2026-04-04T13:43:21.797Z</time></trkpt><trkpt lat="43.6847115" lon="10.9349735"><ele>114.99999999999999</ele><time>2026-04-04T13:43:27.789Z</time></trkpt><trkpt lat="43.6847513" lon="10.9350596"><ele>115.0</ele><time>2026-04-04T13:43:33.793Z</time></trkpt><trkpt lat="43.684819" lon="10.9350672"><ele>114.99999999999999</ele><time>2026-04-04T13:43:39.719Z</time></trkpt><trkpt lat="43.6848664" lon="10.9349899"><ele>114.99999999999999</ele><time>2026-04-04T13:43:45.791Z</time></trkpt><trkpt lat="43.6849106" lon="10.9349093"><ele>115.0</ele><time>2026-04-04T13:43:52.79Z</time></trkpt><trkpt lat="43.6849551" lon="10.9348447"><ele>114.99999999999999</ele><time>2026-04-04T13:43:58.79Z</time></trkpt><trkpt lat="43.6850033" lon="10.9347844"><ele>114.99999999999999</ele><time>2026-04-04T13:44:04.79Z</time></trkpt><trkpt lat="43.6850537" lon="10.9347154"><ele>114.99999999999999</ele><time>2026-04-04T13:44:10.789Z</time></trkpt><trkpt lat="43.68511" lon="10.9346626"><ele>115.0</ele><time>2026-04-04T13:44:16.797Z</time></trkpt><trkpt lat="43.6851625" lon="10.9346052"><ele>114.99999999999999</ele><time>2026-04-04T13:44:22.789Z</time></trkpt><trkpt lat="43.6852141" lon="10.9345369"><ele>114.99999999999999</ele><time>2026-04-04T13:44:28.793Z</time></trkpt><trkpt lat="43.6852527" lon="10.9344534"><ele>115.0</ele><time>2026-04-04T13:44:35.789Z</time></trkpt><trkpt lat="43.6853035" lon="10.9343901"><ele>114.99999999999999</ele><time>2026-04-04T13:44:41.819Z</time></trkpt><trkpt lat="43.6853606" lon="10.9343269"><ele>114.99999999999999</ele><time>2026-04-04T13:44:47.789Z</time></trkpt><trkpt lat="43.6854129" lon="10.9342582"><ele>114.99999999999999</ele><time>2026-04-04T13:44:53.79Z</time></trkpt><trkpt lat="43.68545" lon="10.9341768"><ele>115.0</ele><time>2026-04-04T13:44:59.789Z</time></trkpt><trkpt lat="43.6854593" lon="10.9340784"><ele>114.99999999999999</ele><time>2026-04-04T13:45:05.789Z</time></trkpt><trkpt lat="43.685442" lon="10.9339944"><ele>114.99999999999999</ele><time>2026-04-04T13:45:10.794Z</time></trkpt><trkpt lat="43.6854243" lon="10.9339097"><ele>115.0</ele><time>2026-04-04T13:45:15.789Z</time></trkpt><trkpt lat="43.6854054" lon="10.9338212"><ele>114.99999999999999</ele><time>2026-04-04T13:45:21.79Z</time></trkpt><trkpt lat="43.6853911" lon="10.9337326"><ele>114.99999999999999</ele><time>2026-04-04T13:45:27.79Z</time></trkpt><trkpt lat="43.685371" lon="10.9336417"><ele>114.99999999999999</ele><time>2026-04-04T13:45:33.789Z</time></trkpt><trkpt lat="43.6853544" lon="10.9335484"><ele>115.0</ele><time>2026-04-04T13:45:39.805Z</time></trkpt><trkpt lat="43.6853343" lon="10.933449"><ele>114.99999999999999</ele><time>2026-04-04T13:45:45.79Z</time></trkpt><trkpt lat="43.6853163" lon="10.9333574"><ele>114.99999999999999</ele><time>2026-04-04T13:45:51.789Z</time></trkpt><trkpt lat="43.6852965" lon="10.9332637"><ele>115.0</ele><time>2026-04-04T13:45:57.79Z</time></trkpt><trkpt lat="43.6852811" lon="10.9331686"><ele>114.99999999999999</ele><time>2026-04-04T13:46:03.769Z</time></trkpt><trkpt lat="43.6852667" lon="10.9330782"><ele>114.99999999999999</ele><time>2026-04-04T13:46:08.797Z</time></trkpt><trkpt lat="43.6852509" lon="10.9329849"><ele>116.85714285714283</ele><time>2026-04-04T13:46:14.79Z</time></trkpt><trkpt lat="43.6852327" lon="10.9328979"><ele>118.71428571428571</ele><time>2026-04-04T13:46:19.794Z</time></trkpt><trkpt lat="43.685217" lon="10.9328079"><ele>120.57142857142856</ele><time>2026-04-04T13:46:24.79Z</time></trkpt><trkpt lat="43.6851951" lon="10.9327123"><ele>122.42857142857142</ele><time>2026-04-04T13:46:30.808Z</time></trkpt><trkpt lat="43.6851747" lon="10.9326178"><ele>124.28571428571428</ele><time>2026-04-04T13:46:36.789Z</time></trkpt><trkpt lat="43.6851586" lon="10.9325238"><ele>126.14285714285714</ele><time>2026-04-04T13:46:42.691Z</time></trkpt><trkpt lat="43.6851429" lon="10.9324259"><ele>128.0</ele><time>2026-04-04T13:46:48.797Z</time></trkpt><trkpt lat="43.685125" lon="10.9323408"><ele>128.0</ele><time>2026-04-04T13:46:53.702Z</time></trkpt><trkpt lat="43.6851061" lon="10.932241"><ele>127.99999999999999</ele><time>2026-04-04T13:46:59.793Z</time></trkpt><trkpt lat="43.6851086" lon="10.932145"><ele>128.0</ele><time>2026-04-04T13:47:05.79Z</time></trkpt><trkpt lat="43.6851447" lon="10.9320586"><ele>128.0</ele><time>2026-04-04T13:47:11.789Z</time></trkpt><trkpt lat="43.6851857" lon="10.931979"><ele>127.99999999999999</ele><time>2026-04-04T13:47:17.789Z</time></trkpt><trkpt lat="43.6852165" lon="10.931887"><ele>128.0</ele><time>2026-04-04T13:47:24.79Z</time></trkpt><trkpt lat="43.6852528" lon="10.9318048"><ele>128.0</ele><time>2026-04-04T13:47:31.789Z</time></trkpt><trkpt lat="43.685286" lon="10.931725"><ele>125.42857142857142</ele><time>2026-04-04T13:47:38.789Z</time></trkpt><trkpt lat="43.6853188" lon="10.9316374"><ele>122.85714285714285</ele><time>2026-04-04T13:47:45.79Z</time></trkpt><trkpt lat="43.6853396" lon="10.9315544"><ele>120.28571428571428</ele><time>2026-04-04T13:47:50.789Z</time></trkpt><trkpt lat="43.6853717" lon="10.9314758"><ele>117.71428571428571</ele><time>2026-04-04T13:47:55.794Z</time></trkpt><trkpt lat="43.6854173" lon="10.9313977"><ele>115.14285714285714</ele><time>2026-04-04T13:48:01.766Z</time></trkpt><trkpt lat="43.6854711" lon="10.9313288"><ele>112.57142857142856</ele><time>2026-04-04T13:48:07.79Z</time></trkpt><trkpt lat="43.685535" lon="10.9312903"><ele>110.0</ele><time>2026-04-04T13:48:12.79Z</time></trkpt><trkpt lat="43.6856066" lon="10.9313066"><ele>109.99999999999999</ele><time>2026-04-04T13:48:18.789Z</time></trkpt><trkpt lat="43.6856759" lon="10.9313366"><ele>110.0</ele><time>2026-04-04T13:48:24.766Z</time></trkpt><trkpt lat="43.6857458" lon="10.9313549"><ele>110.0</ele><time>2026-04-04T13:48:30.805Z</time></trkpt><trkpt lat="43.6858088" lon="10.931374"><ele>110.0</ele><time>2026-04-04T13:48:35.792Z</time></trkpt><trkpt lat="43.685873" lon="10.9314052"><ele>110.0</ele><time>2026-04-04T13:48:40.79Z</time></trkpt><trkpt lat="43.6859335" lon="10.9314469"><ele>109.99999999999999</ele><time>2026-04-04T13:48:45.789Z</time></trkpt><trkpt lat="43.6859848" lon="10.9315058"><ele>110.0</ele><time>2026-04-04T13:48:50.794Z</time></trkpt><trkpt lat="43.6860371" lon="10.9315613"><ele>109.99999999999999</ele><time>2026-04-04T13:48:55.79Z</time></trkpt><trkpt lat="43.6860911" lon="10.9316319"><ele>110.0</ele><time>2026-04-04T13:49:01.79Z</time></trkpt><trkpt lat="43.6861502" lon="10.9316963"><ele>110.0</ele><time>2026-04-04T13:49:07.787Z</time></trkpt><trkpt lat="43.6862107" lon="10.9317613"><ele>110.0</ele><time>2026-04-04T13:49:13.91Z</time></trkpt><trkpt lat="43.6862692" lon="10.9318111"><ele>110.0</ele><time>2026-04-04T13:49:19.314Z</time></trkpt><trkpt lat="43.6863178" lon="10.9318823"><ele>109.99999999999999</ele><time>2026-04-04T13:49:24.733Z</time></trkpt><trkpt lat="43.6863679" lon="10.9319532"><ele>110.0</ele><time>2026-04-04T13:49:30.793Z</time></trkpt><trkpt lat="43.6864239" lon="10.9320202"><ele>109.14285714285714</ele><time>2026-04-04T13:49:36.793Z</time></trkpt><trkpt lat="43.6864779" lon="10.9320875"><ele>108.28571428571428</ele><time>2026-04-04T13:49:42.794Z</time></trkpt><trkpt lat="43.6865308" lon="10.9321616"><ele>107.42857142857142</ele><time>2026-04-04T13:49:48.793Z</time></trkpt><trkpt lat="43.6865856" lon="10.9322288"><ele>106.57142857142857</ele><time>2026-04-04T13:49:54.793Z</time></trkpt><trkpt lat="43.6866328" lon="10.9322998"><ele>105.71428571428572</ele><time>2026-04-04T13:50:00.793Z</time></trkpt><trkpt lat="43.6866864" lon="10.9323667"><ele>104.85714285714285</ele><time>2026-04-04T13:50:06.804Z</time></trkpt><trkpt lat="43.6867457" lon="10.9324238"><ele>104.0</ele><time>2026-04-04T13:50:12.793Z</time></trkpt><trkpt lat="43.6868105" lon="10.9324673"><ele>104.0</ele><time>2026-04-04T13:50:18.801Z</time></trkpt><trkpt lat="43.6868801" lon="10.9324937"><ele>104.0</ele><time>2026-04-04T13:50:24.793Z</time></trkpt><trkpt lat="43.6869469" lon="10.9325093"><ele>104.0</ele><time>2026-04-04T13:50:30.793Z</time></trkpt><trkpt lat="43.6870177" lon="10.9325095"><ele>104.0</ele><time>2026-04-04T13:50:36.815Z</time></trkpt><trkpt lat="43.6870877" lon="10.9325095"><ele>104.0</ele><time>2026-04-04T13:50:42.793Z</time></trkpt><trkpt lat="43.6871536" lon="10.932514"><ele>104.0</ele><time>2026-04-04T13:50:48.793Z</time></trkpt><trkpt lat="43.6872187" lon="10.932507"><ele>104.0</ele><time>2026-04-04T13:50:54.794Z</time></trkpt><trkpt lat="43.6872907" lon="10.9324961"><ele>104.0</ele><time>2026-04-04T13:51:00.793Z</time></trkpt><trkpt lat="43.6873639" lon="10.9324783"><ele>104.0</ele><time>2026-04-04T13:51:06.728Z</time></trkpt><trkpt lat="43.6874364" lon="10.9324505"><ele>104.0</ele><time>2026-04-04T13:51:12.793Z</time></trkpt><trkpt lat="43.6875084" lon="10.9324294"><ele>104.0</ele><time>2026-04-04T13:51:18.726Z</time></trkpt><trkpt lat="43.6875756" lon="10.9324028"><ele>104.0</ele><time>2026-04-04T13:51:24.793Z</time></trkpt><trkpt lat="43.6876476" lon="10.9323777"><ele>104.0</ele><time>2026-04-04T13:51:30.793Z</time></trkpt><trkpt lat="43.6877155" lon="10.9323381"><ele>104.0</ele><time>2026-04-04T13:51:36.793Z</time></trkpt><trkpt lat="43.6877834" lon="10.9323148"><ele>104.0</ele><time>2026-04-04T13:51:42.793Z</time></trkpt><trkpt lat="43.6878548" lon="10.9322805"><ele>104.0</ele><time>2026-04-04T13:51:48.73Z</time></trkpt><trkpt lat="43.6879174" lon="10.9322583"><ele>104.0</ele><time>2026-04-04T13:51:54.794Z</time></trkpt><trkpt lat="43.6879863" lon="10.9322217"><ele>104.0</ele><time>2026-04-04T13:52:00.727Z</time></trkpt><trkpt lat="43.6880489" lon="10.9322069"><ele>104.0</ele><time>2026-04-04T13:52:05.793Z</time></trkpt><trkpt lat="43.6881102" lon="10.932185"><ele>104.0</ele><time>2026-04-04T13:52:10.793Z</time></trkpt><trkpt lat="43.6881827" lon="10.9321583"><ele>104.0</ele><time>2026-04-04T13:52:16.793Z</time></trkpt><trkpt lat="43.6882531" lon="10.9321492"><ele>104.0</ele><time>2026-04-04T13:52:22.794Z</time></trkpt><trkpt lat="43.6883208" lon="10.9321373"><ele>104.0</ele><time>2026-04-04T13:52:28.793Z</time></trkpt><trkpt lat="43.6883935" lon="10.9321013"><ele>104.0</ele><time>2026-04-04T13:52:34.793Z</time></trkpt><trkpt lat="43.6884594" lon="10.932056"><ele>104.0</ele><time>2026-04-04T13:52:40.808Z</time></trkpt><trkpt lat="43.6885284" lon="10.9320216"><ele>104.0</ele><time>2026-04-04T13:52:46.793Z</time></trkpt><trkpt lat="43.6885924" lon="10.9320027"><ele>104.0</ele><time>2026-04-04T13:52:52.793Z</time></trkpt><trkpt lat="43.6886611" lon="10.9319931"><ele>104.0</ele><time>2026-04-04T13:52:58.794Z</time></trkpt><trkpt lat="43.6887297" lon="10.9319545"><ele>102.42857142857143</ele><time>2026-04-04T13:53:07.766Z</time></trkpt><trkpt lat="43.6887976" lon="10.9319246"><ele>100.85714285714286</ele><time>2026-04-04T13:53:12.812Z</time></trkpt><trkpt lat="43.6888558" lon="10.9318648"><ele>99.28571428571429</ele><time>2026-04-04T13:53:20.793Z</time></trkpt><trkpt lat="43.6889303" lon="10.9318652"><ele>97.71428571428572</ele><time>2026-04-04T13:53:26.812Z</time></trkpt><trkpt lat="43.6889963" lon="10.9318439"><ele>96.14285714285714</ele><time>2026-04-04T13:53:32.794Z</time></trkpt><trkpt lat="43.6890646" lon="10.9318279"><ele>94.57142857142858</ele><time>2026-04-04T13:53:38.793Z</time></trkpt><trkpt lat="43.6891336" lon="10.9318081"><ele>93.0</ele><time>2026-04-04T13:53:44.788Z</time></trkpt><trkpt lat="43.6892009" lon="10.9317653"><ele>93.00000000000001</ele><time>2026-04-04T13:53:50.793Z</time></trkpt><trkpt lat="43.6892619" lon="10.9317401"><ele>93.0</ele><time>2026-04-04T13:53:55.794Z</time></trkpt><trkpt lat="43.689331" lon="10.9317155"><ele>93.0</ele><time>2026-04-04T13:54:01.794Z</time></trkpt><trkpt lat="43.6893989" lon="10.93167"><ele>93.0</ele><time>2026-04-04T13:54:07.793Z</time></trkpt><trkpt lat="43.6894583" lon="10.9316197"><ele>93.0</ele><time>2026-04-04T13:54:13.793Z</time></trkpt><trkpt lat="43.6895136" lon="10.931555"><ele>93.00000000000001</ele><time>2026-04-04T13:54:19.719Z</time></trkpt><trkpt lat="43.6895707" lon="10.931494"><ele>93.0</ele><time>2026-04-04T13:54:25.794Z</time></trkpt><trkpt lat="43.6896202" lon="10.9314353"><ele>93.14285714285715</ele><time>2026-04-04T13:54:30.794Z</time></trkpt><trkpt lat="43.6896743" lon="10.9313732"><ele>93.28571428571429</ele><time>2026-04-04T13:54:36.793Z</time></trkpt><trkpt lat="43.6897278" lon="10.9313099"><ele>93.42857142857143</ele><time>2026-04-04T13:54:42.793Z</time></trkpt><trkpt lat="43.6897772" lon="10.9312475"><ele>93.57142857142858</ele><time>2026-04-04T13:54:48.793Z</time></trkpt><trkpt lat="43.6898293" lon="10.9311812"><ele>93.71428571428571</ele><time>2026-04-04T13:54:54.794Z</time></trkpt><trkpt lat="43.6898824" lon="10.9311181"><ele>93.85714285714286</ele><time>2026-04-04T13:55:00.794Z</time></trkpt><trkpt lat="43.6899309" lon="10.9310606"><ele>94.0</ele><time>2026-04-04T13:55:05.718Z</time></trkpt><trkpt lat="43.6899881" lon="10.9309947"><ele>94.0</ele><time>2026-04-04T13:55:11.793Z</time></trkpt><trkpt lat="43.6900379" lon="10.9309331"><ele>94.0</ele><time>2026-04-04T13:55:16.743Z</time></trkpt><trkpt lat="43.6900934" lon="10.9308721"><ele>94.0</ele><time>2026-04-04T13:55:22.793Z</time></trkpt><trkpt lat="43.6901474" lon="10.9308159"><ele>94.0</ele><time>2026-04-04T13:55:28.794Z</time></trkpt><trkpt lat="43.6901931" lon="10.9307443"><ele>94.0</ele><time>2026-04-04T13:55:34.793Z</time></trkpt><trkpt lat="43.6902445" lon="10.9306804"><ele>94.0</ele><time>2026-04-04T13:55:40.749Z</time></trkpt><trkpt lat="43.690291" lon="10.9305977"><ele>94.0</ele><time>2026-04-04T13:55:55.759Z</time></trkpt><trkpt lat="43.6903368" lon="10.930525"><ele>94.71428571428571</ele><time>2026-04-04T13:56:02.793Z</time></trkpt><trkpt lat="43.6903945" lon="10.9304653"><ele>95.42857142857142</ele><time>2026-04-04T13:56:09.793Z</time></trkpt><trkpt lat="43.6904591" lon="10.9304285"><ele>96.14285714285714</ele><time>2026-04-04T13:56:15.793Z</time></trkpt><trkpt lat="43.6905204" lon="10.9304074"><ele>96.85714285714286</ele><time>2026-04-04T13:56:21.786Z</time></trkpt><trkpt lat="43.690586" lon="10.930398"><ele>97.57142857142857</ele><time>2026-04-04T13:56:28.794Z</time></trkpt><trkpt lat="43.6906512" lon="10.930373"><ele>98.28571428571429</ele><time>2026-04-04T13:56:35.767Z</time></trkpt><trkpt lat="43.690685" lon="10.9302942"><ele>99.0</ele><time>2026-04-04T13:56:41.794Z</time></trkpt><trkpt lat="43.6906917" lon="10.9302008"><ele>99.0</ele><time>2026-04-04T13:56:47.793Z</time></trkpt><trkpt lat="43.6907073" lon="10.930112"><ele>99.0</ele><time>2026-04-04T13:56:53.733Z</time></trkpt><trkpt lat="43.690723" lon="10.930026"><ele>99.0</ele><time>2026-04-04T13:57:00.793Z</time></trkpt><trkpt lat="43.6907583" lon="10.9299432"><ele>99.0</ele><time>2026-04-04T13:57:07.794Z</time></trkpt><trkpt lat="43.6907848" lon="10.9298639"><ele>99.0</ele><time>2026-04-04T13:57:13.793Z</time></trkpt><trkpt lat="43.6907943" lon="10.9297765"><ele>99.0</ele><time>2026-04-04T13:57:19.793Z</time></trkpt><trkpt lat="43.6907917" lon="10.9296883"><ele>99.0</ele><time>2026-04-04T13:57:25.753Z</time></trkpt><trkpt lat="43.6907791" lon="10.9296024"><ele>100.14285714285715</ele><time>2026-04-04T13:57:33.793Z</time></trkpt><trkpt lat="43.6907562" lon="10.9295105"><ele>101.28571428571428</ele><time>2026-04-04T13:57:52.812Z</time></trkpt><trkpt lat="43.6907469" lon="10.9294177"><ele>102.42857142857143</ele><time>2026-04-04T13:57:57.793Z</time></trkpt><trkpt lat="43.6907374" lon="10.9293136"><ele>103.57142857142858</ele><time>2026-04-04T13:58:03.796Z</time></trkpt><trkpt lat="43.6907226" lon="10.929221"><ele>104.71428571428572</ele><time>2026-04-04T13:58:08.753Z</time></trkpt><trkpt lat="43.6907019" lon="10.9291301"><ele>105.85714285714286</ele><time>2026-04-04T13:58:13.794Z</time></trkpt><trkpt lat="43.6906887" lon="10.9290379"><ele>107.0</ele><time>2026-04-04T13:58:19.794Z</time></trkpt><trkpt lat="43.6906753" lon="10.9289479"><ele>107.28571428571429</ele><time>2026-04-04T13:58:25.778Z</time></trkpt><trkpt lat="43.6906575" lon="10.9288643"><ele>107.57142857142857</ele><time>2026-04-04T13:58:30.794Z</time></trkpt><trkpt lat="43.690626" lon="10.9287631"><ele>107.85714285714286</ele><time>2026-04-04T13:58:36.747Z</time></trkpt><trkpt lat="43.6905992" lon="10.928669"><ele>108.14285714285714</ele><time>2026-04-04T13:58:42.793Z</time></trkpt><trkpt lat="43.6905808" lon="10.9285827"><ele>108.42857142857143</ele><time>2026-04-04T13:58:47.76Z</time></trkpt><trkpt lat="43.6905616" lon="10.9284857"><ele>108.71428571428572</ele><time>2026-04-04T13:58:53.68Z</time></trkpt><trkpt lat="43.6905467" lon="10.9283979"><ele>109.0</ele><time>2026-04-04T13:58:58.796Z</time></trkpt><trkpt lat="43.6905453" lon="10.9282989"><ele>109.14285714285714</ele><time>2026-04-04T13:59:04.715Z</time></trkpt><trkpt lat="43.6905651" lon="10.9282027"><ele>109.28571428571429</ele><time>2026-04-04T13:59:10.793Z</time></trkpt><trkpt lat="43.6905949" lon="10.9281204"><ele>109.42857142857142</ele><time>2026-04-04T13:59:15.794Z</time></trkpt><trkpt lat="43.6906302" lon="10.9280464"><ele>109.57142857142857</ele><time>2026-04-04T13:59:21.794Z</time></trkpt><trkpt lat="43.6906814" lon="10.9279794"><ele>109.71428571428571</ele><time>2026-04-04T13:59:27.793Z</time></trkpt><trkpt lat="43.6907356" lon="10.9279261"><ele>109.85714285714285</ele><time>2026-04-04T13:59:33.366Z</time></trkpt><trkpt lat="43.6908095" lon="10.9279337"><ele>110.0</ele><time>2026-04-04T13:59:53.816Z</time></trkpt><trkpt lat="43.6908809" lon="10.9279043"><ele>109.99999999999999</ele><time>2026-04-04T13:59:58.805Z</time></trkpt><trkpt lat="43.6909542" lon="10.927901"><ele>110.0</ele><time>2026-04-04T14:00:04.763Z</time></trkpt><trkpt lat="43.6910197" lon="10.9278705"><ele>110.0</ele><time>2026-04-04T14:00:09.799Z</time></trkpt><trkpt lat="43.6910846" lon="10.9278159"><ele>110.0</ele><time>2026-04-04T14:00:15.81Z</time></trkpt><trkpt lat="43.6911449" lon="10.9277889"><ele>110.0</ele><time>2026-04-04T14:00:20.797Z</time></trkpt><trkpt lat="43.6912079" lon="10.9277585"><ele>109.99999999999999</ele><time>2026-04-04T14:00:25.805Z</time></trkpt><trkpt lat="43.6912724" lon="10.927734"><ele>110.0</ele><time>2026-04-04T14:00:30.813Z</time></trkpt><trkpt lat="43.6913494" lon="10.9277149"><ele>109.85714285714285</ele><time>2026-04-04T14:00:38.804Z</time></trkpt><trkpt lat="43.6913982" lon="10.9276497"><ele>109.71428571428571</ele><time>2026-04-04T14:00:41.808Z</time></trkpt><trkpt lat="43.691457" lon="10.9275995"><ele>109.57142857142857</ele><time>2026-04-04T14:00:46.706Z</time></trkpt><trkpt lat="43.6915141" lon="10.9275579"><ele>109.42857142857142</ele><time>2026-04-04T14:00:52.797Z</time></trkpt><trkpt lat="43.6915706" lon="10.927512"><ele>109.28571428571429</ele><time>2026-04-04T14:00:59.797Z</time></trkpt><trkpt lat="43.6916352" lon="10.9274921"><ele>109.14285714285714</ele><time>2026-04-04T14:01:06.806Z</time></trkpt><trkpt lat="43.6916995" lon="10.9274977"><ele>109.0</ele><time>2026-04-04T14:01:12.796Z</time></trkpt><trkpt lat="43.6917671" lon="10.9275094"><ele>108.14285714285714</ele><time>2026-04-04T14:01:18.764Z</time></trkpt><trkpt lat="43.6918326" lon="10.9275297"><ele>107.28571428571429</ele><time>2026-04-04T14:01:25.796Z</time></trkpt><trkpt lat="43.6919046" lon="10.9275405"><ele>106.42857142857142</ele><time>2026-04-04T14:01:31.804Z</time></trkpt><trkpt lat="43.6919712" lon="10.9275653"><ele>105.57142857142857</ele><time>2026-04-04T14:01:37.771Z</time></trkpt><trkpt lat="43.6920399" lon="10.9275863"><ele>104.71428571428571</ele><time>2026-04-04T14:01:43.75Z</time></trkpt><trkpt lat="43.6921029" lon="10.9276216"><ele>103.85714285714285</ele><time>2026-04-04T14:01:49.796Z</time></trkpt><trkpt lat="43.6921623" lon="10.9276824"><ele>103.0</ele><time>2026-04-04T14:01:56.796Z</time></trkpt><trkpt lat="43.6922056" lon="10.9277591"><ele>102.42857142857142</ele><time>2026-04-04T14:02:02.813Z</time></trkpt><trkpt lat="43.6922593" lon="10.9278367"><ele>101.85714285714286</ele><time>2026-04-04T14:02:17.796Z</time></trkpt><trkpt lat="43.6922878" lon="10.9279322"><ele>101.28571428571428</ele><time>2026-04-04T14:02:24.805Z</time></trkpt><trkpt lat="43.6923091" lon="10.9280281"><ele>100.71428571428571</ele><time>2026-04-04T14:02:32.797Z</time></trkpt><trkpt lat="43.6923339" lon="10.9281195"><ele>100.14285714285714</ele><time>2026-04-04T14:02:40.796Z</time></trkpt><trkpt lat="43.6923511" lon="10.9282169"><ele>99.57142857142857</ele><time>2026-04-04T14:03:01.77Z</time></trkpt><trkpt lat="43.6923215" lon="10.9282989"><ele>99.0</ele><time>2026-04-04T14:03:06.81Z</time></trkpt><trkpt lat="43.6923045" lon="10.9283992"><ele>98.71428571428572</ele><time>2026-04-04T14:03:12.707Z</time></trkpt><trkpt lat="43.692335" lon="10.9284756"><ele>98.42857142857142</ele><time>2026-04-04T14:03:27.797Z</time></trkpt><trkpt lat="43.6923745" lon="10.9285538"><ele>98.14285714285714</ele><time>2026-04-04T14:03:34.796Z</time></trkpt><trkpt lat="43.6924249" lon="10.9286183"><ele>97.85714285714286</ele><time>2026-04-04T14:03:40.796Z</time></trkpt><trkpt lat="43.6924682" lon="10.9286889"><ele>97.57142857142858</ele><time>2026-04-04T14:03:46.811Z</time></trkpt><trkpt lat="43.6924751" lon="10.9287911"><ele>97.28571428571428</ele><time>2026-04-04T14:03:53.796Z</time></trkpt><trkpt lat="43.6924778" lon="10.9288802"><ele>97.0</ele><time>2026-04-04T14:03:58.755Z</time></trkpt><trkpt lat="43.6924932" lon="10.9289684"><ele>97.0</ele><time>2026-04-04T14:04:09.711Z</time></trkpt><trkpt lat="43.6925457" lon="10.9290195"><ele>97.0</ele><time>2026-04-04T14:04:18.796Z</time></trkpt><trkpt lat="43.6926092" lon="10.9290577"><ele>97.0</ele><time>2026-04-04T14:04:23.805Z</time></trkpt><trkpt lat="43.6926713" lon="10.9290899"><ele>97.0</ele><time>2026-04-04T14:04:28.813Z</time></trkpt><trkpt lat="43.6927342" lon="10.9291365"><ele>97.0</ele><time>2026-04-04T14:04:34.797Z</time></trkpt><trkpt lat="43.6927993" lon="10.929159"><ele>97.0</ele><time>2026-04-04T14:04:40.81Z</time></trkpt><trkpt lat="43.692864" lon="10.9292172"><ele>97.0</ele><time>2026-04-04T14:04:46.796Z</time></trkpt><trkpt lat="43.6929057" lon="10.9292976"><ele>95.28571428571428</ele><time>2026-04-04T14:04:52.715Z</time></trkpt><trkpt lat="43.692959" lon="10.9293469"><ele>93.57142857142858</ele><time>2026-04-04T14:04:57.796Z</time></trkpt><trkpt lat="43.6930189" lon="10.9294038"><ele>91.85714285714286</ele><time>2026-04-04T14:05:03.804Z</time></trkpt><trkpt lat="43.6930702" lon="10.9294641"><ele>90.14285714285714</ele><time>2026-04-04T14:05:09.711Z</time></trkpt><trkpt lat="43.6931223" lon="10.9295163"><ele>88.42857142857142</ele><time>2026-04-04T14:05:14.797Z</time></trkpt><trkpt lat="43.6931649" lon="10.929581"><ele>86.71428571428572</ele><time>2026-04-04T14:05:20.808Z</time></trkpt><trkpt lat="43.6932074" lon="10.9296581"><ele>85.0</ele><time>2026-04-04T14:05:26.796Z</time></trkpt><trkpt lat="43.6932453" lon="10.9297335"><ele>85.0</ele><time>2026-04-04T14:05:32.806Z</time></trkpt><trkpt lat="43.6932914" lon="10.9298052"><ele>85.0</ele><time>2026-04-04T14:05:38.796Z</time></trkpt><trkpt lat="43.6933365" lon="10.9298787"><ele>85.0</ele><time>2026-04-04T14:05:45.804Z</time></trkpt><trkpt lat="43.6933844" lon="10.9299567"><ele>85.0</ele><time>2026-04-04T14:05:52.742Z</time></trkpt><trkpt lat="43.6934436" lon="10.9300119"><ele>85.0</ele><time>2026-04-04T14:05:58.804Z</time></trkpt><trkpt lat="43.693511" lon="10.9300475"><ele>85.0</ele><time>2026-04-04T14:06:04.741Z</time></trkpt><trkpt lat="43.6935683" lon="10.9301106"><ele>85.0</ele><time>2026-04-04T14:06:10.796Z</time></trkpt><trkpt lat="43.6936176" lon="10.9301726"><ele>84.14285714285715</ele><time>2026-04-04T14:06:16.809Z</time></trkpt><trkpt lat="43.6936733" lon="10.9302203"><ele>83.28571428571428</ele><time>2026-04-04T14:06:22.797Z</time></trkpt><trkpt lat="43.6937023" lon="10.9303084"><ele>82.42857142857143</ele><time>2026-04-04T14:06:28.807Z</time></trkpt><trkpt lat="43.6936876" lon="10.9304009"><ele>81.57142857142858</ele><time>2026-04-04T14:06:34.797Z</time></trkpt><trkpt lat="43.6936803" lon="10.9304948"><ele>80.71428571428572</ele><time>2026-04-04T14:06:41.806Z</time></trkpt><trkpt lat="43.6937022" lon="10.9305944"><ele>79.85714285714286</ele><time>2026-04-04T14:06:48.836Z</time></trkpt><trkpt lat="43.6937283" lon="10.9306894"><ele>79.0</ele><time>2026-04-04T14:06:54.805Z</time></trkpt><trkpt lat="43.6937775" lon="10.9307671"><ele>79.00000000000001</ele><time>2026-04-04T14:07:00.796Z</time></trkpt><trkpt lat="43.6938415" lon="10.9308033"><ele>79.0</ele><time>2026-04-04T14:07:06.771Z</time></trkpt><trkpt lat="43.693894" lon="10.9308701"><ele>79.0</ele><time>2026-04-04T14:07:12.729Z</time></trkpt><trkpt lat="43.693872" lon="10.930957"><ele>79.0</ele><time>2026-04-04T14:07:19.796Z</time></trkpt><trkpt lat="43.6938211" lon="10.9310258"><ele>79.0</ele><time>2026-04-04T14:07:26.811Z</time></trkpt><trkpt lat="43.6937792" lon="10.931093"><ele>79.00000000000001</ele><time>2026-04-04T14:07:33.699Z</time></trkpt><trkpt lat="43.6938152" lon="10.9311687"><ele>79.0</ele><time>2026-04-04T14:07:38.796Z</time></trkpt><trkpt lat="43.6938573" lon="10.9312513"><ele>78.57142857142858</ele><time>2026-04-04T14:07:44.796Z</time></trkpt><trkpt lat="43.6939034" lon="10.9313273"><ele>78.14285714285714</ele><time>2026-04-04T14:07:51.807Z</time></trkpt><trkpt lat="43.6939676" lon="10.9313007"><ele>77.71428571428572</ele><time>2026-04-04T14:07:59.796Z</time></trkpt><trkpt lat="43.6939642" lon="10.9314008"><ele>77.28571428571429</ele><time>2026-04-04T14:09:38.797Z</time></trkpt><trkpt lat="43.6939409" lon="10.9313132"><ele>76.85714285714286</ele><time>2026-04-04T14:10:08.752Z</time></trkpt><trkpt lat="43.6938816" lon="10.9312643"><ele>76.42857142857143</ele><time>2026-04-04T14:10:15.796Z</time></trkpt><trkpt lat="43.6938289" lon="10.9311943"><ele>76.0</ele><time>2026-04-04T14:10:22.804Z</time></trkpt><trkpt lat="43.6937653" lon="10.9311857"><ele>76.0</ele><time>2026-04-04T14:10:29.722Z</time></trkpt><trkpt lat="43.6937178" lon="10.9312471"><ele>76.0</ele><time>2026-04-04T14:10:37.807Z</time></trkpt><trkpt lat="43.6936808" lon="10.931326"><ele>76.0</ele><time>2026-04-04T14:10:44.714Z</time></trkpt><trkpt lat="43.6936525" lon="10.9314123"><ele>76.0</ele><time>2026-04-04T14:10:50.805Z</time></trkpt><trkpt lat="43.6936314" lon="10.9314994"><ele>76.0</ele><time>2026-04-04T14:10:56.796Z</time></trkpt><trkpt lat="43.6936203" lon="10.9315918"><ele>76.0</ele><time>2026-04-04T14:11:02.796Z</time></trkpt><trkpt lat="43.6936195" lon="10.9316852"><ele>76.0</ele><time>2026-04-04T14:11:08.81Z</time></trkpt><trkpt lat="43.693579" lon="10.9317592"><ele>76.28571428571428</ele><time>2026-04-04T14:11:16.798Z</time></trkpt><trkpt lat="43.6935348" lon="10.9318425"><ele>76.57142857142858</ele><time>2026-04-04T14:11:23.82Z</time></trkpt><trkpt lat="43.6934988" lon="10.9319158"><ele>76.85714285714286</ele><time>2026-04-04T14:11:28.799Z</time></trkpt><trkpt lat="43.6934544" lon="10.9319898"><ele>77.14285714285714</ele><time>2026-04-04T14:11:34.797Z</time></trkpt><trkpt lat="43.6934087" lon="10.9320655"><ele>77.42857142857142</ele><time>2026-04-04T14:11:40.798Z</time></trkpt><trkpt lat="43.6933608" lon="10.9321453"><ele>77.71428571428572</ele><time>2026-04-04T14:11:46.797Z</time></trkpt><trkpt lat="43.6933132" lon="10.9322099"><ele>78.0</ele><time>2026-04-04T14:11:51.742Z</time></trkpt><trkpt lat="43.6932556" lon="10.9322692"><ele>78.0</ele><time>2026-04-04T14:11:57.798Z</time></trkpt><trkpt lat="43.6932044" lon="10.9323296"><ele>78.0</ele><time>2026-04-04T14:12:03.76Z</time></trkpt><trkpt lat="43.693158" lon="10.9323929"><ele>78.0</ele><time>2026-04-04T14:12:08.474Z</time></trkpt><trkpt lat="43.6931243" lon="10.9324736"><ele>78.0</ele><time>2026-04-04T14:12:13.744Z</time></trkpt><trkpt lat="43.6930983" lon="10.9325683"><ele>78.0</ele><time>2026-04-04T14:12:19.797Z</time></trkpt><trkpt lat="43.6930781" lon="10.9326599"><ele>78.0</ele><time>2026-04-04T14:12:25.797Z</time></trkpt><trkpt lat="43.6930779" lon="10.9327542"><ele>78.0</ele><time>2026-04-04T14:12:31.797Z</time></trkpt><trkpt lat="43.6931004" lon="10.9328486"><ele>77.85714285714286</ele><time>2026-04-04T14:12:37.798Z</time></trkpt><trkpt lat="43.6931374" lon="10.9329239"><ele>77.71428571428571</ele><time>2026-04-04T14:12:43.797Z</time></trkpt><trkpt lat="43.6931656" lon="10.9330176"><ele>77.57142857142857</ele><time>2026-04-04T14:12:49.797Z</time></trkpt><trkpt lat="43.6931913" lon="10.9331042"><ele>77.42857142857143</ele><time>2026-04-04T14:12:54.797Z</time></trkpt><trkpt lat="43.6932153" lon="10.933189"><ele>77.28571428571428</ele><time>2026-04-04T14:12:59.797Z</time></trkpt><trkpt lat="43.6932383" lon="10.9332807"><ele>77.14285714285714</ele><time>2026-04-04T14:13:04.797Z</time></trkpt><trkpt lat="43.6932502" lon="10.9333712"><ele>77.0</ele><time>2026-04-04T14:13:09.797Z</time></trkpt><trkpt lat="43.6932365" lon="10.9334712"><ele>76.57142857142857</ele><time>2026-04-04T14:13:15.847Z</time></trkpt><trkpt lat="43.6932189" lon="10.9335675"><ele>76.14285714285714</ele><time>2026-04-04T14:13:22.401Z</time></trkpt><trkpt lat="43.6931987" lon="10.9336539"><ele>75.71428571428572</ele><time>2026-04-04T14:13:27.798Z</time></trkpt><trkpt lat="43.6931828" lon="10.9337517"><ele>75.28571428571428</ele><time>2026-04-04T14:13:33.727Z</time></trkpt><trkpt lat="43.6931722" lon="10.933848"><ele>74.85714285714286</ele><time>2026-04-04T14:13:39.797Z</time></trkpt><trkpt lat="43.6931794" lon="10.9339441"><ele>74.42857142857143</ele><time>2026-04-04T14:13:45.797Z</time></trkpt><trkpt lat="43.6932029" lon="10.9340341"><ele>74.0</ele><time>2026-04-04T14:13:51.797Z</time></trkpt><trkpt lat="43.6932335" lon="10.9341149"><ele>74.0</ele><time>2026-04-04T14:13:57.797Z</time></trkpt><trkpt lat="43.6932621" lon="10.9342006"><ele>74.0</ele><time>2026-04-04T14:14:03.798Z</time></trkpt><trkpt lat="43.6932829" lon="10.9342879"><ele>74.0</ele><time>2026-04-04T14:14:09.797Z</time></trkpt><trkpt lat="43.6933141" lon="10.9343741"><ele>74.0</ele><time>2026-04-04T14:14:16.797Z</time></trkpt><trkpt lat="43.6933815" lon="10.9343947"><ele>74.0</ele><time>2026-04-04T14:14:22.797Z</time></trkpt><trkpt lat="43.6934506" lon="10.934411"><ele>74.0</ele><time>2026-04-04T14:14:28.797Z</time></trkpt><trkpt lat="43.6935185" lon="10.934434"><ele>74.0</ele><time>2026-04-04T14:14:34.797Z</time></trkpt><trkpt lat="43.6935881" lon="10.9344585"><ele>72.85714285714286</ele><time>2026-04-04T14:14:40.798Z</time></trkpt><trkpt lat="43.6936633" lon="10.9344834"><ele>71.71428571428571</ele><time>2026-04-04T14:14:46.798Z</time></trkpt><trkpt lat="43.6937332" lon="10.9345053"><ele>70.57142857142857</ele><time>2026-04-04T14:14:52.819Z</time></trkpt><trkpt lat="43.6938013" lon="10.9345272"><ele>69.42857142857143</ele><time>2026-04-04T14:14:58.797Z</time></trkpt><trkpt lat="43.693872" lon="10.9345537"><ele>68.28571428571429</ele><time>2026-04-04T14:15:04.777Z</time></trkpt><trkpt lat="43.6939438" lon="10.9345765"><ele>67.14285714285714</ele><time>2026-04-04T14:15:10.798Z</time></trkpt><trkpt lat="43.6940068" lon="10.9346146"><ele>66.0</ele><time>2026-04-04T14:15:16.771Z</time></trkpt><trkpt lat="43.6940789" lon="10.9346339"><ele>66.0</ele><time>2026-04-04T14:15:22.797Z</time></trkpt><trkpt lat="43.6941525" lon="10.9346513"><ele>66.0</ele><time>2026-04-04T14:15:28.798Z</time></trkpt><trkpt lat="43.6942236" lon="10.9346658"><ele>66.0</ele><time>2026-04-04T14:15:34.837Z</time></trkpt><trkpt lat="43.6942972" lon="10.9346797"><ele>66.0</ele><time>2026-04-04T14:15:40.797Z</time></trkpt><trkpt lat="43.6943702" lon="10.9346941"><ele>66.0</ele><time>2026-04-04T14:15:46.788Z</time></trkpt><trkpt lat="43.6944405" lon="10.9347092"><ele>66.0</ele><time>2026-04-04T14:15:52.797Z</time></trkpt><trkpt lat="43.6945031" lon="10.9347184"><ele>66.0</ele><time>2026-04-04T14:15:57.797Z</time></trkpt><trkpt lat="43.694575" lon="10.9347317"><ele>66.14285714285714</ele><time>2026-04-04T14:16:03.798Z</time></trkpt><trkpt lat="43.694647" lon="10.9347437"><ele>66.28571428571429</ele><time>2026-04-04T14:16:09.797Z</time></trkpt><trkpt lat="43.6947178" lon="10.9347593"><ele>66.42857142857143</ele><time>2026-04-04T14:16:15.797Z</time></trkpt><trkpt lat="43.6947902" lon="10.9347728"><ele>66.57142857142857</ele><time>2026-04-04T14:16:21.797Z</time></trkpt><trkpt lat="43.694855" lon="10.9347936"><ele>66.71428571428571</ele><time>2026-04-04T14:16:26.797Z</time></trkpt><trkpt lat="43.6949201" lon="10.9348086"><ele>66.85714285714286</ele><time>2026-04-04T14:16:32.785Z</time></trkpt><trkpt lat="43.6949905" lon="10.9348162"><ele>67.0</ele><time>2026-04-04T14:16:38.797Z</time></trkpt><trkpt lat="43.6950598" lon="10.9348243"><ele>67.0</ele><time>2026-04-04T14:16:44.723Z</time></trkpt><trkpt lat="43.6951316" lon="10.9348387"><ele>67.0</ele><time>2026-04-04T14:16:50.8Z</time></trkpt><trkpt lat="43.6952038" lon="10.9348517"><ele>67.0</ele><time>2026-04-04T14:16:56.798Z</time></trkpt><trkpt lat="43.6952775" lon="10.9348644"><ele>67.0</ele><time>2026-04-04T14:17:02.768Z</time></trkpt><trkpt lat="43.6953513" lon="10.9348789"><ele>67.0</ele><time>2026-04-04T14:17:08.798Z</time></trkpt><trkpt lat="43.6954143" lon="10.9348803"><ele>67.0</ele><time>2026-04-04T14:17:13.797Z</time></trkpt><trkpt lat="43.6954721" lon="10.9348447"><ele>67.0</ele><time>2026-04-04T14:17:19.703Z</time></trkpt><trkpt lat="43.6955433" lon="10.9348199"><ele>67.0</ele><time>2026-04-04T14:17:25.797Z</time></trkpt><trkpt lat="43.695606" lon="10.934775"><ele>67.0</ele><time>2026-04-04T14:17:31.749Z</time></trkpt><trkpt lat="43.6956271" lon="10.9346885"><ele>67.0</ele><time>2026-04-04T14:17:36.798Z</time></trkpt><trkpt lat="43.6956516" lon="10.9345965"><ele>67.0</ele><time>2026-04-04T14:17:42.798Z</time></trkpt><trkpt lat="43.6956751" lon="10.9345014"><ele>67.0</ele><time>2026-04-04T14:17:48.798Z</time></trkpt><trkpt lat="43.6957012" lon="10.9344068"><ele>67.0</ele><time>2026-04-04T14:17:54.797Z</time></trkpt><trkpt lat="43.6957262" lon="10.9343095"><ele>67.0</ele><time>2026-04-04T14:18:00.798Z</time></trkpt><trkpt lat="43.6957536" lon="10.9342164"><ele>66.85714285714286</ele><time>2026-04-04T14:18:06.69Z</time></trkpt><trkpt lat="43.695786" lon="10.9341377"><ele>66.71428571428571</ele><time>2026-04-04T14:18:11.797Z</time></trkpt><trkpt lat="43.6958426" lon="10.9340745"><ele>66.57142857142857</ele><time>2026-04-04T14:18:17.757Z</time></trkpt><trkpt lat="43.6959142" lon="10.9340488"><ele>66.42857142857143</ele><time>2026-04-04T14:18:23.798Z</time></trkpt><trkpt lat="43.6959831" lon="10.9340173"><ele>66.28571428571429</ele><time>2026-04-04T14:18:29.797Z</time></trkpt><trkpt lat="43.6960531" lon="10.9339869"><ele>66.14285714285714</ele><time>2026-04-04T14:18:35.742Z</time></trkpt><trkpt lat="43.6961234" lon="10.9339602"><ele>66.0</ele><time>2026-04-04T14:18:41.797Z</time></trkpt><trkpt lat="43.6961923" lon="10.9339187"><ele>65.71428571428571</ele><time>2026-04-04T14:18:47.797Z</time></trkpt><trkpt lat="43.6962625" lon="10.9338897"><ele>65.42857142857143</ele><time>2026-04-04T14:18:53.801Z</time></trkpt><trkpt lat="43.6963318" lon="10.9338554"><ele>65.14285714285714</ele><time>2026-04-04T14:18:59.807Z</time></trkpt><trkpt lat="43.6964009" lon="10.9338281"><ele>64.85714285714286</ele><time>2026-04-04T14:19:05.726Z</time></trkpt><trkpt lat="43.696469" lon="10.9338019"><ele>64.57142857142857</ele><time>2026-04-04T14:19:11.798Z</time></trkpt><trkpt lat="43.6965348" lon="10.9337665"><ele>64.28571428571428</ele><time>2026-04-04T14:19:17.784Z</time></trkpt><trkpt lat="43.696611" lon="10.9337422"><ele>64.0</ele><time>2026-04-04T14:19:23.803Z</time></trkpt><trkpt lat="43.6966713" lon="10.9337149"><ele>64.0</ele><time>2026-04-04T14:19:29.797Z</time></trkpt><trkpt lat="43.6967383" lon="10.9336813"><ele>63.99999999999999</ele><time>2026-04-04T14:19:35.7Z</time></trkpt><trkpt lat="43.6968076" lon="10.9336552"><ele>64.0</ele><time>2026-04-04T14:19:41.738Z</time></trkpt><trkpt lat="43.6968738" lon="10.9336223"><ele>64.0</ele><time>2026-04-04T14:19:47.797Z</time></trkpt><trkpt lat="43.696938" lon="10.9335953"><ele>63.99999999999999</ele><time>2026-04-04T14:19:53.798Z</time></trkpt><trkpt lat="43.6969976" lon="10.9335659"><ele>64.0</ele><time>2026-04-04T14:19:58.767Z</time></trkpt><trkpt lat="43.6970648" lon="10.9335418"><ele>64.0</ele><time>2026-04-04T14:20:04.797Z</time></trkpt><trkpt lat="43.6971282" lon="10.9335304"><ele>63.71428571428571</ele><time>2026-04-04T14:20:09.82Z</time></trkpt><trkpt lat="43.6971912" lon="10.933531"><ele>63.42857142857142</ele><time>2026-04-04T14:20:14.798Z</time></trkpt><trkpt lat="43.6972549" lon="10.9335421"><ele>63.14285714285714</ele><time>2026-04-04T14:20:19.827Z</time></trkpt><trkpt lat="43.6973279" lon="10.9335638"><ele>62.85714285714286</ele><time>2026-04-04T14:20:25.797Z</time></trkpt><trkpt lat="43.6973991" lon="10.9335861"><ele>62.57142857142858</ele><time>2026-04-04T14:20:31.781Z</time></trkpt><trkpt lat="43.6974701" lon="10.9336047"><ele>62.28571428571429</ele><time>2026-04-04T14:20:37.797Z</time></trkpt><trkpt lat="43.6975449" lon="10.933621"><ele>62.0</ele><time>2026-04-04T14:20:43.797Z</time></trkpt><trkpt lat="43.6976104" lon="10.933638"><ele>62.0</ele><time>2026-04-04T14:20:49.797Z</time></trkpt><trkpt lat="43.6976806" lon="10.9336607"><ele>62.00000000000001</ele><time>2026-04-04T14:20:55.797Z</time></trkpt><trkpt lat="43.6977495" lon="10.9336854"><ele>62.0</ele><time>2026-04-04T14:21:01.798Z</time></trkpt><trkpt lat="43.6978175" lon="10.9337168"><ele>62.0</ele><time>2026-04-04T14:21:07.814Z</time></trkpt><trkpt lat="43.6978812" lon="10.9337379"><ele>62.00000000000001</ele><time>2026-04-04T14:21:12.797Z</time></trkpt><trkpt lat="43.6979487" lon="10.933755"><ele>62.0</ele><time>2026-04-04T14:21:18.797Z</time></trkpt><trkpt lat="43.6980132" lon="10.9337747"><ele>62.0</ele><time>2026-04-04T14:21:23.8Z</time></trkpt><trkpt lat="43.6980794" lon="10.933786"><ele>62.57142857142858</ele><time>2026-04-04T14:21:28.775Z</time></trkpt><trkpt lat="43.6981418" lon="10.9338053"><ele>63.14285714285715</ele><time>2026-04-04T14:21:33.797Z</time></trkpt><trkpt lat="43.6982085" lon="10.9338415"><ele>63.714285714285715</ele><time>2026-04-04T14:21:39.797Z</time></trkpt><trkpt lat="43.6982772" lon="10.9338669"><ele>64.28571428571429</ele><time>2026-04-04T14:21:45.771Z</time></trkpt><trkpt lat="43.6983431" lon="10.9338918"><ele>64.85714285714286</ele><time>2026-04-04T14:21:51.833Z</time></trkpt><trkpt lat="43.698406" lon="10.9339104"><ele>65.42857142857143</ele><time>2026-04-04T14:21:57.797Z</time></trkpt><trkpt lat="43.6984731" lon="10.9339361"><ele>66.0</ele><time>2026-04-04T14:22:03.799Z</time></trkpt><trkpt lat="43.6985395" lon="10.9339528"><ele>65.71428571428571</ele><time>2026-04-04T14:22:09.797Z</time></trkpt><trkpt lat="43.6986037" lon="10.9339715"><ele>65.42857142857143</ele><time>2026-04-04T14:22:21.797Z</time></trkpt><trkpt lat="43.6986729" lon="10.9339534"><ele>65.14285714285714</ele><time>2026-04-04T14:22:26.813Z</time></trkpt><trkpt lat="43.6987027" lon="10.9338559"><ele>64.85714285714286</ele><time>2026-04-04T14:22:31.976Z</time></trkpt><trkpt lat="43.6986963" lon="10.9337662"><ele>64.57142857142857</ele><time>2026-04-04T14:22:48.761Z</time></trkpt><trkpt lat="43.6987189" lon="10.9336799"><ele>64.28571428571428</ele><time>2026-04-04T14:23:05.728Z</time></trkpt><trkpt lat="43.698788" lon="10.9336772"><ele>64.0</ele><time>2026-04-04T14:23:11.795Z</time></trkpt><trkpt lat="43.6988467" lon="10.9337187"><ele>64.0</ele><time>2026-04-04T14:23:19.796Z</time></trkpt><trkpt lat="43.6989178" lon="10.9337002"><ele>63.99999999999999</ele><time>2026-04-04T14:23:58.795Z</time></trkpt><trkpt lat="43.6989849" lon="10.9337174"><ele>64.0</ele><time>2026-04-04T14:24:03.795Z</time></trkpt><trkpt lat="43.6990485" lon="10.9337398"><ele>64.0</ele><time>2026-04-04T14:24:09.795Z</time></trkpt><trkpt lat="43.6991116" lon="10.9337928"><ele>63.99999999999999</ele><time>2026-04-04T14:24:15.817Z</time></trkpt><trkpt lat="43.6991743" lon="10.9338443"><ele>64.0</ele><time>2026-04-04T14:24:20.795Z</time></trkpt><trkpt lat="43.6992415" lon="10.9338696"><ele>64.0</ele><time>2026-04-04T14:24:26.795Z</time></trkpt><trkpt lat="43.6993056" lon="10.9339122"><ele>64.0</ele><time>2026-04-04T14:24:33.795Z</time></trkpt><trkpt lat="43.6993711" lon="10.9339433"><ele>63.99999999999999</ele><time>2026-04-04T14:24:40.795Z</time></trkpt><trkpt lat="43.6994354" lon="10.9339853"><ele>64.0</ele><time>2026-04-04T14:24:46.818Z</time></trkpt><trkpt lat="43.6994831" lon="10.9340468"><ele>64.0</ele><time>2026-04-04T14:24:52.795Z</time></trkpt><trkpt lat="43.6995138" lon="10.9341285"><ele>63.99999999999999</ele><time>2026-04-04T14:24:58.746Z</time></trkpt><trkpt lat="43.6995145" lon="10.9342274"><ele>64.0</ele><time>2026-04-04T14:25:05.795Z</time></trkpt><trkpt lat="43.6995106" lon="10.934324"><ele>64.0</ele><time>2026-04-04T14:25:12.796Z</time></trkpt><trkpt lat="43.6995376" lon="10.9344119"><ele>62.42857142857142</ele><time>2026-04-04T14:25:20.809Z</time></trkpt><trkpt lat="43.6995789" lon="10.9344825"><ele>60.85714285714285</ele><time>2026-04-04T14:25:26.795Z</time></trkpt><trkpt lat="43.6996217" lon="10.9345508"><ele>59.285714285714285</ele><time>2026-04-04T14:25:32.795Z</time></trkpt><trkpt lat="43.699669" lon="10.9346371"><ele>57.71428571428571</ele><time>2026-04-04T14:25:38.818Z</time></trkpt><trkpt lat="43.6996974" lon="10.9347192"><ele>56.14285714285714</ele><time>2026-04-04T14:25:43.795Z</time></trkpt><trkpt lat="43.6997036" lon="10.9348113"><ele>54.57142857142857</ele><time>2026-04-04T14:25:52.817Z</time></trkpt><trkpt lat="43.6997443" lon="10.9348934"><ele>53.0</ele><time>2026-04-04T14:25:57.795Z</time></trkpt><trkpt lat="43.6998078" lon="10.9349476"><ele>53.0</ele><time>2026-04-04T14:26:03.796Z</time></trkpt><trkpt lat="43.6998548" lon="10.9350174"><ele>53.0</ele><time>2026-04-04T14:26:09.795Z</time></trkpt><trkpt lat="43.6998888" lon="10.9350949"><ele>53.0</ele><time>2026-04-04T14:26:15.738Z</time></trkpt><trkpt lat="43.6999033" lon="10.9351987"><ele>53.0</ele><time>2026-04-04T14:26:21.819Z</time></trkpt><trkpt lat="43.6999272" lon="10.9353009"><ele>53.0</ele><time>2026-04-04T14:26:27.757Z</time></trkpt><trkpt lat="43.6999366" lon="10.9353916"><ele>53.0</ele><time>2026-04-04T14:26:33.796Z</time></trkpt><trkpt lat="43.6999387" lon="10.9354817"><ele>53.0</ele><time>2026-04-04T14:26:38.732Z</time></trkpt><trkpt lat="43.699919" lon="10.935565"><ele>52.285714285714285</ele><time>2026-04-04T14:26:48.796Z</time></trkpt><trkpt lat="43.6999413" lon="10.9356547"><ele>51.57142857142857</ele><time>2026-04-04T14:27:44.728Z</time></trkpt><trkpt lat="43.6999344" lon="10.9357507"><ele>50.857142857142854</ele><time>2026-04-04T14:27:52.795Z</time></trkpt><trkpt lat="43.6999005" lon="10.9358362"><ele>50.14285714285714</ele><time>2026-04-04T14:27:59.795Z</time></trkpt><trkpt lat="43.6998607" lon="10.9359096"><ele>49.42857142857143</ele><time>2026-04-04T14:28:06.796Z</time></trkpt><trkpt lat="43.6998215" lon="10.9359793"><ele>48.71428571428571</ele><time>2026-04-04T14:28:12.716Z</time></trkpt><trkpt lat="43.6997948" lon="10.9360609"><ele>48.0</ele><time>2026-04-04T14:28:19.795Z</time></trkpt><trkpt lat="43.6997591" lon="10.9361349"><ele>47.14285714285714</ele><time>2026-04-04T14:28:25.752Z</time></trkpt><trkpt lat="43.6997132" lon="10.9362"><ele>46.285714285714285</ele><time>2026-04-04T14:28:31.795Z</time></trkpt><trkpt lat="43.6996622" lon="10.9362624"><ele>45.42857142857143</ele><time>2026-04-04T14:28:37.795Z</time></trkpt><trkpt lat="43.69962" lon="10.9363435"><ele>44.57142857142857</ele><time>2026-04-04T14:28:43.701Z</time></trkpt><trkpt lat="43.6995906" lon="10.9364214"><ele>43.714285714285715</ele><time>2026-04-04T14:28:48.795Z</time></trkpt><trkpt lat="43.6995594" lon="10.936502"><ele>42.857142857142854</ele><time>2026-04-04T14:28:54.795Z</time></trkpt><trkpt lat="43.6995246" lon="10.9365928"><ele>42.0</ele><time>2026-04-04T14:29:00.818Z</time></trkpt><trkpt lat="43.6994987" lon="10.9366807"><ele>41.285714285714285</ele><time>2026-04-04T14:29:05.795Z</time></trkpt><trkpt lat="43.6994739" lon="10.9367647"><ele>40.57142857142857</ele><time>2026-04-04T14:29:10.796Z</time></trkpt><trkpt lat="43.6994309" lon="10.9368291"><ele>39.85714285714286</ele><time>2026-04-04T14:29:16.788Z</time></trkpt><trkpt lat="43.6993844" lon="10.936756"><ele>39.14285714285714</ele><time>2026-04-04T14:29:22.835Z</time></trkpt><trkpt lat="43.6993424" lon="10.9366747"><ele>38.42857142857143</ele><time>2026-04-04T14:29:28.83Z</time></trkpt><trkpt lat="43.6992947" lon="10.9366149"><ele>37.714285714285715</ele><time>2026-04-04T14:29:35.795Z</time></trkpt><trkpt lat="43.6992533" lon="10.9365482"><ele>37.0</ele><time>2026-04-04T14:29:42.767Z</time></trkpt><trkpt lat="43.6991949" lon="10.9365063"><ele>40.142857142857146</ele><time>2026-04-04T14:29:48.795Z</time></trkpt><trkpt lat="43.6991318" lon="10.9364681"><ele>43.285714285714285</ele><time>2026-04-04T14:29:54.796Z</time></trkpt><trkpt lat="43.6990714" lon="10.9364372"><ele>46.42857142857143</ele><time>2026-04-04T14:30:00.765Z</time></trkpt><trkpt lat="43.6990091" lon="10.9364082"><ele>49.57142857142857</ele><time>2026-04-04T14:30:06.795Z</time></trkpt><trkpt lat="43.6989399" lon="10.9363877"><ele>52.714285714285715</ele><time>2026-04-04T14:30:12.795Z</time></trkpt><trkpt lat="43.6988704" lon="10.9363761"><ele>55.857142857142854</ele><time>2026-04-04T14:30:18.795Z</time></trkpt><trkpt lat="43.6987961" lon="10.936362"><ele>59.0</ele><time>2026-04-04T14:30:24.749Z</time></trkpt><trkpt lat="43.6987315" lon="10.9363569"><ele>59.0</ele><time>2026-04-04T14:30:29.795Z</time></trkpt><trkpt lat="43.6986674" lon="10.93634"><ele>59.0</ele><time>2026-04-04T14:30:35.707Z</time></trkpt><trkpt lat="43.6986054" lon="10.9363119"><ele>59.0</ele><time>2026-04-04T14:30:41.796Z</time></trkpt><trkpt lat="43.6985445" lon="10.936278"><ele>59.0</ele><time>2026-04-04T14:30:47.795Z</time></trkpt><trkpt lat="43.6984827" lon="10.9362605"><ele>59.0</ele><time>2026-04-04T14:30:53.795Z</time></trkpt><trkpt lat="43.6984223" lon="10.9362356"><ele>59.0</ele><time>2026-04-04T14:30:59.795Z</time></trkpt><trkpt lat="43.6983554" lon="10.9362097"><ele>59.0</ele><time>2026-04-04T14:31:06.795Z</time></trkpt><trkpt lat="43.6982902" lon="10.936191"><ele>59.42857142857143</ele><time>2026-04-04T14:31:12.795Z</time></trkpt><trkpt lat="43.6982254" lon="10.936172"><ele>59.85714285714286</ele><time>2026-04-04T14:31:17.736Z</time></trkpt><trkpt lat="43.6981626" lon="10.936153"><ele>60.28571428571429</ele><time>2026-04-04T14:31:22.791Z</time></trkpt><trkpt lat="43.6980912" lon="10.936127"><ele>60.714285714285715</ele><time>2026-04-04T14:31:28.795Z</time></trkpt><trkpt lat="43.6980278" lon="10.9360864"><ele>61.14285714285715</ele><time>2026-04-04T14:31:34.796Z</time></trkpt><trkpt lat="43.6979638" lon="10.9360393"><ele>61.57142857142858</ele><time>2026-04-04T14:31:40.795Z</time></trkpt><trkpt lat="43.6979077" lon="10.9359835"><ele>62.0</ele><time>2026-04-04T14:31:46.795Z</time></trkpt><trkpt lat="43.6978494" lon="10.9359269"><ele>61.85714285714286</ele><time>2026-04-04T14:31:52.725Z</time></trkpt><trkpt lat="43.6977883" lon="10.9358838"><ele>61.71428571428572</ele><time>2026-04-04T14:31:58.796Z</time></trkpt><trkpt lat="43.6977364" lon="10.9358265"><ele>61.57142857142857</ele><time>2026-04-04T14:32:04.796Z</time></trkpt><trkpt lat="43.6976637" lon="10.9357886"><ele>61.42857142857143</ele><time>2026-04-04T14:32:10.814Z</time></trkpt><trkpt lat="43.6976027" lon="10.935759"><ele>61.285714285714285</ele><time>2026-04-04T14:32:16.795Z</time></trkpt><trkpt lat="43.6975398" lon="10.9357237"><ele>61.14285714285714</ele><time>2026-04-04T14:32:22.795Z</time></trkpt><trkpt lat="43.6974768" lon="10.9356938"><ele>60.99999999999999</ele><time>2026-04-04T14:32:28.795Z</time></trkpt><trkpt lat="43.6974164" lon="10.9356618"><ele>60.99999999999999</ele><time>2026-04-04T14:32:33.795Z</time></trkpt><trkpt lat="43.697346" lon="10.9356401"><ele>61.0</ele><time>2026-04-04T14:32:39.815Z</time></trkpt><trkpt lat="43.6972743" lon="10.9356224"><ele>60.99999999999999</ele><time>2026-04-04T14:32:45.748Z</time></trkpt><trkpt lat="43.6972018" lon="10.9356069"><ele>60.99999999999999</ele><time>2026-04-04T14:32:51.784Z</time></trkpt><trkpt lat="43.6971313" lon="10.9355923"><ele>61.0</ele><time>2026-04-04T14:32:57.303Z</time></trkpt><trkpt lat="43.6970627" lon="10.9355936"><ele>60.99999999999999</ele><time>2026-04-04T14:33:01.797Z</time></trkpt><trkpt lat="43.6970019" lon="10.9355702"><ele>60.99999999999999</ele><time>2026-04-04T14:33:06.702Z</time></trkpt><trkpt lat="43.6969373" lon="10.935533"><ele>61.28571428571428</ele><time>2026-04-04T14:33:12.821Z</time></trkpt><trkpt lat="43.6968767" lon="10.9354857"><ele>61.57142857142857</ele><time>2026-04-04T14:33:19.795Z</time></trkpt><trkpt lat="43.696807" lon="10.9354594"><ele>61.857142857142854</ele><time>2026-04-04T14:33:25.795Z</time></trkpt><trkpt lat="43.6967436" lon="10.9354282"><ele>62.14285714285714</ele><time>2026-04-04T14:33:31.796Z</time></trkpt><trkpt lat="43.6966809" lon="10.935392"><ele>62.42857142857143</ele><time>2026-04-04T14:33:37.718Z</time></trkpt><trkpt lat="43.6966149" lon="10.9353472"><ele>62.714285714285715</ele><time>2026-04-04T14:33:43.795Z</time></trkpt><trkpt lat="43.6965467" lon="10.9353074"><ele>63.0</ele><time>2026-04-04T14:33:49.796Z</time></trkpt><trkpt lat="43.6964839" lon="10.9352617"><ele>63.0</ele><time>2026-04-04T14:33:55.796Z</time></trkpt><trkpt lat="43.6964174" lon="10.9352213"><ele>63.0</ele><time>2026-04-04T14:34:01.795Z</time></trkpt><trkpt lat="43.6963527" lon="10.935178"><ele>63.0</ele><time>2026-04-04T14:34:07.842Z</time></trkpt><trkpt lat="43.6962937" lon="10.9351459"><ele>63.0</ele><time>2026-04-04T14:34:12.795Z</time></trkpt><trkpt lat="43.6962327" lon="10.9351097"><ele>63.0</ele><time>2026-04-04T14:34:18.795Z</time></trkpt><trkpt lat="43.6961708" lon="10.9350705"><ele>63.0</ele><time>2026-04-04T14:34:24.795Z</time></trkpt><trkpt lat="43.6961109" lon="10.935035"><ele>63.0</ele><time>2026-04-04T14:34:30.795Z</time></trkpt><trkpt lat="43.6960491" lon="10.9350023"><ele>63.57142857142857</ele><time>2026-04-04T14:34:36.795Z</time></trkpt><trkpt lat="43.6959833" lon="10.934969"><ele>64.14285714285714</ele><time>2026-04-04T14:34:42.74Z</time></trkpt><trkpt lat="43.6959188" lon="10.9349466"><ele>64.71428571428572</ele><time>2026-04-04T14:34:48.795Z</time></trkpt><trkpt lat="43.6958517" lon="10.9349281"><ele>65.28571428571428</ele><time>2026-04-04T14:34:54.795Z</time></trkpt><trkpt lat="43.6957857" lon="10.9349134"><ele>65.85714285714286</ele><time>2026-04-04T14:35:00.795Z</time></trkpt><trkpt lat="43.6957241" lon="10.9348869"><ele>66.42857142857143</ele><time>2026-04-04T14:35:06.755Z</time></trkpt><trkpt lat="43.6956536" lon="10.9348906"><ele>67.0</ele><time>2026-04-04T14:35:18.793Z</time></trkpt><trkpt lat="43.6955823" lon="10.9348769"><ele>67.0</ele><time>2026-04-04T14:35:24.795Z</time></trkpt><trkpt lat="43.6955123" lon="10.9348654"><ele>67.0</ele><time>2026-04-04T14:35:30.795Z</time></trkpt><trkpt lat="43.695442" lon="10.9348528"><ele>67.0</ele><time>2026-04-04T14:35:36.811Z</time></trkpt><trkpt lat="43.6953769" lon="10.9348396"><ele>67.0</ele><time>2026-04-04T14:35:42.807Z</time></trkpt><trkpt lat="43.6953109" lon="10.9348312"><ele>67.0</ele><time>2026-04-04T14:35:48.795Z</time></trkpt><trkpt lat="43.6952432" lon="10.93483"><ele>67.0</ele><time>2026-04-04T14:35:54.796Z</time></trkpt><trkpt lat="43.6951738" lon="10.9348233"><ele>67.0</ele><time>2026-04-04T14:36:00.793Z</time></trkpt><trkpt lat="43.6951049" lon="10.9348151"><ele>67.0</ele><time>2026-04-04T14:36:06.795Z</time></trkpt><trkpt lat="43.6950343" lon="10.934796"><ele>67.0</ele><time>2026-04-04T14:36:12.795Z</time></trkpt><trkpt lat="43.6949717" lon="10.9347859"><ele>67.0</ele><time>2026-04-04T14:36:17.796Z</time></trkpt><trkpt lat="43.6949048" lon="10.9347679"><ele>67.0</ele><time>2026-04-04T14:36:23.795Z</time></trkpt><trkpt lat="43.6948368" lon="10.9347546"><ele>67.0</ele><time>2026-04-04T14:36:29.795Z</time></trkpt><trkpt lat="43.6947713" lon="10.9347432"><ele>67.0</ele><time>2026-04-04T14:36:35.795Z</time></trkpt><trkpt lat="43.6947031" lon="10.9347323"><ele>67.0</ele><time>2026-04-04T14:36:41.744Z</time></trkpt><trkpt lat="43.6946318" lon="10.9347166"><ele>67.0</ele><time>2026-04-04T14:36:47.795Z</time></trkpt><trkpt lat="43.6945615" lon="10.9346999"><ele>67.0</ele><time>2026-04-04T14:36:53.801Z</time></trkpt><trkpt lat="43.6944914" lon="10.9346852"><ele>67.0</ele><time>2026-04-04T14:36:59.811Z</time></trkpt><trkpt lat="43.6944249" lon="10.9346764"><ele>67.0</ele><time>2026-04-04T14:37:05.795Z</time></trkpt><trkpt lat="43.6943589" lon="10.9346635"><ele>67.0</ele><time>2026-04-04T14:37:11.796Z</time></trkpt><trkpt lat="43.6942924" lon="10.9346542"><ele>67.0</ele><time>2026-04-04T14:37:17.525Z</time></trkpt><trkpt lat="43.6942194" lon="10.9346389"><ele>67.0</ele><time>2026-04-04T14:37:23.795Z</time></trkpt><trkpt lat="43.6941477" lon="10.9346212"><ele>66.85714285714286</ele><time>2026-04-04T14:37:29.703Z</time></trkpt><trkpt lat="43.6940718" lon="10.9345996"><ele>66.71428571428571</ele><time>2026-04-04T14:37:35.795Z</time></trkpt><trkpt lat="43.6940075" lon="10.9345949"><ele>66.57142857142857</ele><time>2026-04-04T14:37:41.796Z</time></trkpt><trkpt lat="43.6939399" lon="10.9345842"><ele>66.42857142857143</ele><time>2026-04-04T14:37:47.795Z</time></trkpt><trkpt lat="43.6938726" lon="10.9345617"><ele>66.28571428571429</ele><time>2026-04-04T14:37:53.796Z</time></trkpt><trkpt lat="43.6938046" lon="10.9345409"><ele>66.14285714285714</ele><time>2026-04-04T14:37:59.795Z</time></trkpt><trkpt lat="43.6937403" lon="10.9345155"><ele>66.0</ele><time>2026-04-04T14:38:05.795Z</time></trkpt><trkpt lat="43.6936788" lon="10.9344909"><ele>66.0</ele><time>2026-04-04T14:38:11.704Z</time></trkpt><trkpt lat="43.6936139" lon="10.9344649"><ele>66.0</ele><time>2026-04-04T14:38:17.795Z</time></trkpt><trkpt lat="43.6935486" lon="10.9344417"><ele>66.0</ele><time>2026-04-04T14:38:23.795Z</time></trkpt><trkpt lat="43.6934811" lon="10.934417"><ele>66.0</ele><time>2026-04-04T14:38:29.818Z</time></trkpt><trkpt lat="43.6934141" lon="10.9343914"><ele>66.0</ele><time>2026-04-04T14:38:35.829Z</time></trkpt><trkpt lat="43.6933475" lon="10.9343642"><ele>66.0</ele><time>2026-04-04T14:38:41.695Z</time></trkpt><trkpt lat="43.6932819" lon="10.9343314"><ele>66.0</ele><time>2026-04-04T14:38:47.796Z</time></trkpt><trkpt lat="43.6932164" lon="10.934303"><ele>66.42857142857143</ele><time>2026-04-04T14:38:53.795Z</time></trkpt><trkpt lat="43.6931497" lon="10.934278"><ele>66.85714285714286</ele><time>2026-04-04T14:38:59.795Z</time></trkpt><trkpt lat="43.6930822" lon="10.9342487"><ele>67.28571428571429</ele><time>2026-04-04T14:39:05.795Z</time></trkpt><trkpt lat="43.6930175" lon="10.9342159"><ele>67.71428571428572</ele><time>2026-04-04T14:39:11.795Z</time></trkpt><trkpt lat="43.6929508" lon="10.9341857"><ele>68.14285714285715</ele><time>2026-04-04T14:39:17.796Z</time></trkpt><trkpt lat="43.6928892" lon="10.9341466"><ele>68.57142857142857</ele><time>2026-04-04T14:39:23.795Z</time></trkpt><trkpt lat="43.6928237" lon="10.9341045"><ele>69.0</ele><time>2026-04-04T14:39:29.695Z</time></trkpt><trkpt lat="43.6927635" lon="10.934067"><ele>69.57142857142857</ele><time>2026-04-04T14:39:35.796Z</time></trkpt><trkpt lat="43.6927004" lon="10.9340238"><ele>70.14285714285715</ele><time>2026-04-04T14:39:41.795Z</time></trkpt><trkpt lat="43.692644" lon="10.9339693"><ele>70.71428571428572</ele><time>2026-04-04T14:39:47.795Z</time></trkpt><trkpt lat="43.6925877" lon="10.9339052"><ele>71.28571428571429</ele><time>2026-04-04T14:39:53.795Z</time></trkpt><trkpt lat="43.6925191" lon="10.9338726"><ele>71.85714285714286</ele><time>2026-04-04T14:39:59.791Z</time></trkpt><trkpt lat="43.6924587" lon="10.9338468"><ele>72.42857142857143</ele><time>2026-04-04T14:40:04.795Z</time></trkpt><trkpt lat="43.6924106" lon="10.9337855"><ele>73.0</ele><time>2026-04-04T14:40:10.795Z</time></trkpt><trkpt lat="43.6923521" lon="10.9337349"><ele>73.0</ele><time>2026-04-04T14:40:16.796Z</time></trkpt><trkpt lat="43.6922865" lon="10.9336941"><ele>73.0</ele><time>2026-04-04T14:40:22.801Z</time></trkpt><trkpt lat="43.6922236" lon="10.9336495"><ele>73.0</ele><time>2026-04-04T14:40:28.795Z</time></trkpt><trkpt lat="43.692162" lon="10.9336006"><ele>73.0</ele><time>2026-04-04T14:40:34.795Z</time></trkpt><trkpt lat="43.6921134" lon="10.9335276"><ele>73.0</ele><time>2026-04-04T14:40:40.796Z</time></trkpt><trkpt lat="43.6920619" lon="10.9334773"><ele>73.0</ele><time>2026-04-04T14:40:45.795Z</time></trkpt><trkpt lat="43.6919993" lon="10.9334204"><ele>73.0</ele><time>2026-04-04T14:40:51.796Z</time></trkpt><trkpt lat="43.6919441" lon="10.9333614"><ele>73.14285714285714</ele><time>2026-04-04T14:40:57.795Z</time></trkpt><trkpt lat="43.6918845" lon="10.9333103"><ele>73.28571428571429</ele><time>2026-04-04T14:41:03.795Z</time></trkpt><trkpt lat="43.6918461" lon="10.9332245"><ele>73.42857142857143</ele><time>2026-04-04T14:41:09.83Z</time></trkpt><trkpt lat="43.6918097" lon="10.9331344"><ele>73.57142857142857</ele><time>2026-04-04T14:41:16.811Z</time></trkpt><trkpt lat="43.6917729" lon="10.9330473"><ele>73.71428571428571</ele><time>2026-04-04T14:41:22.795Z</time></trkpt><trkpt lat="43.6917367" lon="10.9329666"><ele>73.85714285714286</ele><time>2026-04-04T14:41:28.795Z</time></trkpt><trkpt lat="43.6917005" lon="10.9328878"><ele>74.0</ele><time>2026-04-04T14:41:34.795Z</time></trkpt><trkpt lat="43.6916611" lon="10.932809"><ele>74.0</ele><time>2026-04-04T14:41:40.796Z</time></trkpt><trkpt lat="43.6916218" lon="10.9327273"><ele>74.0</ele><time>2026-04-04T14:41:47.795Z</time></trkpt><trkpt lat="43.6915887" lon="10.9326387"><ele>74.0</ele><time>2026-04-04T14:41:54.795Z</time></trkpt><trkpt lat="43.6915575" lon="10.9325601"><ele>74.0</ele><time>2026-04-04T14:42:00.795Z</time></trkpt><trkpt lat="43.6915199" lon="10.9324872"><ele>74.0</ele><time>2026-04-04T14:42:06.812Z</time></trkpt><trkpt lat="43.691482" lon="10.9324028"><ele>74.0</ele><time>2026-04-04T14:42:13.732Z</time></trkpt><trkpt lat="43.6914532" lon="10.9323243"><ele>74.0</ele><time>2026-04-04T14:42:19.795Z</time></trkpt><trkpt lat="43.691424" lon="10.932244"><ele>75.71428571428572</ele><time>2026-04-04T14:42:25.795Z</time></trkpt><trkpt lat="43.6913921" lon="10.9321652"><ele>77.42857142857143</ele><time>2026-04-04T14:42:31.795Z</time></trkpt><trkpt lat="43.6913546" lon="10.9320781"><ele>79.14285714285714</ele><time>2026-04-04T14:42:38.795Z</time></trkpt><trkpt lat="43.6913161" lon="10.9320062"><ele>80.85714285714286</ele><time>2026-04-04T14:42:44.737Z</time></trkpt><trkpt lat="43.6912822" lon="10.9319249"><ele>82.57142857142857</ele><time>2026-04-04T14:42:50.796Z</time></trkpt><trkpt lat="43.6912473" lon="10.9318494"><ele>84.28571428571429</ele><time>2026-04-04T14:42:56.795Z</time></trkpt><trkpt lat="43.6912141" lon="10.9317655"><ele>86.0</ele><time>2026-04-04T14:43:02.795Z</time></trkpt><trkpt lat="43.6911853" lon="10.931682"><ele>86.57142857142858</ele><time>2026-04-04T14:43:08.715Z</time></trkpt><trkpt lat="43.6911596" lon="10.9315971"><ele>87.14285714285714</ele><time>2026-04-04T14:43:14.795Z</time></trkpt><trkpt lat="43.6911337" lon="10.9315166"><ele>87.71428571428572</ele><time>2026-04-04T14:43:19.798Z</time></trkpt><trkpt lat="43.691105" lon="10.9314389"><ele>88.28571428571429</ele><time>2026-04-04T14:43:24.796Z</time></trkpt><trkpt lat="43.6910807" lon="10.9313581"><ele>88.85714285714286</ele><time>2026-04-04T14:43:36.795Z</time></trkpt><trkpt lat="43.6910627" lon="10.9312668"><ele>89.42857142857143</ele><time>2026-04-04T14:43:43.794Z</time></trkpt><trkpt lat="43.6910451" lon="10.9311677"><ele>90.0</ele><time>2026-04-04T14:43:49.795Z</time></trkpt><trkpt lat="43.6910201" lon="10.9310746"><ele>90.0</ele><time>2026-04-04T14:43:55.794Z</time></trkpt><trkpt lat="43.6909692" lon="10.9309977"><ele>90.0</ele><time>2026-04-04T14:44:00.817Z</time></trkpt><trkpt lat="43.6909196" lon="10.9309413"><ele>90.0</ele><time>2026-04-04T14:44:05.794Z</time></trkpt><trkpt lat="43.6908692" lon="10.9308631"><ele>90.0</ele><time>2026-04-04T14:44:11.794Z</time></trkpt><trkpt lat="43.6908257" lon="10.9307894"><ele>90.0</ele><time>2026-04-04T14:44:16.794Z</time></trkpt><trkpt lat="43.6907892" lon="10.9307135"><ele>90.0</ele><time>2026-04-04T14:44:22.794Z</time></trkpt><trkpt lat="43.6907535" lon="10.9306256"><ele>90.0</ele><time>2026-04-04T14:44:28.794Z</time></trkpt><trkpt lat="43.6907267" lon="10.9305305"><ele>91.28571428571428</ele><time>2026-04-04T14:44:34.794Z</time></trkpt><trkpt lat="43.6906842" lon="10.930457"><ele>92.57142857142858</ele><time>2026-04-04T14:44:39.794Z</time></trkpt><trkpt lat="43.6906359" lon="10.930382"><ele>93.85714285714286</ele><time>2026-04-04T14:44:45.795Z</time></trkpt><trkpt lat="43.6905702" lon="10.9303444"><ele>95.14285714285714</ele><time>2026-04-04T14:44:51.794Z</time></trkpt><trkpt lat="43.6905069" lon="10.9303217"><ele>96.42857142857142</ele><time>2026-04-04T14:44:57.794Z</time></trkpt><trkpt lat="43.6904406" lon="10.930325"><ele>97.71428571428572</ele><time>2026-04-04T14:45:03.794Z</time></trkpt><trkpt lat="43.6903804" lon="10.9303609"><ele>99.0</ele><time>2026-04-04T14:45:09.794Z</time></trkpt><trkpt lat="43.6903274" lon="10.9304202"><ele>99.0</ele><time>2026-04-04T14:45:15.808Z</time></trkpt><trkpt lat="43.6902815" lon="10.93049"><ele>99.0</ele><time>2026-04-04T14:45:21.794Z</time></trkpt><trkpt lat="43.6902242" lon="10.9305558"><ele>99.0</ele><time>2026-04-04T14:45:27.794Z</time></trkpt><trkpt lat="43.6901739" lon="10.930617"><ele>99.0</ele><time>2026-04-04T14:45:34.794Z</time></trkpt><trkpt lat="43.6901399" lon="10.9306985"><ele>99.0</ele><time>2026-04-04T14:45:40.623Z</time></trkpt><trkpt lat="43.6900833" lon="10.9307544"><ele>99.0</ele><time>2026-04-04T14:45:46.794Z</time></trkpt><trkpt lat="43.6900334" lon="10.9308253"><ele>99.0</ele><time>2026-04-04T14:45:55.795Z</time></trkpt><trkpt lat="43.6899901" lon="10.9308894"><ele>98.28571428571429</ele><time>2026-04-04T14:46:02.795Z</time></trkpt><trkpt lat="43.6899402" lon="10.930945"><ele>97.57142857142857</ele><time>2026-04-04T14:46:10.794Z</time></trkpt><trkpt lat="43.6898894" lon="10.9309972"><ele>96.85714285714286</ele><time>2026-04-04T14:46:17.794Z</time></trkpt><trkpt lat="43.68985" lon="10.9310673"><ele>96.14285714285714</ele><time>2026-04-04T14:46:35.777Z</time></trkpt><trkpt lat="43.6897928" lon="10.9311214"><ele>95.42857142857142</ele><time>2026-04-04T14:46:41.794Z</time></trkpt><trkpt lat="43.6897411" lon="10.9311816"><ele>94.71428571428571</ele><time>2026-04-04T14:46:48.809Z</time></trkpt><trkpt lat="43.6896846" lon="10.9312422"><ele>94.0</ele><time>2026-04-04T14:47:16.814Z</time></trkpt><trkpt lat="43.6896371" lon="10.9313017"><ele>94.0</ele><time>2026-04-04T14:47:22.794Z</time></trkpt><trkpt lat="43.6895866" lon="10.9313659"><ele>94.0</ele><time>2026-04-04T14:47:29.794Z</time></trkpt><trkpt lat="43.6895414" lon="10.9314429"><ele>94.0</ele><time>2026-04-04T14:47:37.794Z</time></trkpt><trkpt lat="43.6894891" lon="10.9314953"><ele>94.0</ele><time>2026-04-04T14:47:43.758Z</time></trkpt><trkpt lat="43.6894297" lon="10.9315519"><ele>94.0</ele><time>2026-04-04T14:47:50.794Z</time></trkpt><trkpt lat="43.6893733" lon="10.931613"><ele>94.0</ele><time>2026-04-04T14:47:57.795Z</time></trkpt><trkpt lat="43.6893178" lon="10.931655"><ele>94.0</ele><time>2026-04-04T14:48:03.795Z</time></trkpt><trkpt lat="43.689256" lon="10.9316893"><ele>94.0</ele><time>2026-04-04T14:48:09.794Z</time></trkpt><trkpt lat="43.689184" lon="10.9317181"><ele>94.0</ele><time>2026-04-04T14:48:15.702Z</time></trkpt><trkpt lat="43.689113" lon="10.9317455"><ele>94.0</ele><time>2026-04-04T14:48:22.733Z</time></trkpt><trkpt lat="43.689044" lon="10.9317662"><ele>94.0</ele><time>2026-04-04T14:48:28.794Z</time></trkpt><trkpt lat="43.6889786" lon="10.9317931"><ele>94.0</ele><time>2026-04-04T14:48:34.802Z</time></trkpt><trkpt lat="43.6889157" lon="10.9318302"><ele>94.0</ele><time>2026-04-04T14:48:40.794Z</time></trkpt><trkpt lat="43.688847" lon="10.9318509"><ele>94.0</ele><time>2026-04-04T14:48:46.795Z</time></trkpt><trkpt lat="43.688786" lon="10.9318855"><ele>93.85714285714286</ele><time>2026-04-04T14:48:52.794Z</time></trkpt><trkpt lat="43.6887193" lon="10.9319063"><ele>93.71428571428571</ele><time>2026-04-04T14:48:58.775Z</time></trkpt><trkpt lat="43.6886559" lon="10.9319349"><ele>93.57142857142858</ele><time>2026-04-04T14:49:04.794Z</time></trkpt><trkpt lat="43.68859" lon="10.9319514"><ele>93.42857142857143</ele><time>2026-04-04T14:49:10.783Z</time></trkpt><trkpt lat="43.6885254" lon="10.9319804"><ele>93.28571428571429</ele><time>2026-04-04T14:49:16.795Z</time></trkpt><trkpt lat="43.6884602" lon="10.9320162"><ele>93.14285714285715</ele><time>2026-04-04T14:49:22.707Z</time></trkpt><trkpt lat="43.6883918" lon="10.9320474"><ele>93.0</ele><time>2026-04-04T14:49:28.794Z</time></trkpt><trkpt lat="43.6883244" lon="10.9320759"><ele>94.57142857142858</ele><time>2026-04-04T14:49:34.728Z</time></trkpt><trkpt lat="43.6882578" lon="10.9321008"><ele>96.14285714285714</ele><time>2026-04-04T14:49:40.71Z</time></trkpt><trkpt lat="43.6881896" lon="10.9321284"><ele>97.71428571428572</ele><time>2026-04-04T14:49:47.794Z</time></trkpt><trkpt lat="43.6881275" lon="10.9321539"><ele>99.28571428571429</ele><time>2026-04-04T14:49:53.808Z</time></trkpt><trkpt lat="43.6880654" lon="10.932169"><ele>100.85714285714286</ele><time>2026-04-04T14:49:59.794Z</time></trkpt><trkpt lat="43.6879976" lon="10.9321891"><ele>102.42857142857143</ele><time>2026-04-04T14:50:05.795Z</time></trkpt><trkpt lat="43.687934" lon="10.9322151"><ele>104.0</ele><time>2026-04-04T14:50:11.795Z</time></trkpt><trkpt lat="43.6878635" lon="10.9322395"><ele>104.0</ele><time>2026-04-04T14:50:18.794Z</time></trkpt><trkpt lat="43.6877994" lon="10.9322601"><ele>104.0</ele><time>2026-04-04T14:50:24.794Z</time></trkpt><trkpt lat="43.6877361" lon="10.9322846"><ele>104.0</ele><time>2026-04-04T14:50:30.55Z</time></trkpt><trkpt lat="43.687671" lon="10.9323087"><ele>104.0</ele><time>2026-04-04T14:50:36.794Z</time></trkpt><trkpt lat="43.6876044" lon="10.9323413"><ele>104.0</ele><time>2026-04-04T14:50:42.795Z</time></trkpt><trkpt lat="43.6875401" lon="10.9323677"><ele>104.0</ele><time>2026-04-04T14:50:48.795Z</time></trkpt><trkpt lat="43.6874727" lon="10.9323983"><ele>104.0</ele><time>2026-04-04T14:50:54.795Z</time></trkpt><trkpt lat="43.6874039" lon="10.9324264"><ele>104.0</ele><time>2026-04-04T14:51:00.795Z</time></trkpt><trkpt lat="43.6873418" lon="10.9324473"><ele>104.0</ele><time>2026-04-04T14:51:05.795Z</time></trkpt><trkpt lat="43.6872702" lon="10.9324598"><ele>104.0</ele><time>2026-04-04T14:51:11.794Z</time></trkpt><trkpt lat="43.6871965" lon="10.9324693"><ele>104.0</ele><time>2026-04-04T14:51:17.81Z</time></trkpt><trkpt lat="43.6871266" lon="10.9324687"><ele>104.0</ele><time>2026-04-04T14:51:23.795Z</time></trkpt><trkpt lat="43.6870528" lon="10.9324676"><ele>104.0</ele><time>2026-04-04T14:51:29.794Z</time></trkpt><trkpt lat="43.6869817" lon="10.9324706"><ele>104.0</ele><time>2026-04-04T14:51:35.794Z</time></trkpt><trkpt lat="43.6869077" lon="10.932459"><ele>104.0</ele><time>2026-04-04T14:51:41.794Z</time></trkpt><trkpt lat="43.686842" lon="10.9324486"><ele>104.0</ele><time>2026-04-04T14:51:46.795Z</time></trkpt><trkpt lat="43.6867681" lon="10.9324233"><ele>104.0</ele><time>2026-04-04T14:51:52.608Z</time></trkpt><trkpt lat="43.6867083" lon="10.9323791"><ele>104.0</ele><time>2026-04-04T14:51:57.808Z</time></trkpt><trkpt lat="43.6866553" lon="10.9323226"><ele>104.0</ele><time>2026-04-04T14:52:02.794Z</time></trkpt><trkpt lat="43.6866098" lon="10.9322554"><ele>104.0</ele><time>2026-04-04T14:52:07.794Z</time></trkpt><trkpt lat="43.6865655" lon="10.9321786"><ele>104.0</ele><time>2026-04-04T14:52:13.794Z</time></trkpt><trkpt lat="43.6865142" lon="10.932114"><ele>104.0</ele><time>2026-04-04T14:52:19.794Z</time></trkpt><trkpt lat="43.6864612" lon="10.9320526"><ele>104.0</ele><time>2026-04-04T14:52:25.809Z</time></trkpt><trkpt lat="43.6864123" lon="10.9319925"><ele>104.0</ele><time>2026-04-04T14:52:31.794Z</time></trkpt><trkpt lat="43.6863605" lon="10.9319251"><ele>104.0</ele><time>2026-04-04T14:52:37.794Z</time></trkpt><trkpt lat="43.6863079" lon="10.9318552"><ele>104.0</ele><time>2026-04-04T14:52:43.794Z</time></trkpt><trkpt lat="43.6862578" lon="10.931788"><ele>104.0</ele><time>2026-04-04T14:52:49.794Z</time></trkpt><trkpt lat="43.6862061" lon="10.931725"><ele>104.0</ele><time>2026-04-04T14:52:55.794Z</time></trkpt><trkpt lat="43.6861496" lon="10.9316626"><ele>104.28571428571428</ele><time>2026-04-04T14:53:01.794Z</time></trkpt><trkpt lat="43.6860982" lon="10.9316022"><ele>104.57142857142858</ele><time>2026-04-04T14:53:07.777Z</time></trkpt><trkpt lat="43.6860503" lon="10.9315337"><ele>104.85714285714286</ele><time>2026-04-04T14:53:13.76Z</time></trkpt><trkpt lat="43.6859988" lon="10.9314665"><ele>105.14285714285714</ele><time>2026-04-04T14:53:19.794Z</time></trkpt><trkpt lat="43.6859411" lon="10.931401"><ele>105.42857142857142</ele><time>2026-04-04T14:53:25.836Z</time></trkpt><trkpt lat="43.685947" lon="10.9313004"><ele>105.71428571428572</ele><time>2026-04-04T14:53:31.794Z</time></trkpt><trkpt lat="43.6859902" lon="10.9312166"><ele>106.0</ele><time>2026-04-04T14:53:37.801Z</time></trkpt><trkpt lat="43.6860206" lon="10.9311227"><ele>106.14285714285715</ele><time>2026-04-04T14:53:43.795Z</time></trkpt><trkpt lat="43.6860426" lon="10.9310247"><ele>106.28571428571428</ele><time>2026-04-04T14:53:49.831Z</time></trkpt><trkpt lat="43.6860551" lon="10.9309283"><ele>106.42857142857143</ele><time>2026-04-04T14:53:55.795Z</time></trkpt><trkpt lat="43.6860777" lon="10.9308317"><ele>106.57142857142858</ele><time>2026-04-04T14:54:01.786Z</time></trkpt><trkpt lat="43.6860914" lon="10.9307307"><ele>106.71428571428572</ele><time>2026-04-04T14:54:07.795Z</time></trkpt><trkpt lat="43.6861059" lon="10.9306451"><ele>106.85714285714286</ele><time>2026-04-04T14:54:12.794Z</time></trkpt><trkpt lat="43.6861178" lon="10.9305555"><ele>107.0</ele><time>2026-04-04T14:54:17.831Z</time></trkpt><trkpt lat="43.6861228" lon="10.9304666"><ele>105.42857142857143</ele><time>2026-04-04T14:54:22.794Z</time></trkpt><trkpt lat="43.6861331" lon="10.9303644"><ele>103.85714285714286</ele><time>2026-04-04T14:54:28.857Z</time></trkpt><trkpt lat="43.6861392" lon="10.9302666"><ele>102.28571428571428</ele><time>2026-04-04T14:54:34.794Z</time></trkpt><trkpt lat="43.6861459" lon="10.9301706"><ele>100.71428571428572</ele><time>2026-04-04T14:54:40.794Z</time></trkpt><trkpt lat="43.6861506" lon="10.9300777"><ele>99.14285714285714</ele><time>2026-04-04T14:54:46.795Z</time></trkpt><trkpt lat="43.6861534" lon="10.9299829"><ele>97.57142857142857</ele><time>2026-04-04T14:54:52.81Z</time></trkpt><trkpt lat="43.6861547" lon="10.9298854"><ele>96.0</ele><time>2026-04-04T14:54:58.831Z</time></trkpt><trkpt lat="43.6861565" lon="10.9297789"><ele>95.42857142857142</ele><time>2026-04-04T14:55:04.777Z</time></trkpt><trkpt lat="43.6861548" lon="10.929683"><ele>94.85714285714286</ele><time>2026-04-04T14:55:10.808Z</time></trkpt><trkpt lat="43.6861463" lon="10.9295872"><ele>94.28571428571428</ele><time>2026-04-04T14:55:16.706Z</time></trkpt><trkpt lat="43.6861465" lon="10.9294866"><ele>93.71428571428571</ele><time>2026-04-04T14:55:22.794Z</time></trkpt><trkpt lat="43.68615" lon="10.9293884"><ele>93.14285714285714</ele><time>2026-04-04T14:55:28.794Z</time></trkpt><trkpt lat="43.686146" lon="10.9292862"><ele>92.57142857142857</ele><time>2026-04-04T14:55:34.794Z</time></trkpt><trkpt lat="43.6861428" lon="10.9291954"><ele>92.0</ele><time>2026-04-04T14:55:39.794Z</time></trkpt><trkpt lat="43.6861353" lon="10.929096"><ele>91.42857142857143</ele><time>2026-04-04T14:55:45.794Z</time></trkpt><trkpt lat="43.6861295" lon="10.9289918"><ele>90.85714285714285</ele><time>2026-04-04T14:55:51.795Z</time></trkpt><trkpt lat="43.6861259" lon="10.9288905"><ele>90.28571428571428</ele><time>2026-04-04T14:55:57.793Z</time></trkpt><trkpt lat="43.6861282" lon="10.9287891"><ele>89.71428571428572</ele><time>2026-04-04T14:56:03.785Z</time></trkpt><trkpt lat="43.6861319" lon="10.9286869"><ele>89.14285714285714</ele><time>2026-04-04T14:56:09.741Z</time></trkpt><trkpt lat="43.6861365" lon="10.9285905"><ele>88.57142857142857</ele><time>2026-04-04T14:56:15.83Z</time></trkpt><trkpt lat="43.6861451" lon="10.9285029"><ele>88.0</ele><time>2026-04-04T14:56:20.795Z</time></trkpt><trkpt lat="43.6861541" lon="10.9284067"><ele>88.42857142857143</ele><time>2026-04-04T14:56:26.794Z</time></trkpt><trkpt lat="43.6861694" lon="10.9283042"><ele>88.85714285714286</ele><time>2026-04-04T14:56:32.755Z</time></trkpt><trkpt lat="43.6861787" lon="10.9282026"><ele>89.28571428571428</ele><time>2026-04-04T14:56:39.794Z</time></trkpt><trkpt lat="43.6861813" lon="10.9281061"><ele>89.71428571428572</ele><time>2026-04-04T14:56:45.806Z</time></trkpt><trkpt lat="43.6861768" lon="10.9280031"><ele>90.14285714285714</ele><time>2026-04-04T14:56:51.795Z</time></trkpt><trkpt lat="43.6861654" lon="10.927917"><ele>90.57142857142857</ele><time>2026-04-04T14:56:56.832Z</time></trkpt><trkpt lat="43.686146" lon="10.9278157"><ele>91.0</ele><time>2026-04-04T14:57:03.476Z</time></trkpt><trkpt lat="43.686119" lon="10.9277212"><ele>91.57142857142857</ele><time>2026-04-04T14:57:09.798Z</time></trkpt><trkpt lat="43.6860858" lon="10.9276382"><ele>92.14285714285714</ele><time>2026-04-04T14:57:15.788Z</time></trkpt><trkpt lat="43.6860587" lon="10.9275578"><ele>92.71428571428572</ele><time>2026-04-04T14:57:20.817Z</time></trkpt><trkpt lat="43.6860284" lon="10.9274653"><ele>93.28571428571428</ele><time>2026-04-04T14:57:26.797Z</time></trkpt><trkpt lat="43.6859957" lon="10.9273758"><ele>93.85714285714286</ele><time>2026-04-04T14:57:32.797Z</time></trkpt><trkpt lat="43.6859649" lon="10.9272972"><ele>94.42857142857143</ele><time>2026-04-04T14:57:38.797Z</time></trkpt><trkpt lat="43.6859204" lon="10.9272135"><ele>95.0</ele><time>2026-04-04T14:57:44.798Z</time></trkpt><trkpt lat="43.6858816" lon="10.9271445"><ele>95.0</ele><time>2026-04-04T14:57:50.797Z</time></trkpt><trkpt lat="43.6858387" lon="10.9270694"><ele>95.0</ele><time>2026-04-04T14:57:56.797Z</time></trkpt><trkpt lat="43.6858064" lon="10.9269941"><ele>95.0</ele><time>2026-04-04T14:58:01.797Z</time></trkpt><trkpt lat="43.6857714" lon="10.9269006"><ele>95.0</ele><time>2026-04-04T14:58:07.798Z</time></trkpt><trkpt lat="43.6857537" lon="10.9268169"><ele>95.0</ele><time>2026-04-04T14:58:12.797Z</time></trkpt><trkpt lat="43.6857434" lon="10.926719"><ele>95.0</ele><time>2026-04-04T14:58:18.798Z</time></trkpt><trkpt lat="43.6857352" lon="10.9266169"><ele>95.0</ele><time>2026-04-04T14:58:24.797Z</time></trkpt><trkpt lat="43.6857259" lon="10.9265195"><ele>95.42857142857143</ele><time>2026-04-04T14:58:30.767Z</time></trkpt><trkpt lat="43.6857196" lon="10.9264258"><ele>95.85714285714286</ele><time>2026-04-04T14:58:36.797Z</time></trkpt><trkpt lat="43.6857064" lon="10.9263275"><ele>96.28571428571428</ele><time>2026-04-04T14:58:42.797Z</time></trkpt><trkpt lat="43.6856925" lon="10.9262334"><ele>96.71428571428572</ele><time>2026-04-04T14:58:48.804Z</time></trkpt><trkpt lat="43.6856708" lon="10.926146"><ele>97.14285714285714</ele><time>2026-04-04T14:58:54.797Z</time></trkpt><trkpt lat="43.6856639" lon="10.9260531"><ele>97.57142857142857</ele><time>2026-04-04T14:59:00.797Z</time></trkpt><trkpt lat="43.6856633" lon="10.9259642"><ele>98.0</ele><time>2026-04-04T14:59:05.797Z</time></trkpt><trkpt lat="43.6856749" lon="10.9258635"><ele>98.0</ele><time>2026-04-04T14:59:11.826Z</time></trkpt><trkpt lat="43.6856995" lon="10.9257799"><ele>98.0</ele><time>2026-04-04T14:59:16.797Z</time></trkpt><trkpt lat="43.6857365" lon="10.9256907"><ele>98.0</ele><time>2026-04-04T14:59:22.815Z</time></trkpt><trkpt lat="43.685779" lon="10.9256039"><ele>98.0</ele><time>2026-04-04T14:59:28.797Z</time></trkpt><trkpt lat="43.6858038" lon="10.9255121"><ele>98.0</ele><time>2026-04-04T14:59:34.797Z</time></trkpt><trkpt lat="43.6858028" lon="10.9254127"><ele>98.0</ele><time>2026-04-04T14:59:40.797Z</time></trkpt><trkpt lat="43.6857627" lon="10.925334"><ele>98.0</ele><time>2026-04-04T14:59:46.798Z</time></trkpt><trkpt lat="43.685707" lon="10.9252925"><ele>98.0</ele><time>2026-04-04T14:59:51.761Z</time></trkpt><trkpt lat="43.685647" lon="10.9252555"><ele>98.0</ele><time>2026-04-04T14:59:56.797Z</time></trkpt><trkpt lat="43.6855814" lon="10.9252067"><ele>98.0</ele><time>2026-04-04T15:00:02.797Z</time></trkpt><trkpt lat="43.6855316" lon="10.9251301"><ele>98.0</ele><time>2026-04-04T15:00:08.798Z</time></trkpt><trkpt lat="43.6855002" lon="10.9250522"><ele>98.0</ele><time>2026-04-04T15:00:13.797Z</time></trkpt><trkpt lat="43.6854671" lon="10.9249775"><ele>98.0</ele><time>2026-04-04T15:00:18.798Z</time></trkpt><trkpt lat="43.6854318" lon="10.9248858"><ele>98.0</ele><time>2026-04-04T15:00:24.797Z</time></trkpt><trkpt lat="43.6854011" lon="10.9247908"><ele>97.57142857142857</ele><time>2026-04-04T15:00:30.797Z</time></trkpt><trkpt lat="43.6853735" lon="10.9247064"><ele>97.14285714285714</ele><time>2026-04-04T15:00:35.797Z</time></trkpt><trkpt lat="43.6853536" lon="10.9246186"><ele>96.71428571428572</ele><time>2026-04-04T15:00:40.797Z</time></trkpt><trkpt lat="43.6853225" lon="10.9245423"><ele>96.28571428571428</ele><time>2026-04-04T15:00:45.712Z</time></trkpt><trkpt lat="43.6852814" lon="10.9244709"><ele>95.85714285714286</ele><time>2026-04-04T15:00:50.797Z</time></trkpt><trkpt lat="43.6852638" lon="10.9243853"><ele>95.42857142857143</ele><time>2026-04-04T15:00:56.797Z</time></trkpt><trkpt lat="43.6852509" lon="10.9242926"><ele>95.0</ele><time>2026-04-04T15:01:02.797Z</time></trkpt><trkpt lat="43.6852517" lon="10.9242018"><ele>94.14285714285714</ele><time>2026-04-04T15:01:08.798Z</time></trkpt><trkpt lat="43.685253" lon="10.9241057"><ele>93.28571428571429</ele><time>2026-04-04T15:01:14.818Z</time></trkpt><trkpt lat="43.6852606" lon="10.924011"><ele>92.42857142857142</ele><time>2026-04-04T15:01:20.797Z</time></trkpt><trkpt lat="43.6852604" lon="10.9239103"><ele>91.57142857142857</ele><time>2026-04-04T15:01:26.797Z</time></trkpt><trkpt lat="43.6852558" lon="10.923812"><ele>90.71428571428571</ele><time>2026-04-04T15:01:32.797Z</time></trkpt><trkpt lat="43.6852559" lon="10.9237112"><ele>89.85714285714285</ele><time>2026-04-04T15:01:38.797Z</time></trkpt><trkpt lat="43.6852638" lon="10.9236089"><ele>89.0</ele><time>2026-04-04T15:01:44.797Z</time></trkpt><trkpt lat="43.685279" lon="10.9235225"><ele>88.99999999999999</ele><time>2026-04-04T15:01:50.797Z</time></trkpt><trkpt lat="43.685301" lon="10.9234331"><ele>89.0</ele><time>2026-04-04T15:01:56.797Z</time></trkpt><trkpt lat="43.6853273" lon="10.9233501"><ele>89.0</ele><time>2026-04-04T15:02:02.797Z</time></trkpt><trkpt lat="43.6853942" lon="10.9233878"><ele>89.0</ele><time>2026-04-04T15:02:08.797Z</time></trkpt><trkpt lat="43.6853615" lon="10.9233047"><ele>89.0</ele><time>2026-04-04T15:02:18.797Z</time></trkpt><trkpt lat="43.6853149" lon="10.9233691"><ele>88.99999999999999</ele><time>2026-04-04T15:03:02.797Z</time></trkpt><trkpt lat="43.6853007" lon="10.9232708"><ele>89.0</ele><time>2026-04-04T15:03:09.797Z</time></trkpt><trkpt lat="43.685329" lon="10.923179"><ele>88.66666666666667</ele><time>2026-04-04T15:03:15.811Z</time></trkpt><trkpt lat="43.6853907" lon="10.9231528"><ele>88.33333333333334</ele><time>2026-04-04T15:03:20.797Z</time></trkpt><trkpt lat="43.685462" lon="10.9231487"><ele>88.0</ele><time>2026-04-04T15:03:25.797Z</time></trkpt><trkpt lat="43.6855114" lon="10.923086"><ele>87.66666666666667</ele><time>2026-04-04T15:03:30.797Z</time></trkpt><trkpt lat="43.6855626" lon="10.9230181"><ele>87.33333333333333</ele><time>2026-04-04T15:03:35.797Z</time></trkpt><trkpt lat="43.6856061" lon="10.9229507"><ele>87.0</ele><time>2026-04-04T15:03:40.738Z</time></trkpt><trkpt lat="43.6854982" lon="10.9227856"><ele>87.0</ele><time>2026-04-04T15:03:41.797Z</time></trkpt><trkpt lat="43.6854612" lon="10.9226891"><ele>87.0</ele><time>2026-04-04T15:03:45.797Z</time></trkpt><trkpt lat="43.6854273" lon="10.9225969"><ele>87.0</ele><time>2026-04-04T15:03:50.805Z</time></trkpt><trkpt lat="43.6853887" lon="10.9225152"><ele>87.0</ele><time>2026-04-04T15:03:55.812Z</time></trkpt><trkpt lat="43.6853464" lon="10.9224334"><ele>87.0</ele><time>2026-04-04T15:04:01.797Z</time></trkpt><trkpt lat="43.6853108" lon="10.9223576"><ele>87.0</ele><time>2026-04-04T15:04:07.81Z</time></trkpt><trkpt lat="43.6852882" lon="10.9222695"><ele>87.0</ele><time>2026-04-04T15:04:14.797Z</time></trkpt><trkpt lat="43.6852642" lon="10.922183"><ele>86.42857142857143</ele><time>2026-04-04T15:04:20.81Z</time></trkpt><trkpt lat="43.6852332" lon="10.9220979"><ele>85.85714285714286</ele><time>2026-04-04T15:04:26.797Z</time></trkpt><trkpt lat="43.6851737" lon="10.9220355"><ele>85.28571428571428</ele><time>2026-04-04T15:04:32.807Z</time></trkpt><trkpt lat="43.6851173" lon="10.9219733"><ele>84.71428571428572</ele><time>2026-04-04T15:04:38.798Z</time></trkpt><trkpt lat="43.6850614" lon="10.9219158"><ele>84.14285714285715</ele><time>2026-04-04T15:04:44.797Z</time></trkpt><trkpt lat="43.6850149" lon="10.9218549"><ele>83.57142857142857</ele><time>2026-04-04T15:04:49.798Z</time></trkpt><trkpt lat="43.6849658" lon="10.921783"><ele>83.0</ele><time>2026-04-04T15:04:55.797Z</time></trkpt><trkpt lat="43.6849273" lon="10.9217075"><ele>82.57142857142857</ele><time>2026-04-04T15:05:01.809Z</time></trkpt><trkpt lat="43.6849006" lon="10.9216253"><ele>82.14285714285715</ele><time>2026-04-04T15:05:07.797Z</time></trkpt><trkpt lat="43.6848889" lon="10.9215348"><ele>81.71428571428572</ele><time>2026-04-04T15:05:13.807Z</time></trkpt><trkpt lat="43.6849028" lon="10.921439"><ele>81.28571428571428</ele><time>2026-04-04T15:05:20.798Z</time></trkpt><trkpt lat="43.6849379" lon="10.9213662"><ele>80.85714285714286</ele><time>2026-04-04T15:05:26.797Z</time></trkpt><trkpt lat="43.6849738" lon="10.921279"><ele>80.42857142857143</ele><time>2026-04-04T15:05:33.827Z</time></trkpt><trkpt lat="43.6850177" lon="10.921199"><ele>80.0</ele><time>2026-04-04T15:05:41.807Z</time></trkpt><trkpt lat="43.6850576" lon="10.9211266"><ele>80.0</ele><time>2026-04-04T15:05:48.797Z</time></trkpt><trkpt lat="43.6850887" lon="10.9210463"><ele>80.0</ele><time>2026-04-04T15:05:54.806Z</time></trkpt><trkpt lat="43.6851111" lon="10.920953"><ele>80.0</ele><time>2026-04-04T15:06:01.797Z</time></trkpt><trkpt lat="43.685101" lon="10.9208488"><ele>80.0</ele><time>2026-04-04T15:06:07.797Z</time></trkpt><trkpt lat="43.6850891" lon="10.9207366"><ele>80.0</ele><time>2026-04-04T15:06:12.801Z</time></trkpt><trkpt lat="43.6850769" lon="10.9206338"><ele>80.0</ele><time>2026-04-04T15:06:17.797Z</time></trkpt><trkpt lat="43.6850593" lon="10.9205389"><ele>80.0</ele><time>2026-04-04T15:06:22.807Z</time></trkpt><trkpt lat="43.6850311" lon="10.9204421"><ele>78.85714285714286</ele><time>2026-04-04T15:06:28.813Z</time></trkpt><trkpt lat="43.6850028" lon="10.9203537"><ele>77.71428571428572</ele><time>2026-04-04T15:06:33.75Z</time></trkpt><trkpt lat="43.6849751" lon="10.9202598"><ele>76.57142857142858</ele><time>2026-04-04T15:06:39.797Z</time></trkpt><trkpt lat="43.6849446" lon="10.920183"><ele>75.42857142857143</ele><time>2026-04-04T15:06:44.799Z</time></trkpt><trkpt lat="43.6849183" lon="10.920101"><ele>74.28571428571429</ele><time>2026-04-04T15:06:49.805Z</time></trkpt><trkpt lat="43.6848909" lon="10.9200126"><ele>73.14285714285715</ele><time>2026-04-04T15:06:54.814Z</time></trkpt><trkpt lat="43.6848648" lon="10.9199272"><ele>72.0</ele><time>2026-04-04T15:06:59.797Z</time></trkpt><trkpt lat="43.6848313" lon="10.9198482"><ele>70.14285714285715</ele><time>2026-04-04T15:07:04.808Z</time></trkpt><trkpt lat="43.6848" lon="10.9197586"><ele>68.28571428571429</ele><time>2026-04-04T15:07:09.798Z</time></trkpt><trkpt lat="43.6847695" lon="10.9196769"><ele>66.42857142857143</ele><time>2026-04-04T15:07:14.797Z</time></trkpt><trkpt lat="43.6847386" lon="10.9195974"><ele>64.57142857142858</ele><time>2026-04-04T15:07:19.778Z</time></trkpt><trkpt lat="43.6847088" lon="10.9195101"><ele>62.71428571428572</ele><time>2026-04-04T15:07:25.797Z</time></trkpt><trkpt lat="43.6846799" lon="10.919432"><ele>60.857142857142854</ele><time>2026-04-04T15:07:30.806Z</time></trkpt><trkpt lat="43.6846429" lon="10.9193454"><ele>59.0</ele><time>2026-04-04T15:07:36.796Z</time></trkpt><trkpt lat="43.6846163" lon="10.9192501"><ele>58.285714285714285</ele><time>2026-04-04T15:07:42.795Z</time></trkpt><trkpt lat="43.6845848" lon="10.9191664"><ele>57.57142857142858</ele><time>2026-04-04T15:07:48.795Z</time></trkpt><trkpt lat="43.6845479" lon="10.9190907"><ele>56.85714285714286</ele><time>2026-04-04T15:07:54.801Z</time></trkpt><trkpt lat="43.6845198" lon="10.9190117"><ele>56.14285714285714</ele><time>2026-04-04T15:08:00.795Z</time></trkpt><trkpt lat="43.6844896" lon="10.9189244"><ele>55.42857142857143</ele><time>2026-04-04T15:08:05.722Z</time></trkpt><trkpt lat="43.6844631" lon="10.9188336"><ele>54.714285714285715</ele><time>2026-04-04T15:08:10.796Z</time></trkpt><trkpt lat="43.6844318" lon="10.91874"><ele>54.0</ele><time>2026-04-04T15:08:16.796Z</time></trkpt><trkpt lat="43.6844018" lon="10.9186517"><ele>52.42857142857143</ele><time>2026-04-04T15:08:21.8Z</time></trkpt><trkpt lat="43.6843765" lon="10.9185689"><ele>50.857142857142854</ele><time>2026-04-04T15:08:26.795Z</time></trkpt><trkpt lat="43.6844165" lon="10.9184965"><ele>49.28571428571429</ele><time>2026-04-04T15:08:40.795Z</time></trkpt><trkpt lat="43.6843785" lon="10.918405"><ele>47.714285714285715</ele><time>2026-04-04T15:08:44.796Z</time></trkpt><trkpt lat="43.6843533" lon="10.9183185"><ele>46.142857142857146</ele><time>2026-04-04T15:08:49.801Z</time></trkpt><trkpt lat="43.6843039" lon="10.9182486"><ele>44.57142857142858</ele><time>2026-04-04T15:08:55.795Z</time></trkpt><trkpt lat="43.6842696" lon="10.9181669"><ele>43.0</ele><time>2026-04-04T15:09:01.776Z</time></trkpt><trkpt lat="43.6842363" lon="10.9180899"><ele>42.28571428571429</ele><time>2026-04-04T15:09:07.814Z</time></trkpt><trkpt lat="43.6842031" lon="10.9180004"><ele>41.57142857142857</ele><time>2026-04-04T15:09:13.704Z</time></trkpt><trkpt lat="43.6841596" lon="10.9179335"><ele>40.85714285714286</ele><time>2026-04-04T15:09:18.701Z</time></trkpt><trkpt lat="43.6841378" lon="10.9178423"><ele>40.142857142857146</ele><time>2026-04-04T15:09:24.799Z</time></trkpt><trkpt lat="43.6840979" lon="10.9177559"><ele>39.42857142857143</ele><time>2026-04-04T15:09:30.801Z</time></trkpt><trkpt lat="43.684064" lon="10.9176666"><ele>38.714285714285715</ele><time>2026-04-04T15:09:36.795Z</time></trkpt><trkpt lat="43.6840313" lon="10.9175864"><ele>38.0</ele><time>2026-04-04T15:09:42.799Z</time></trkpt><trkpt lat="43.6840012" lon="10.9175067"><ele>36.0</ele><time>2026-04-04T15:09:48.795Z</time></trkpt><trkpt lat="43.6839675" lon="10.9174246"><ele>34.0</ele><time>2026-04-04T15:09:54.795Z</time></trkpt><trkpt lat="43.682861" lon="10.9173057"><ele>33.99999999999999</ele><time>2026-04-04T15:12:49.231Z</time></trkpt><trkpt lat="43.6828135" lon="10.9173678"><ele>34.0</ele><time>2026-04-04T15:12:54.799Z</time></trkpt><trkpt lat="43.6827615" lon="10.917428"><ele>34.0</ele><time>2026-04-04T15:13:00.799Z</time></trkpt><trkpt lat="43.682724" lon="10.9175036"><ele>34.0</ele><time>2026-04-04T15:13:06.801Z</time></trkpt><trkpt lat="43.6826775" lon="10.9175826"><ele>34.0</ele><time>2026-04-04T15:13:13.8Z</time></trkpt><trkpt lat="43.6826303" lon="10.9176501"><ele>33.99999999999999</ele><time>2026-04-04T15:13:19.789Z</time></trkpt><trkpt lat="43.682593" lon="10.9177224"><ele>34.0</ele><time>2026-04-04T15:13:25.799Z</time></trkpt><trkpt lat="43.6825545" lon="10.9177947"><ele>34.14285714285714</ele><time>2026-04-04T15:13:31.729Z</time></trkpt><trkpt lat="43.6825014" lon="10.9178623"><ele>34.285714285714285</ele><time>2026-04-04T15:13:38.838Z</time></trkpt><trkpt lat="43.6824506" lon="10.917935"><ele>34.42857142857143</ele><time>2026-04-04T15:13:45.799Z</time></trkpt><trkpt lat="43.6823897" lon="10.9179958"><ele>34.57142857142857</ele><time>2026-04-04T15:13:53.799Z</time></trkpt><trkpt lat="43.6823435" lon="10.9180598"><ele>34.714285714285715</ele><time>2026-04-04T15:13:59.806Z</time></trkpt><trkpt lat="43.6822947" lon="10.9181156"><ele>34.857142857142854</ele><time>2026-04-04T15:14:05.799Z</time></trkpt><trkpt lat="43.6822264" lon="10.9181634"><ele>35.0</ele><time>2026-04-04T15:14:11.803Z</time></trkpt><trkpt lat="43.6821615" lon="10.9182056"><ele>35.0</ele><time>2026-04-04T15:14:18.799Z</time></trkpt><trkpt lat="43.6821119" lon="10.9182801"><ele>35.0</ele><time>2026-04-04T15:14:24.799Z</time></trkpt><trkpt lat="43.6820473" lon="10.9182842"><ele>35.0</ele><time>2026-04-04T15:14:33.821Z</time></trkpt><trkpt lat="43.6819857" lon="10.9183179"><ele>35.0</ele><time>2026-04-04T15:14:39.799Z</time></trkpt><trkpt lat="43.6819276" lon="10.9183803"><ele>35.0</ele><time>2026-04-04T15:14:45.902Z</time></trkpt><trkpt lat="43.6818731" lon="10.9184357"><ele>35.0</ele><time>2026-04-04T15:14:51.785Z</time></trkpt><trkpt lat="43.6818159" lon="10.9184955"><ele>35.0</ele><time>2026-04-04T15:14:57.734Z</time></trkpt><trkpt lat="43.6817675" lon="10.918552"><ele>34.857142857142854</ele><time>2026-04-04T15:15:03.8Z</time></trkpt><trkpt lat="43.6817132" lon="10.9185985"><ele>34.714285714285715</ele><time>2026-04-04T15:15:09.799Z</time></trkpt><trkpt lat="43.681653" lon="10.9186547"><ele>34.57142857142857</ele><time>2026-04-04T15:15:15.799Z</time></trkpt><trkpt lat="43.6816034" lon="10.9187281"><ele>34.42857142857143</ele><time>2026-04-04T15:15:21.719Z</time></trkpt><trkpt lat="43.6815602" lon="10.9188036"><ele>34.285714285714285</ele><time>2026-04-04T15:15:27.8Z</time></trkpt><trkpt lat="43.6815186" lon="10.9188918"><ele>34.14285714285714</ele><time>2026-04-04T15:15:33.8Z</time></trkpt><trkpt lat="43.6814793" lon="10.9189613"><ele>34.0</ele><time>2026-04-04T15:15:39.799Z</time></trkpt><trkpt lat="43.6814334" lon="10.9190328"><ele>33.99999999999999</ele><time>2026-04-04T15:15:45.765Z</time></trkpt><trkpt lat="43.6813832" lon="10.9190954"><ele>34.0</ele><time>2026-04-04T15:15:51.799Z</time></trkpt><trkpt lat="43.6813287" lon="10.9191437"><ele>34.0</ele><time>2026-04-04T15:15:57.879Z</time></trkpt><trkpt lat="43.6812616" lon="10.9191808"><ele>34.0</ele><time>2026-04-04T15:16:03.8Z</time></trkpt><trkpt lat="43.6811959" lon="10.9192077"><ele>34.0</ele><time>2026-04-04T15:16:09.752Z</time></trkpt><trkpt lat="43.6811351" lon="10.9192385"><ele>33.99999999999999</ele><time>2026-04-04T15:16:14.894Z</time></trkpt><trkpt lat="43.6810612" lon="10.9192709"><ele>34.0</ele><time>2026-04-04T15:16:20.736Z</time></trkpt><trkpt lat="43.6809917" lon="10.9192952"><ele>33.99999999999999</ele><time>2026-04-04T15:16:27.085Z</time></trkpt><trkpt lat="43.6809279" lon="10.9193106"><ele>34.0</ele><time>2026-04-04T15:16:32.632Z</time></trkpt><trkpt lat="43.6808559" lon="10.9193338"><ele>34.0</ele><time>2026-04-04T15:16:38.772Z</time></trkpt><trkpt lat="43.680789" lon="10.919349"><ele>34.0</ele><time>2026-04-04T15:16:43.8Z</time></trkpt><trkpt lat="43.6807217" lon="10.9193593"><ele>34.0</ele><time>2026-04-04T15:16:49.788Z</time></trkpt><trkpt lat="43.6806535" lon="10.9193719"><ele>33.99999999999999</ele><time>2026-04-04T15:16:55.819Z</time></trkpt><trkpt lat="43.6805902" lon="10.9193947"><ele>34.0</ele><time>2026-04-04T15:17:01.799Z</time></trkpt><trkpt lat="43.6805234" lon="10.9194114"><ele>33.99999999999999</ele><time>2026-04-04T15:17:07.735Z</time></trkpt><trkpt lat="43.6804542" lon="10.9194309"><ele>34.0</ele><time>2026-04-04T15:17:13.799Z</time></trkpt><trkpt lat="43.6803878" lon="10.9194476"><ele>34.0</ele><time>2026-04-04T15:17:19.799Z</time></trkpt><trkpt lat="43.6803214" lon="10.919455"><ele>34.0</ele><time>2026-04-04T15:17:25.799Z</time></trkpt><trkpt lat="43.6802516" lon="10.9194587"><ele>34.0</ele><time>2026-04-04T15:17:31.852Z</time></trkpt><trkpt lat="43.6801886" lon="10.9194642"><ele>33.99999999999999</ele><time>2026-04-04T15:17:37.568Z</time></trkpt><trkpt lat="43.6801246" lon="10.9194777"><ele>34.0</ele><time>2026-04-04T15:17:43.356Z</time></trkpt><trkpt lat="43.6800618" lon="10.9194868"><ele>34.285714285714285</ele><time>2026-04-04T15:17:48.838Z</time></trkpt><trkpt lat="43.6799966" lon="10.9194863"><ele>34.57142857142857</ele><time>2026-04-04T15:17:53.872Z</time></trkpt><trkpt lat="43.6799318" lon="10.919488"><ele>34.85714285714286</ele><time>2026-04-04T15:17:59.8Z</time></trkpt><trkpt lat="43.6798632" lon="10.9194976"><ele>35.14285714285714</ele><time>2026-04-04T15:18:05.811Z</time></trkpt><trkpt lat="43.6797926" lon="10.919496"><ele>35.42857142857143</ele><time>2026-04-04T15:18:11.799Z</time></trkpt><trkpt lat="43.6797243" lon="10.9195142"><ele>35.714285714285715</ele><time>2026-04-04T15:18:17.746Z</time></trkpt><trkpt lat="43.6796644" lon="10.9195537"><ele>36.0</ele><time>2026-04-04T15:18:23.745Z</time></trkpt><trkpt lat="43.6796027" lon="10.9195839"><ele>36.00000000000001</ele><time>2026-04-04T15:18:29.773Z</time></trkpt><trkpt lat="43.6795693" lon="10.9194888"><ele>36.0</ele><time>2026-04-04T15:18:37.799Z</time></trkpt><trkpt lat="43.6795296" lon="10.9194128"><ele>36.0</ele><time>2026-04-04T15:18:42.875Z</time></trkpt><trkpt lat="43.6794817" lon="10.9193255"><ele>36.0</ele><time>2026-04-04T15:18:48.86Z</time></trkpt><trkpt lat="43.6794362" lon="10.9192555"><ele>36.0</ele><time>2026-04-04T15:18:54.799Z</time></trkpt><trkpt lat="43.6793896" lon="10.9191769"><ele>36.00000000000001</ele><time>2026-04-04T15:19:00.817Z</time></trkpt><trkpt lat="43.679348" lon="10.9191107"><ele>36.0</ele><time>2026-04-04T15:19:05.909Z</time></trkpt><trkpt lat="43.6792976" lon="10.9190394"><ele>35.85714285714286</ele><time>2026-04-04T15:19:11.846Z</time></trkpt><trkpt lat="43.679251" lon="10.9189612"><ele>35.714285714285715</ele><time>2026-04-04T15:19:17.793Z</time></trkpt><trkpt lat="43.6792056" lon="10.9188881"><ele>35.57142857142857</ele><time>2026-04-04T15:19:26.687Z</time></trkpt><trkpt lat="43.6791622" lon="10.9188181"><ele>35.42857142857143</ele><time>2026-04-04T15:19:30.802Z</time></trkpt><trkpt lat="43.6791131" lon="10.9187591"><ele>35.285714285714285</ele><time>2026-04-04T15:19:35.802Z</time></trkpt><trkpt lat="43.6790523" lon="10.9187217"><ele>35.142857142857146</ele><time>2026-04-04T15:19:41.809Z</time></trkpt><trkpt lat="43.6789898" lon="10.9186773"><ele>35.0</ele><time>2026-04-04T15:19:54.808Z</time></trkpt><trkpt lat="43.6789718" lon="10.9185874"><ele>35.0</ele><time>2026-04-04T15:19:59.801Z</time></trkpt><trkpt lat="43.6789255" lon="10.9185205"><ele>35.0</ele><time>2026-04-04T15:20:05.801Z</time></trkpt><trkpt lat="43.6788778" lon="10.9184544"><ele>35.0</ele><time>2026-04-04T15:20:11.814Z</time></trkpt><trkpt lat="43.6788237" lon="10.9183964"><ele>35.0</ele><time>2026-04-04T15:20:17.801Z</time></trkpt><trkpt lat="43.6787764" lon="10.9183373"><ele>35.0</ele><time>2026-04-04T15:20:23.802Z</time></trkpt><trkpt lat="43.6788155" lon="10.918421"><ele>35.0</ele><time>2026-04-04T15:20:53.802Z</time></trkpt><trkpt lat="43.6788649" lon="10.9184751"><ele>35.0</ele><time>2026-04-04T15:20:57.801Z</time></trkpt><trkpt lat="43.678912" lon="10.9185448"><ele>35.0</ele><time>2026-04-04T15:21:03.801Z</time></trkpt><trkpt lat="43.6789601" lon="10.9186244"><ele>35.0</ele><time>2026-04-04T15:21:09.803Z</time></trkpt><trkpt lat="43.6790115" lon="10.9186859"><ele>35.0</ele><time>2026-04-04T15:21:14.809Z</time></trkpt><trkpt lat="43.6790659" lon="10.9187441"><ele>35.0</ele><time>2026-04-04T15:21:20.807Z</time></trkpt><trkpt lat="43.6791137" lon="10.9188099"><ele>35.0</ele><time>2026-04-04T15:21:26.801Z</time></trkpt><trkpt lat="43.6791602" lon="10.9188749"><ele>35.0</ele><time>2026-04-04T15:21:32.801Z</time></trkpt><trkpt lat="43.6792117" lon="10.9189465"><ele>35.0</ele><time>2026-04-04T15:21:38.801Z</time></trkpt><trkpt lat="43.679256" lon="10.9190119"><ele>35.0</ele><time>2026-04-04T15:21:43.818Z</time></trkpt><trkpt lat="43.6793023" lon="10.9190909"><ele>35.0</ele><time>2026-04-04T15:21:49.801Z</time></trkpt><trkpt lat="43.6793461" lon="10.9191563"><ele>35.0</ele><time>2026-04-04T15:21:54.808Z</time></trkpt><trkpt lat="43.6793993" lon="10.9192273"><ele>35.0</ele><time>2026-04-04T15:22:00.802Z</time></trkpt><trkpt lat="43.6794505" lon="10.919302"><ele>35.0</ele><time>2026-04-04T15:22:06.801Z</time></trkpt><trkpt lat="43.6794923" lon="10.9193681"><ele>35.0</ele><time>2026-04-04T15:22:11.801Z</time></trkpt><trkpt lat="43.6795427" lon="10.9194346"><ele>35.0</ele><time>2026-04-04T15:22:16.801Z</time></trkpt><trkpt lat="43.6795906" lon="10.9195086"><ele>35.0</ele><time>2026-04-04T15:22:23.396Z</time></trkpt><trkpt lat="43.6796012" lon="10.9196051"><ele>35.0</ele><time>2026-04-04T15:22:29.627Z</time></trkpt><trkpt lat="43.6795477" lon="10.9196733"><ele>35.0</ele><time>2026-04-04T15:22:34.801Z</time></trkpt><trkpt lat="43.6794948" lon="10.9197472"><ele>35.0</ele><time>2026-04-04T15:22:40.801Z</time></trkpt><trkpt lat="43.6794493" lon="10.9198242"><ele>35.0</ele><time>2026-04-04T15:22:46.802Z</time></trkpt><trkpt lat="43.679406" lon="10.9199051"><ele>35.0</ele><time>2026-04-04T15:22:52.801Z</time></trkpt><trkpt lat="43.6793674" lon="10.9199984"><ele>35.0</ele><time>2026-04-04T15:22:59Z</time></trkpt><trkpt lat="43.6793292" lon="10.9200697"><ele>35.42857142857143</ele><time>2026-04-04T15:23:04.466Z</time></trkpt><trkpt lat="43.6792836" lon="10.9201482"><ele>35.85714285714286</ele><time>2026-04-04T15:23:10.758Z</time></trkpt><trkpt lat="43.6792376" lon="10.920223"><ele>36.285714285714285</ele><time>2026-04-04T15:23:16.801Z</time></trkpt><trkpt lat="43.6791981" lon="10.920308"><ele>36.714285714285715</ele><time>2026-04-04T15:23:23.204Z</time></trkpt><trkpt lat="43.6791653" lon="10.9203892"><ele>37.142857142857146</ele><time>2026-04-04T15:23:28.801Z</time></trkpt><trkpt lat="43.6791211" lon="10.9204656"><ele>37.57142857142857</ele><time>2026-04-04T15:23:34.801Z</time></trkpt><trkpt lat="43.6790768" lon="10.9205405"><ele>38.0</ele><time>2026-04-04T15:23:40.802Z</time></trkpt><trkpt lat="43.6790313" lon="10.9206092"><ele>38.0</ele><time>2026-04-04T15:23:46.801Z</time></trkpt><trkpt lat="43.6789869" lon="10.92068"><ele>38.0</ele><time>2026-04-04T15:23:52.908Z</time></trkpt><trkpt lat="43.6789502" lon="10.9207592"><ele>38.0</ele><time>2026-04-04T15:23:58.919Z</time></trkpt><trkpt lat="43.6789148" lon="10.9208513"><ele>38.0</ele><time>2026-04-04T15:24:05.801Z</time></trkpt><trkpt lat="43.6788785" lon="10.9209274"><ele>38.0</ele><time>2026-04-04T15:24:11.899Z</time></trkpt><trkpt lat="43.678846" lon="10.9210113"><ele>38.0</ele><time>2026-04-04T15:24:18.802Z</time></trkpt><trkpt lat="43.6788229" lon="10.9211024"><ele>38.0</ele><time>2026-04-04T15:24:25.801Z</time></trkpt><trkpt lat="43.6787752" lon="10.9211778"><ele>38.57142857142857</ele><time>2026-04-04T15:24:32.764Z</time></trkpt><trkpt lat="43.6787056" lon="10.9211973"><ele>39.142857142857146</ele><time>2026-04-04T15:24:38.53Z</time></trkpt><trkpt lat="43.6786385" lon="10.9212282"><ele>39.714285714285715</ele><time>2026-04-04T15:24:44.801Z</time></trkpt><trkpt lat="43.6785803" lon="10.9212869"><ele>40.285714285714285</ele><time>2026-04-04T15:24:50.747Z</time></trkpt><trkpt lat="43.678525" lon="10.9213525"><ele>40.85714285714286</ele><time>2026-04-04T15:24:56.801Z</time></trkpt><trkpt lat="43.6784693" lon="10.9214166"><ele>41.42857142857143</ele><time>2026-04-04T15:25:02.744Z</time></trkpt><trkpt lat="43.6784315" lon="10.9214884"><ele>42.0</ele><time>2026-04-04T15:25:07.801Z</time></trkpt><trkpt lat="43.6784033" lon="10.9215734"><ele>42.0</ele><time>2026-04-04T15:25:13.801Z</time></trkpt><trkpt lat="43.6783686" lon="10.9216551"><ele>42.0</ele><time>2026-04-04T15:25:19.801Z</time></trkpt><trkpt lat="43.6783407" lon="10.9217349"><ele>42.0</ele><time>2026-04-04T15:25:24.801Z</time></trkpt><trkpt lat="43.6783222" lon="10.9218208"><ele>42.0</ele><time>2026-04-04T15:25:30.834Z</time></trkpt><trkpt lat="43.6782806" lon="10.9218964"><ele>42.0</ele><time>2026-04-04T15:25:36.802Z</time></trkpt><trkpt lat="43.6782429" lon="10.9219775"><ele>42.0</ele><time>2026-04-04T15:25:42.802Z</time></trkpt><trkpt lat="43.6782003" lon="10.922057"><ele>42.0</ele><time>2026-04-04T15:25:48.822Z</time></trkpt><trkpt lat="43.678172" lon="10.9221458"><ele>42.57142857142857</ele><time>2026-04-04T15:25:53.802Z</time></trkpt><trkpt lat="43.6781413" lon="10.9222252"><ele>43.14285714285714</ele><time>2026-04-04T15:25:58.793Z</time></trkpt><trkpt lat="43.6781026" lon="10.92231"><ele>43.714285714285715</ele><time>2026-04-04T15:26:04.793Z</time></trkpt><trkpt lat="43.6780689" lon="10.9223972"><ele>44.285714285714285</ele><time>2026-04-04T15:26:10.801Z</time></trkpt><trkpt lat="43.6780324" lon="10.9224703"><ele>44.857142857142854</ele><time>2026-04-04T15:26:15.778Z</time></trkpt><trkpt lat="43.677995" lon="10.9225534"><ele>45.42857142857143</ele><time>2026-04-04T15:26:21.802Z</time></trkpt><trkpt lat="43.6779604" lon="10.9226358"><ele>46.0</ele><time>2026-04-04T15:26:27.802Z</time></trkpt><trkpt lat="43.6779241" lon="10.9227214"><ele>46.285714285714285</ele><time>2026-04-04T15:26:33.801Z</time></trkpt><trkpt lat="43.6778848" lon="10.922805"><ele>46.57142857142857</ele><time>2026-04-04T15:26:39.801Z</time></trkpt><trkpt lat="43.6778549" lon="10.9228971"><ele>46.857142857142854</ele><time>2026-04-04T15:26:45.801Z</time></trkpt><trkpt lat="43.6778285" lon="10.9229839"><ele>47.14285714285714</ele><time>2026-04-04T15:26:51.801Z</time></trkpt><trkpt lat="43.677801" lon="10.9230789"><ele>47.42857142857143</ele><time>2026-04-04T15:26:58.779Z</time></trkpt><trkpt lat="43.6777792" lon="10.9231681"><ele>47.71428571428571</ele><time>2026-04-04T15:27:03.816Z</time></trkpt><trkpt lat="43.6777656" lon="10.9232611"><ele>48.0</ele><time>2026-04-04T15:27:09.891Z</time></trkpt><trkpt lat="43.6777438" lon="10.9233611"><ele>47.14285714285714</ele><time>2026-04-04T15:27:16.837Z</time></trkpt><trkpt lat="43.677734" lon="10.9234591"><ele>46.285714285714285</ele><time>2026-04-04T15:27:22.724Z</time></trkpt><trkpt lat="43.677727" lon="10.9235535"><ele>45.42857142857143</ele><time>2026-04-04T15:27:28.801Z</time></trkpt><trkpt lat="43.6777136" lon="10.9236501"><ele>44.57142857142857</ele><time>2026-04-04T15:27:34.881Z</time></trkpt><trkpt lat="43.6776956" lon="10.9237388"><ele>43.714285714285715</ele><time>2026-04-04T15:27:40.816Z</time></trkpt><trkpt lat="43.6776861" lon="10.9238275"><ele>42.857142857142854</ele><time>2026-04-04T15:27:46.487Z</time></trkpt><trkpt lat="43.6776756" lon="10.9239147"><ele>42.0</ele><time>2026-04-04T15:27:51.745Z</time></trkpt><trkpt lat="43.6776497" lon="10.9239976"><ele>42.0</ele><time>2026-04-04T15:27:56.801Z</time></trkpt><trkpt lat="43.6776288" lon="10.9240845"><ele>42.0</ele><time>2026-04-04T15:28:01.821Z</time></trkpt><trkpt lat="43.6776041" lon="10.9241711"><ele>42.0</ele><time>2026-04-04T15:28:06.879Z</time></trkpt><trkpt lat="43.6775847" lon="10.9242604"><ele>42.0</ele><time>2026-04-04T15:28:11.878Z</time></trkpt><trkpt lat="43.6775638" lon="10.9243553"><ele>42.0</ele><time>2026-04-04T15:28:17.762Z</time></trkpt><trkpt lat="43.6775468" lon="10.9244545"><ele>42.0</ele><time>2026-04-04T15:28:23.258Z</time></trkpt><trkpt lat="43.677534" lon="10.9245484"><ele>42.0</ele><time>2026-04-04T15:28:28.886Z</time></trkpt><trkpt lat="43.6775151" lon="10.9246433"><ele>42.0</ele><time>2026-04-04T15:28:34.818Z</time></trkpt><trkpt lat="43.677495" lon="10.924738"><ele>42.0</ele><time>2026-04-04T15:28:40.801Z</time></trkpt><trkpt lat="43.6774844" lon="10.9248401"><ele>42.0</ele><time>2026-04-04T15:28:46.801Z</time></trkpt><trkpt lat="43.6774743" lon="10.9249365"><ele>42.0</ele><time>2026-04-04T15:28:52.781Z</time></trkpt><trkpt lat="43.6774597" lon="10.9250316"><ele>42.0</ele><time>2026-04-04T15:28:58.799Z</time></trkpt><trkpt lat="43.677439" lon="10.9251322"><ele>42.0</ele><time>2026-04-04T15:29:04.802Z</time></trkpt><trkpt lat="43.677419" lon="10.9252212"><ele>42.0</ele><time>2026-04-04T15:29:10.802Z</time></trkpt><trkpt lat="43.6774029" lon="10.9253109"><ele>42.0</ele><time>2026-04-04T15:29:16.801Z</time></trkpt><trkpt lat="43.6773883" lon="10.9254034"><ele>42.0</ele><time>2026-04-04T15:29:21.801Z</time></trkpt><trkpt lat="43.6773718" lon="10.9255032"><ele>42.0</ele><time>2026-04-04T15:29:27.709Z</time></trkpt><trkpt lat="43.6773528" lon="10.9255894"><ele>42.0</ele><time>2026-04-04T15:29:33.73Z</time></trkpt><trkpt lat="43.6773297" lon="10.9256834"><ele>42.0</ele><time>2026-04-04T15:29:39.801Z</time></trkpt><trkpt lat="43.6773184" lon="10.9257715"><ele>42.0</ele><time>2026-04-04T15:29:48.796Z</time></trkpt><trkpt lat="43.6772822" lon="10.9258497"><ele>42.0</ele><time>2026-04-04T15:29:54.801Z</time></trkpt><trkpt lat="43.6772391" lon="10.9259338"><ele>41.857142857142854</ele><time>2026-04-04T15:30:00.819Z</time></trkpt><trkpt lat="43.6772014" lon="10.9260072"><ele>41.714285714285715</ele><time>2026-04-04T15:30:05.825Z</time></trkpt><trkpt lat="43.6771639" lon="10.9260924"><ele>41.57142857142857</ele><time>2026-04-04T15:30:11.796Z</time></trkpt><trkpt lat="43.677124" lon="10.9261834"><ele>41.42857142857143</ele><time>2026-04-04T15:30:17.796Z</time></trkpt><trkpt lat="43.6770836" lon="10.9262634"><ele>41.285714285714285</ele><time>2026-04-04T15:30:23.812Z</time></trkpt><trkpt lat="43.6770492" lon="10.9263424"><ele>41.14285714285714</ele><time>2026-04-04T15:30:28.797Z</time></trkpt><trkpt lat="43.6770038" lon="10.9264192"><ele>41.0</ele><time>2026-04-04T15:30:34.772Z</time></trkpt><trkpt lat="43.6769603" lon="10.9264829"><ele>40.71428571428571</ele><time>2026-04-04T15:30:40.374Z</time></trkpt><trkpt lat="43.6769291" lon="10.926563"><ele>40.42857142857143</ele><time>2026-04-04T15:30:45.796Z</time></trkpt><trkpt lat="43.6768905" lon="10.9266427"><ele>40.14285714285714</ele><time>2026-04-04T15:30:51.812Z</time></trkpt><trkpt lat="43.6768483" lon="10.9267252"><ele>39.857142857142854</ele><time>2026-04-04T15:30:57.796Z</time></trkpt><trkpt lat="43.676802" lon="10.9268015"><ele>39.57142857142857</ele><time>2026-04-04T15:31:03.809Z</time></trkpt><trkpt lat="43.6767492" lon="10.926867"><ele>39.285714285714285</ele><time>2026-04-04T15:31:09.797Z</time></trkpt><trkpt lat="43.6767002" lon="10.9269355"><ele>39.0</ele><time>2026-04-04T15:31:15.796Z</time></trkpt><trkpt lat="43.676656" lon="10.9270061"><ele>39.0</ele><time>2026-04-04T15:31:21.796Z</time></trkpt><trkpt lat="43.676607" lon="10.9270758"><ele>39.0</ele><time>2026-04-04T15:31:27.888Z</time></trkpt><trkpt lat="43.6765558" lon="10.9271424"><ele>39.0</ele><time>2026-04-04T15:31:33.889Z</time></trkpt><trkpt lat="43.6765161" lon="10.9272152"><ele>39.0</ele><time>2026-04-04T15:31:39.796Z</time></trkpt><trkpt lat="43.6764659" lon="10.9272864"><ele>39.0</ele><time>2026-04-04T15:31:45.747Z</time></trkpt><trkpt lat="43.6764233" lon="10.9273645"><ele>39.0</ele><time>2026-04-04T15:31:51.806Z</time></trkpt><trkpt lat="43.6763762" lon="10.9274409"><ele>39.0</ele><time>2026-04-04T15:31:57.814Z</time></trkpt><trkpt lat="43.6763296" lon="10.9275138"><ele>39.0</ele><time>2026-04-04T15:32:03.796Z</time></trkpt><trkpt lat="43.6762837" lon="10.9275888"><ele>39.0</ele><time>2026-04-04T15:32:09.796Z</time></trkpt><trkpt lat="43.67624" lon="10.9276596"><ele>39.0</ele><time>2026-04-04T15:32:15.796Z</time></trkpt><trkpt lat="43.6761895" lon="10.9277287"><ele>39.0</ele><time>2026-04-04T15:32:21.745Z</time></trkpt><trkpt lat="43.6761417" lon="10.9277956"><ele>39.0</ele><time>2026-04-04T15:32:27.797Z</time></trkpt><trkpt lat="43.6760903" lon="10.9278589"><ele>39.0</ele><time>2026-04-04T15:32:33.797Z</time></trkpt><trkpt lat="43.6760384" lon="10.9279275"><ele>39.0</ele><time>2026-04-04T15:32:39.833Z</time></trkpt><trkpt lat="43.6759776" lon="10.9279847"><ele>39.0</ele><time>2026-04-04T15:32:45.801Z</time></trkpt><trkpt lat="43.6759224" lon="10.928043"><ele>39.0</ele><time>2026-04-04T15:32:51.839Z</time></trkpt><trkpt lat="43.6758717" lon="10.9281043"><ele>39.0</ele><time>2026-04-04T15:32:57.818Z</time></trkpt><trkpt lat="43.6758168" lon="10.9281619"><ele>39.0</ele><time>2026-04-04T15:33:03.754Z</time></trkpt><trkpt lat="43.6757562" lon="10.9282102"><ele>39.0</ele><time>2026-04-04T15:33:09.815Z</time></trkpt><trkpt lat="43.6756921" lon="10.9282451"><ele>39.0</ele><time>2026-04-04T15:33:15.797Z</time></trkpt><trkpt lat="43.6756238" lon="10.9282828"><ele>39.0</ele><time>2026-04-04T15:33:21.812Z</time></trkpt><trkpt lat="43.6755606" lon="10.9283232"><ele>39.0</ele><time>2026-04-04T15:33:27.796Z</time></trkpt><trkpt lat="43.6754962" lon="10.9283685"><ele>39.0</ele><time>2026-04-04T15:33:33.808Z</time></trkpt><trkpt lat="43.6754343" lon="10.9284174"><ele>39.0</ele><time>2026-04-04T15:33:40.829Z</time></trkpt><trkpt lat="43.6753757" lon="10.9284542"><ele>39.0</ele><time>2026-04-04T15:33:45.93Z</time></trkpt><trkpt lat="43.6753147" lon="10.9285045"><ele>39.0</ele><time>2026-04-04T15:33:51.881Z</time></trkpt><trkpt lat="43.6752536" lon="10.9285598"><ele>39.0</ele><time>2026-04-04T15:33:57.797Z</time></trkpt><trkpt lat="43.6752015" lon="10.9286174"><ele>39.0</ele><time>2026-04-04T15:34:03.8Z</time></trkpt><trkpt lat="43.6751579" lon="10.9286889"><ele>39.42857142857143</ele><time>2026-04-04T15:34:09.835Z</time></trkpt><trkpt lat="43.675118" lon="10.9287755"><ele>39.857142857142854</ele><time>2026-04-04T15:34:15.796Z</time></trkpt><trkpt lat="43.6750737" lon="10.9288511"><ele>40.285714285714285</ele><time>2026-04-04T15:34:21.796Z</time></trkpt><trkpt lat="43.6750354" lon="10.9289327"><ele>40.714285714285715</ele><time>2026-04-04T15:34:27.814Z</time></trkpt><trkpt lat="43.6749844" lon="10.929001"><ele>41.14285714285714</ele><time>2026-04-04T15:34:33.862Z</time></trkpt><trkpt lat="43.6749245" lon="10.92906"><ele>41.57142857142857</ele><time>2026-04-04T15:34:39.81Z</time></trkpt><trkpt lat="43.6748693" lon="10.9291072"><ele>42.0</ele><time>2026-04-04T15:34:44.826Z</time></trkpt><trkpt lat="43.6748103" lon="10.9291441"><ele>42.0</ele><time>2026-04-04T15:34:50.796Z</time></trkpt><trkpt lat="43.6747408" lon="10.9292017"><ele>42.0</ele><time>2026-04-04T15:34:57.796Z</time></trkpt><trkpt lat="43.6746807" lon="10.9292523"><ele>42.0</ele><time>2026-04-04T15:35:03.797Z</time></trkpt><trkpt lat="43.6746197" lon="10.9293006"><ele>42.0</ele><time>2026-04-04T15:35:09.796Z</time></trkpt><trkpt lat="43.6745588" lon="10.9293519"><ele>42.0</ele><time>2026-04-04T15:35:15.796Z</time></trkpt><trkpt lat="43.6744947" lon="10.9293964"><ele>42.0</ele><time>2026-04-04T15:35:21.796Z</time></trkpt><trkpt lat="43.6744316" lon="10.9294449"><ele>42.0</ele><time>2026-04-04T15:35:27.796Z</time></trkpt><trkpt lat="43.6743724" lon="10.9294874"><ele>42.0</ele><time>2026-04-04T15:35:33.797Z</time></trkpt><trkpt lat="43.6743044" lon="10.9295371"><ele>42.0</ele><time>2026-04-04T15:35:39.71Z</time></trkpt><trkpt lat="43.6742393" lon="10.9295816"><ele>42.0</ele><time>2026-04-04T15:35:45.81Z</time></trkpt><trkpt lat="43.6741811" lon="10.9296354"><ele>42.0</ele><time>2026-04-04T15:35:51.796Z</time></trkpt><trkpt lat="43.6741268" lon="10.9296883"><ele>42.0</ele><time>2026-04-04T15:35:57.809Z</time></trkpt><trkpt lat="43.6740616" lon="10.9297179"><ele>42.0</ele><time>2026-04-04T15:36:03.796Z</time></trkpt><trkpt lat="43.674" lon="10.9297711"><ele>42.0</ele><time>2026-04-04T15:36:09.734Z</time></trkpt><trkpt lat="43.6739379" lon="10.929814"><ele>42.0</ele><time>2026-04-04T15:36:15.796Z</time></trkpt><trkpt lat="43.6738672" lon="10.9298473"><ele>42.0</ele><time>2026-04-04T15:36:21.917Z</time></trkpt><trkpt lat="43.6738045" lon="10.9298551"><ele>42.0</ele><time>2026-04-04T15:36:27.797Z</time></trkpt><trkpt lat="43.6737388" lon="10.929883"><ele>42.0</ele><time>2026-04-04T15:36:33.796Z</time></trkpt><trkpt lat="43.6736677" lon="10.9299042"><ele>42.0</ele><time>2026-04-04T15:36:39.814Z</time></trkpt><trkpt lat="43.6736041" lon="10.9299133"><ele>42.0</ele><time>2026-04-04T15:36:44.855Z</time></trkpt><trkpt lat="43.6735312" lon="10.9299159"><ele>42.0</ele><time>2026-04-04T15:36:50.823Z</time></trkpt><trkpt lat="43.6734563" lon="10.9299255"><ele>41.857142857142854</ele><time>2026-04-04T15:36:56.796Z</time></trkpt><trkpt lat="43.6733835" lon="10.9299355"><ele>41.714285714285715</ele><time>2026-04-04T15:37:02.797Z</time></trkpt><trkpt lat="43.6733163" lon="10.9299259"><ele>41.57142857142857</ele><time>2026-04-04T15:37:08.796Z</time></trkpt><trkpt lat="43.6732499" lon="10.9299109"><ele>41.42857142857143</ele><time>2026-04-04T15:37:14.796Z</time></trkpt><trkpt lat="43.6731798" lon="10.9299177"><ele>41.285714285714285</ele><time>2026-04-04T15:37:20.796Z</time></trkpt><trkpt lat="43.673111" lon="10.9299141"><ele>41.14285714285714</ele><time>2026-04-04T15:37:26.796Z</time></trkpt><trkpt lat="43.6730443" lon="10.9298987"><ele>41.0</ele><time>2026-04-04T15:37:32.796Z</time></trkpt><trkpt lat="43.6729793" lon="10.9298928"><ele>40.99999999999999</ele><time>2026-04-04T15:37:38.797Z</time></trkpt><trkpt lat="43.6729111" lon="10.9298832"><ele>41.0</ele><time>2026-04-04T15:37:44.797Z</time></trkpt><trkpt lat="43.672843" lon="10.9298745"><ele>41.0</ele><time>2026-04-04T15:37:50.797Z</time></trkpt><trkpt lat="43.672771" lon="10.9298621"><ele>41.0</ele><time>2026-04-04T15:37:57.796Z</time></trkpt><trkpt lat="43.6726971" lon="10.9298436"><ele>41.0</ele><time>2026-04-04T15:38:04.797Z</time></trkpt><trkpt lat="43.6726311" lon="10.9298419"><ele>40.99999999999999</ele><time>2026-04-04T15:38:10.814Z</time></trkpt><trkpt lat="43.6725588" lon="10.9298286"><ele>41.0</ele><time>2026-04-04T15:38:17.76Z</time></trkpt><trkpt lat="43.6724931" lon="10.9298211"><ele>40.71428571428571</ele><time>2026-04-04T15:38:23.811Z</time></trkpt><trkpt lat="43.6724197" lon="10.929828"><ele>40.42857142857143</ele><time>2026-04-04T15:38:30.797Z</time></trkpt><trkpt lat="43.6723548" lon="10.9298522"><ele>40.14285714285714</ele><time>2026-04-04T15:38:36.809Z</time></trkpt><trkpt lat="43.672289" lon="10.9298815"><ele>39.857142857142854</ele><time>2026-04-04T15:38:42.725Z</time></trkpt><trkpt lat="43.6722314" lon="10.9299312"><ele>39.57142857142857</ele><time>2026-04-04T15:38:48.806Z</time></trkpt><trkpt lat="43.6721636" lon="10.9299629"><ele>39.285714285714285</ele><time>2026-04-04T15:38:54.797Z</time></trkpt><trkpt lat="43.672095" lon="10.9299903"><ele>39.0</ele><time>2026-04-04T15:39:00.803Z</time></trkpt><trkpt lat="43.6720361" lon="10.9300225"><ele>39.285714285714285</ele><time>2026-04-04T15:39:05.811Z</time></trkpt><trkpt lat="43.6719745" lon="10.9300763"><ele>39.57142857142857</ele><time>2026-04-04T15:39:11.843Z</time></trkpt><trkpt lat="43.6719088" lon="10.9301294"><ele>39.857142857142854</ele><time>2026-04-04T15:39:17.796Z</time></trkpt><trkpt lat="43.6718492" lon="10.9301782"><ele>40.14285714285714</ele><time>2026-04-04T15:39:23.816Z</time></trkpt><trkpt lat="43.6717896" lon="10.9302216"><ele>40.42857142857143</ele><time>2026-04-04T15:39:29.731Z</time></trkpt><trkpt lat="43.6717261" lon="10.9302649"><ele>40.71428571428571</ele><time>2026-04-04T15:39:35.812Z</time></trkpt><trkpt lat="43.6716631" lon="10.9303107"><ele>41.0</ele><time>2026-04-04T15:39:41.796Z</time></trkpt><trkpt lat="43.6715973" lon="10.9303441"><ele>41.285714285714285</ele><time>2026-04-04T15:39:47.796Z</time></trkpt><trkpt lat="43.6715386" lon="10.9303756"><ele>41.57142857142857</ele><time>2026-04-04T15:39:52.814Z</time></trkpt><trkpt lat="43.6714779" lon="10.9304143"><ele>41.85714285714286</ele><time>2026-04-04T15:39:58.891Z</time></trkpt><trkpt lat="43.6714138" lon="10.9304333"><ele>42.14285714285714</ele><time>2026-04-04T15:40:04.812Z</time></trkpt><trkpt lat="43.6713412" lon="10.930455"><ele>42.42857142857143</ele><time>2026-04-04T15:40:11.797Z</time></trkpt><trkpt lat="43.6712692" lon="10.9304601"><ele>42.714285714285715</ele><time>2026-04-04T15:40:17.718Z</time></trkpt><trkpt lat="43.6712001" lon="10.930473"><ele>43.0</ele><time>2026-04-04T15:40:23.929Z</time></trkpt><trkpt lat="43.6711328" lon="10.9304664"><ele>42.714285714285715</ele><time>2026-04-04T15:40:30.802Z</time></trkpt><trkpt lat="43.6710705" lon="10.9304213"><ele>42.42857142857143</ele><time>2026-04-04T15:40:37.016Z</time></trkpt><trkpt lat="43.6710336" lon="10.9303504"><ele>42.14285714285714</ele><time>2026-04-04T15:40:41.803Z</time></trkpt><trkpt lat="43.6710185" lon="10.9302617"><ele>41.85714285714286</ele><time>2026-04-04T15:40:46.811Z</time></trkpt><trkpt lat="43.6710145" lon="10.9301722"><ele>41.57142857142857</ele><time>2026-04-04T15:40:51.814Z</time></trkpt><trkpt lat="43.6710159" lon="10.9300722"><ele>41.285714285714285</ele><time>2026-04-04T15:40:57.806Z</time></trkpt><trkpt lat="43.671015" lon="10.9299812"><ele>41.0</ele><time>2026-04-04T15:41:02.803Z</time></trkpt><trkpt lat="43.671006" lon="10.9298808"><ele>40.99999999999999</ele><time>2026-04-04T15:41:08.81Z</time></trkpt><trkpt lat="43.6709679" lon="10.9297937"><ele>41.0</ele><time>2026-04-04T15:41:14.803Z</time></trkpt><trkpt lat="43.6709141" lon="10.9297451"><ele>41.0</ele><time>2026-04-04T15:41:19.802Z</time></trkpt><trkpt lat="43.6708426" lon="10.9297148"><ele>41.0</ele><time>2026-04-04T15:41:25.803Z</time></trkpt><trkpt lat="43.6707796" lon="10.9297044"><ele>41.0</ele><time>2026-04-04T15:41:30.883Z</time></trkpt><trkpt lat="43.6707139" lon="10.929725"><ele>40.99999999999999</ele><time>2026-04-04T15:41:36.647Z</time></trkpt><trkpt lat="43.6706491" lon="10.9297236"><ele>41.0</ele><time>2026-04-04T15:41:41.817Z</time></trkpt><trkpt lat="43.6705799" lon="10.9297338"><ele>40.99999999999999</ele><time>2026-04-04T15:41:47.804Z</time></trkpt><trkpt lat="43.6705097" lon="10.9297452"><ele>41.0</ele><time>2026-04-04T15:41:53.813Z</time></trkpt><trkpt lat="43.6704397" lon="10.9297633"><ele>41.0</ele><time>2026-04-04T15:41:59.802Z</time></trkpt><trkpt lat="43.6703677" lon="10.9297555"><ele>41.0</ele><time>2026-04-04T15:42:06.802Z</time></trkpt><trkpt lat="43.6703004" lon="10.9297659"><ele>41.0</ele><time>2026-04-04T15:42:12.803Z</time></trkpt><trkpt lat="43.670229" lon="10.9297775"><ele>40.99999999999999</ele><time>2026-04-04T15:42:18.802Z</time></trkpt><trkpt lat="43.6701505" lon="10.9297768"><ele>41.0</ele><time>2026-04-04T15:42:24.911Z</time></trkpt><trkpt lat="43.6700802" lon="10.9297683"><ele>40.857142857142854</ele><time>2026-04-04T15:42:30.739Z</time></trkpt><trkpt lat="43.6700214" lon="10.9298121"><ele>40.714285714285715</ele><time>2026-04-04T15:42:36.812Z</time></trkpt><trkpt lat="43.6699502" lon="10.929839"><ele>40.57142857142857</ele><time>2026-04-04T15:42:42.798Z</time></trkpt><trkpt lat="43.6698868" lon="10.9298496"><ele>40.42857142857143</ele><time>2026-04-04T15:42:47.802Z</time></trkpt><trkpt lat="43.6698175" lon="10.9298597"><ele>40.285714285714285</ele><time>2026-04-04T15:42:53.916Z</time></trkpt><trkpt lat="43.6697529" lon="10.9298693"><ele>40.14285714285714</ele><time>2026-04-04T15:42:59.82Z</time></trkpt><trkpt lat="43.6696923" lon="10.9298992"><ele>40.0</ele><time>2026-04-04T15:43:04.803Z</time></trkpt><trkpt lat="43.66963" lon="10.9299413"><ele>40.0</ele><time>2026-04-04T15:43:10.809Z</time></trkpt><trkpt lat="43.6695676" lon="10.9299927"><ele>40.0</ele><time>2026-04-04T15:43:16.806Z</time></trkpt><trkpt lat="43.6695283" lon="10.9300778"><ele>40.0</ele><time>2026-04-04T15:43:22.802Z</time></trkpt><trkpt lat="43.6695554" lon="10.930178"><ele>40.0</ele><time>2026-04-04T15:43:30.817Z</time></trkpt><trkpt lat="43.6695443" lon="10.9302641"><ele>40.0</ele><time>2026-04-04T15:43:35.802Z</time></trkpt><trkpt lat="43.6695303" lon="10.9303539"><ele>40.0</ele><time>2026-04-04T15:43:41.812Z</time></trkpt><trkpt lat="43.6695529" lon="10.9304488"><ele>40.0</ele><time>2026-04-04T15:43:48.802Z</time></trkpt><trkpt lat="43.6695669" lon="10.9305427"><ele>40.857142857142854</ele><time>2026-04-04T15:43:54.802Z</time></trkpt><trkpt lat="43.6695829" lon="10.9306421"><ele>41.714285714285715</ele><time>2026-04-04T15:44:01.802Z</time></trkpt><trkpt lat="43.6695904" lon="10.9307321"><ele>42.57142857142857</ele><time>2026-04-04T15:44:06.934Z</time></trkpt><trkpt lat="43.6695954" lon="10.9308201"><ele>43.42857142857143</ele><time>2026-04-04T15:44:12.825Z</time></trkpt><trkpt lat="43.6696061" lon="10.9309168"><ele>44.285714285714285</ele><time>2026-04-04T15:44:18.833Z</time></trkpt><trkpt lat="43.6696203" lon="10.9310052"><ele>45.142857142857146</ele><time>2026-04-04T15:44:24.639Z</time></trkpt><trkpt lat="43.6696437" lon="10.9310892"><ele>46.0</ele><time>2026-04-04T15:44:30.802Z</time></trkpt><trkpt lat="43.6696727" lon="10.9311783"><ele>46.714285714285715</ele><time>2026-04-04T15:44:36.714Z</time></trkpt><trkpt lat="43.6697049" lon="10.9312656"><ele>47.42857142857142</ele><time>2026-04-04T15:44:42.816Z</time></trkpt><trkpt lat="43.669742" lon="10.9313397"><ele>48.14285714285714</ele><time>2026-04-04T15:44:48.802Z</time></trkpt><trkpt lat="43.6697854" lon="10.9314086"><ele>48.85714285714286</ele><time>2026-04-04T15:44:54.814Z</time></trkpt><trkpt lat="43.6698268" lon="10.9314814"><ele>49.57142857142857</ele><time>2026-04-04T15:45:00.802Z</time></trkpt><trkpt lat="43.6698716" lon="10.9315442"><ele>50.285714285714285</ele><time>2026-04-04T15:45:06.809Z</time></trkpt><trkpt lat="43.6699143" lon="10.9316163"><ele>51.0</ele><time>2026-04-04T15:45:12.879Z</time></trkpt><trkpt lat="43.6699514" lon="10.9317001"><ele>51.714285714285715</ele><time>2026-04-04T15:45:19.802Z</time></trkpt><trkpt lat="43.6699857" lon="10.9317865"><ele>52.42857142857143</ele><time>2026-04-04T15:45:25.816Z</time></trkpt><trkpt lat="43.6700091" lon="10.9318816"><ele>53.14285714285714</ele><time>2026-04-04T15:45:32.806Z</time></trkpt><trkpt lat="43.6700242" lon="10.9319722"><ele>53.85714285714286</ele><time>2026-04-04T15:45:38.802Z</time></trkpt><trkpt lat="43.6700398" lon="10.9320629"><ele>54.57142857142857</ele><time>2026-04-04T15:45:44.79Z</time></trkpt><trkpt lat="43.6700507" lon="10.9321562"><ele>55.285714285714285</ele><time>2026-04-04T15:45:50.82Z</time></trkpt><trkpt lat="43.6700651" lon="10.9322451"><ele>56.0</ele><time>2026-04-04T15:45:56.808Z</time></trkpt><trkpt lat="43.6700891" lon="10.9323386"><ele>56.0</ele><time>2026-04-04T15:46:03.757Z</time></trkpt><trkpt lat="43.6701116" lon="10.9324218"><ele>56.0</ele><time>2026-04-04T15:46:09.802Z</time></trkpt><trkpt lat="43.6701433" lon="10.9325055"><ele>56.0</ele><time>2026-04-04T15:46:15.815Z</time></trkpt><trkpt lat="43.6701858" lon="10.9325848"><ele>56.0</ele><time>2026-04-04T15:46:22.802Z</time></trkpt><trkpt lat="43.6702309" lon="10.932647"><ele>56.0</ele><time>2026-04-04T15:46:28.888Z</time></trkpt><trkpt lat="43.6702863" lon="10.9326957"><ele>56.0</ele><time>2026-04-04T15:46:35.872Z</time></trkpt><trkpt lat="43.6703414" lon="10.9327404"><ele>56.0</ele><time>2026-04-04T15:46:41.802Z</time></trkpt><trkpt lat="43.6703965" lon="10.9328068"><ele>58.57142857142857</ele><time>2026-04-04T15:46:48.81Z</time></trkpt><trkpt lat="43.6704245" lon="10.9328863"><ele>61.14285714285714</ele><time>2026-04-04T15:46:54.803Z</time></trkpt><trkpt lat="43.6704397" lon="10.932976"><ele>63.714285714285715</ele><time>2026-04-04T15:47:00.807Z</time></trkpt><trkpt lat="43.6704474" lon="10.9330639"><ele>66.28571428571428</ele><time>2026-04-04T15:47:06.802Z</time></trkpt><trkpt lat="43.6704649" lon="10.9331613"><ele>68.85714285714286</ele><time>2026-04-04T15:47:13.956Z</time></trkpt><trkpt lat="43.6705" lon="10.9332459"><ele>71.42857142857143</ele><time>2026-04-04T15:47:20.815Z</time></trkpt><trkpt lat="43.6705299" lon="10.9333373"><ele>74.0</ele><time>2026-04-04T15:47:27.804Z</time></trkpt><trkpt lat="43.67056" lon="10.933415"><ele>74.14285714285714</ele><time>2026-04-04T15:47:33.802Z</time></trkpt><trkpt lat="43.6705952" lon="10.9335036"><ele>74.28571428571428</ele><time>2026-04-04T15:47:40.803Z</time></trkpt><trkpt lat="43.6706274" lon="10.9335872"><ele>74.42857142857142</ele><time>2026-04-04T15:47:46.811Z</time></trkpt><trkpt lat="43.6706732" lon="10.9336651"><ele>74.57142857142857</ele><time>2026-04-04T15:47:53.818Z</time></trkpt><trkpt lat="43.6707121" lon="10.9337416"><ele>74.71428571428571</ele><time>2026-04-04T15:48:00.811Z</time></trkpt><trkpt lat="43.6707663" lon="10.9338048"><ele>74.85714285714285</ele><time>2026-04-04T15:48:10.802Z</time></trkpt><trkpt lat="43.6708035" lon="10.9338894"><ele>75.0</ele><time>2026-04-04T15:48:16.833Z</time></trkpt><trkpt lat="43.6708411" lon="10.9339744"><ele>74.99999999999999</ele><time>2026-04-04T15:48:22.821Z</time></trkpt><trkpt lat="43.6708806" lon="10.9340426"><ele>75.0</ele><time>2026-04-04T15:48:27.802Z</time></trkpt><trkpt lat="43.6709214" lon="10.9341148"><ele>75.0</ele><time>2026-04-04T15:48:33.894Z</time></trkpt><trkpt lat="43.6709659" lon="10.9341848"><ele>75.0</ele><time>2026-04-04T15:48:39.911Z</time></trkpt><trkpt lat="43.6710002" lon="10.9342724"><ele>75.0</ele><time>2026-04-04T15:48:45.789Z</time></trkpt><trkpt lat="43.6710646" lon="10.934296"><ele>74.99999999999999</ele><time>2026-04-04T15:48:51.803Z</time></trkpt><trkpt lat="43.6711016" lon="10.9343831"><ele>75.0</ele><time>2026-04-04T15:48:57.802Z</time></trkpt><trkpt lat="43.6711468" lon="10.9344564"><ele>74.71428571428571</ele><time>2026-04-04T15:49:02.803Z</time></trkpt><trkpt lat="43.6711918" lon="10.9345256"><ele>74.42857142857143</ele><time>2026-04-04T15:49:07.73Z</time></trkpt><trkpt lat="43.6712379" lon="10.9345882"><ele>74.14285714285714</ele><time>2026-04-04T15:49:12.81Z</time></trkpt><trkpt lat="43.6712634" lon="10.9346719"><ele>73.85714285714286</ele><time>2026-04-04T15:49:17.783Z</time></trkpt><trkpt lat="43.6712966" lon="10.9347475"><ele>73.57142857142857</ele><time>2026-04-04T15:49:22.803Z</time></trkpt><trkpt lat="43.6713418" lon="10.9348094"><ele>73.28571428571428</ele><time>2026-04-04T15:49:27.81Z</time></trkpt><trkpt lat="43.6714038" lon="10.9348673"><ele>73.0</ele><time>2026-04-04T15:49:33.802Z</time></trkpt><trkpt lat="43.6714648" lon="10.9349113"><ele>73.0</ele><time>2026-04-04T15:49:39.802Z</time></trkpt><trkpt lat="43.6715163" lon="10.9349793"><ele>73.0</ele><time>2026-04-04T15:49:45.785Z</time></trkpt><trkpt lat="43.6715787" lon="10.9350278"><ele>73.0</ele><time>2026-04-04T15:49:51.804Z</time></trkpt><trkpt lat="43.6716372" lon="10.935061"><ele>73.0</ele><time>2026-04-04T15:49:56.81Z</time></trkpt><trkpt lat="43.6717034" lon="10.9351012"><ele>73.0</ele><time>2026-04-04T15:50:02.802Z</time></trkpt><trkpt lat="43.6717615" lon="10.9351384"><ele>73.0</ele><time>2026-04-04T15:50:07.802Z</time></trkpt><trkpt lat="43.6718226" lon="10.9351729"><ele>73.0</ele><time>2026-04-04T15:50:12.801Z</time></trkpt><trkpt lat="43.67188" lon="10.9352209"><ele>72.85714285714286</ele><time>2026-04-04T15:50:18.802Z</time></trkpt><trkpt lat="43.671941" lon="10.9352447"><ele>72.71428571428572</ele><time>2026-04-04T15:50:24.375Z</time></trkpt><trkpt lat="43.6720098" lon="10.935269"><ele>72.57142857142858</ele><time>2026-04-04T15:50:33.56Z</time></trkpt><trkpt lat="43.6720663" lon="10.935311"><ele>72.42857142857143</ele><time>2026-04-04T15:50:36.735Z</time></trkpt><trkpt lat="43.6721264" lon="10.9353752"><ele>72.28571428571429</ele><time>2026-04-04T15:50:41.813Z</time></trkpt><trkpt lat="43.6721753" lon="10.9354313"><ele>72.14285714285715</ele><time>2026-04-04T15:50:46.798Z</time></trkpt><trkpt lat="43.6722277" lon="10.9354854"><ele>72.0</ele><time>2026-04-04T15:50:51.798Z</time></trkpt><trkpt lat="43.6722775" lon="10.935549"><ele>72.00000000000001</ele><time>2026-04-04T15:50:56.813Z</time></trkpt><trkpt lat="43.6723314" lon="10.9356051"><ele>72.0</ele><time>2026-04-04T15:51:01.798Z</time></trkpt><trkpt lat="43.6723848" lon="10.9356549"><ele>72.0</ele><time>2026-04-04T15:51:07.275Z</time></trkpt><trkpt lat="43.67244" lon="10.9357097"><ele>72.0</ele><time>2026-04-04T15:51:12.532Z</time></trkpt><trkpt lat="43.6724893" lon="10.9357666"><ele>72.0</ele><time>2026-04-04T15:51:17.798Z</time></trkpt><trkpt lat="43.6725424" lon="10.935834"><ele>72.00000000000001</ele><time>2026-04-04T15:51:23.81Z</time></trkpt><trkpt lat="43.6725909" lon="10.9359051"><ele>72.0</ele><time>2026-04-04T15:51:29.799Z</time></trkpt><trkpt lat="43.67264" lon="10.9359774"><ele>72.85714285714286</ele><time>2026-04-04T15:51:35.888Z</time></trkpt><trkpt lat="43.6726875" lon="10.9360432"><ele>73.71428571428572</ele><time>2026-04-04T15:51:41.812Z</time></trkpt><trkpt lat="43.6727314" lon="10.9361161"><ele>74.57142857142858</ele><time>2026-04-04T15:51:47.798Z</time></trkpt><trkpt lat="43.672778" lon="10.9361958"><ele>75.42857142857143</ele><time>2026-04-04T15:51:53.812Z</time></trkpt><trkpt lat="43.6728252" lon="10.936274"><ele>76.28571428571428</ele><time>2026-04-04T15:51:59.798Z</time></trkpt><trkpt lat="43.6728665" lon="10.9363495"><ele>77.14285714285715</ele><time>2026-04-04T15:52:05.798Z</time></trkpt><trkpt lat="43.6728983" lon="10.9364318"><ele>78.0</ele><time>2026-04-04T15:52:11.798Z</time></trkpt><trkpt lat="43.6729244" lon="10.936524"><ele>78.42857142857143</ele><time>2026-04-04T15:52:17.886Z</time></trkpt><trkpt lat="43.6729475" lon="10.9366063"><ele>78.85714285714285</ele><time>2026-04-04T15:52:23.803Z</time></trkpt><trkpt lat="43.6729789" lon="10.93669"><ele>79.28571428571428</ele><time>2026-04-04T15:52:29.799Z</time></trkpt><trkpt lat="43.6730091" lon="10.9367727"><ele>79.71428571428572</ele><time>2026-04-04T15:52:35.798Z</time></trkpt><trkpt lat="43.6730392" lon="10.9368539"><ele>80.14285714285714</ele><time>2026-04-04T15:52:41.848Z</time></trkpt><trkpt lat="43.6730766" lon="10.9369382"><ele>80.57142857142857</ele><time>2026-04-04T15:52:47.799Z</time></trkpt><trkpt lat="43.6731102" lon="10.9370288"><ele>81.0</ele><time>2026-04-04T15:52:54.806Z</time></trkpt><trkpt lat="43.6731507" lon="10.9370961"><ele>82.57142857142857</ele><time>2026-04-04T15:53:00.798Z</time></trkpt><trkpt lat="43.673195" lon="10.9371668"><ele>84.14285714285714</ele><time>2026-04-04T15:53:06.799Z</time></trkpt><trkpt lat="43.6732299" lon="10.9372413"><ele>85.71428571428572</ele><time>2026-04-04T15:53:12.857Z</time></trkpt><trkpt lat="43.6732673" lon="10.9373161"><ele>87.28571428571428</ele><time>2026-04-04T15:53:18.798Z</time></trkpt><trkpt lat="43.6733063" lon="10.9373886"><ele>88.85714285714285</ele><time>2026-04-04T15:53:24.799Z</time></trkpt><trkpt lat="43.6733461" lon="10.9374591"><ele>90.42857142857143</ele><time>2026-04-04T15:53:30.816Z</time></trkpt><trkpt lat="43.673386" lon="10.9375309"><ele>92.0</ele><time>2026-04-04T15:53:36.723Z</time></trkpt><trkpt lat="43.6734301" lon="10.9376052"><ele>92.42857142857143</ele><time>2026-04-04T15:53:42.766Z</time></trkpt><trkpt lat="43.6734687" lon="10.9376926"><ele>92.85714285714285</ele><time>2026-04-04T15:53:48.798Z</time></trkpt><trkpt lat="43.673511" lon="10.9377676"><ele>93.28571428571428</ele><time>2026-04-04T15:53:54.809Z</time></trkpt><trkpt lat="43.6735539" lon="10.937838"><ele>93.71428571428572</ele><time>2026-04-04T15:54:00.818Z</time></trkpt><trkpt lat="43.6735955" lon="10.9379156"><ele>94.14285714285714</ele><time>2026-04-04T15:54:06.799Z</time></trkpt><trkpt lat="43.6736154" lon="10.9380049"><ele>94.57142857142857</ele><time>2026-04-04T15:54:12.815Z</time></trkpt><trkpt lat="43.6736118" lon="10.9380929"><ele>95.0</ele><time>2026-04-04T15:54:18.798Z</time></trkpt><trkpt lat="43.6736068" lon="10.9381844"><ele>95.0</ele><time>2026-04-04T15:54:25.71Z</time></trkpt><trkpt lat="43.6736098" lon="10.9382716"><ele>95.0</ele><time>2026-04-04T15:54:31.798Z</time></trkpt><trkpt lat="43.6736203" lon="10.9383599"><ele>95.0</ele><time>2026-04-04T15:54:37.81Z</time></trkpt><trkpt lat="43.6736429" lon="10.9384417"><ele>95.0</ele><time>2026-04-04T15:54:43.818Z</time></trkpt><trkpt lat="43.6736669" lon="10.9385265"><ele>95.0</ele><time>2026-04-04T15:54:49.798Z</time></trkpt><trkpt lat="43.6736995" lon="10.9386022"><ele>95.0</ele><time>2026-04-04T15:54:57.817Z</time></trkpt><trkpt lat="43.6737414" lon="10.9386741"><ele>95.0</ele><time>2026-04-04T15:55:02.731Z</time></trkpt><trkpt lat="43.673793" lon="10.9387307"><ele>96.28571428571429</ele><time>2026-04-04T15:55:08.814Z</time></trkpt><trkpt lat="43.6738455" lon="10.9387927"><ele>97.57142857142858</ele><time>2026-04-04T15:55:14.801Z</time></trkpt><trkpt lat="43.6739041" lon="10.9388409"><ele>98.85714285714286</ele><time>2026-04-04T15:55:20.81Z</time></trkpt><trkpt lat="43.6739648" lon="10.9388825"><ele>100.14285714285714</ele><time>2026-04-04T15:55:25.878Z</time></trkpt><trkpt lat="43.6740366" lon="10.9389127"><ele>101.42857142857143</ele><time>2026-04-04T15:55:31.804Z</time></trkpt><trkpt lat="43.6741007" lon="10.938957"><ele>102.71428571428571</ele><time>2026-04-04T15:55:37.813Z</time></trkpt><trkpt lat="43.6741615" lon="10.9390068"><ele>104.0</ele><time>2026-04-04T15:55:43.821Z</time></trkpt><trkpt lat="43.6742249" lon="10.9390378"><ele>104.0</ele><time>2026-04-04T15:55:48.828Z</time></trkpt><trkpt lat="43.6742906" lon="10.9390855"><ele>104.0</ele><time>2026-04-04T15:55:54.817Z</time></trkpt><trkpt lat="43.6743632" lon="10.9391075"><ele>104.0</ele><time>2026-04-04T15:56:00.746Z</time></trkpt><trkpt lat="43.6744306" lon="10.9391355"><ele>104.0</ele><time>2026-04-04T15:56:06.813Z</time></trkpt><trkpt lat="43.6744945" lon="10.9391551"><ele>104.0</ele><time>2026-04-04T15:56:12.798Z</time></trkpt><trkpt lat="43.6745575" lon="10.9391798"><ele>104.0</ele><time>2026-04-04T15:56:18.81Z</time></trkpt><trkpt lat="43.6746174" lon="10.9392086"><ele>104.0</ele><time>2026-04-04T15:56:24.836Z</time></trkpt><trkpt lat="43.6746786" lon="10.9392542"><ele>103.57142857142857</ele><time>2026-04-04T15:56:30.906Z</time></trkpt><trkpt lat="43.67474" lon="10.9392936"><ele>103.14285714285715</ele><time>2026-04-04T15:56:36.466Z</time></trkpt><trkpt lat="43.6747963" lon="10.9393326"><ele>102.71428571428572</ele><time>2026-04-04T15:56:41.811Z</time></trkpt><trkpt lat="43.6748579" lon="10.9393817"><ele>102.28571428571428</ele><time>2026-04-04T15:56:47.799Z</time></trkpt><trkpt lat="43.6749202" lon="10.9394331"><ele>101.85714285714286</ele><time>2026-04-04T15:56:53.808Z</time></trkpt><trkpt lat="43.6749852" lon="10.9394677"><ele>101.42857142857143</ele><time>2026-04-04T15:56:59.816Z</time></trkpt><trkpt lat="43.6750546" lon="10.9395055"><ele>101.0</ele><time>2026-04-04T15:57:05.798Z</time></trkpt><trkpt lat="43.6751222" lon="10.9395325"><ele>101.0</ele><time>2026-04-04T15:57:11.812Z</time></trkpt><trkpt lat="43.6751825" lon="10.9395668"><ele>101.0</ele><time>2026-04-04T15:57:17.799Z</time></trkpt><trkpt lat="43.6752521" lon="10.9396049"><ele>101.0</ele><time>2026-04-04T15:57:23.809Z</time></trkpt><trkpt lat="43.6753208" lon="10.9396431"><ele>101.0</ele><time>2026-04-04T15:57:29.798Z</time></trkpt><trkpt lat="43.6753854" lon="10.939687"><ele>101.0</ele><time>2026-04-04T15:57:35.774Z</time></trkpt><trkpt lat="43.6754518" lon="10.9397201"><ele>101.0</ele><time>2026-04-04T15:57:41.815Z</time></trkpt><trkpt lat="43.675517" lon="10.9397495"><ele>101.0</ele><time>2026-04-04T15:57:47.798Z</time></trkpt><trkpt lat="43.6755883" lon="10.9397591"><ele>103.0</ele><time>2026-04-04T15:57:53.71Z</time></trkpt><trkpt lat="43.675661" lon="10.9397471"><ele>105.0</ele><time>2026-04-04T15:57:59.817Z</time></trkpt><trkpt lat="43.6757218" lon="10.9396968"><ele>107.0</ele><time>2026-04-04T15:58:05.798Z</time></trkpt><trkpt lat="43.6757771" lon="10.9396433"><ele>109.0</ele><time>2026-04-04T15:58:11.775Z</time></trkpt><trkpt lat="43.6758305" lon="10.9395891"><ele>111.0</ele><time>2026-04-04T15:58:17.73Z</time></trkpt><trkpt lat="43.6758827" lon="10.9395362"><ele>112.99999999999999</ele><time>2026-04-04T15:58:23.812Z</time></trkpt><trkpt lat="43.6759418" lon="10.9394792"><ele>114.99999999999999</ele><time>2026-04-04T15:58:30.802Z</time></trkpt><trkpt lat="43.6759934" lon="10.9394239"><ele>114.99999999999999</ele><time>2026-04-04T15:58:36.799Z</time></trkpt><trkpt lat="43.676051" lon="10.9393596"><ele>115.0</ele><time>2026-04-04T15:58:42.881Z</time></trkpt><trkpt lat="43.6761048" lon="10.9393043"><ele>114.99999999999999</ele><time>2026-04-04T15:58:48.836Z</time></trkpt><trkpt lat="43.6761667" lon="10.9392555"><ele>114.99999999999999</ele><time>2026-04-04T15:58:56.799Z</time></trkpt><trkpt lat="43.6762303" lon="10.9392127"><ele>115.0</ele><time>2026-04-04T15:59:02.864Z</time></trkpt><trkpt lat="43.6762854" lon="10.9391688"><ele>114.99999999999999</ele><time>2026-04-04T15:59:08.812Z</time></trkpt><trkpt lat="43.6763514" lon="10.9391338"><ele>114.99999999999999</ele><time>2026-04-04T15:59:19.798Z</time></trkpt><trkpt lat="43.6764119" lon="10.9390746"><ele>115.99999999999999</ele><time>2026-04-04T15:59:25.799Z</time></trkpt><trkpt lat="43.6764708" lon="10.9390235"><ele>117.0</ele><time>2026-04-04T15:59:31.813Z</time></trkpt><trkpt lat="43.6765365" lon="10.9390024"><ele>117.99999999999999</ele><time>2026-04-04T15:59:37.803Z</time></trkpt><trkpt lat="43.6765897" lon="10.9390491"><ele>118.99999999999999</ele><time>2026-04-04T15:59:43.812Z</time></trkpt><trkpt lat="43.676625" lon="10.9391328"><ele>120.0</ele><time>2026-04-04T15:59:49.798Z</time></trkpt><trkpt lat="43.6766641" lon="10.9392126"><ele>120.99999999999999</ele><time>2026-04-04T15:59:55.808Z</time></trkpt><trkpt lat="43.6767048" lon="10.9392892"><ele>121.99999999999999</ele><time>2026-04-04T16:00:01.782Z</time></trkpt><trkpt lat="43.6767302" lon="10.9393844"><ele>122.7142857142857</ele><time>2026-04-04T16:00:10.81Z</time></trkpt><trkpt lat="43.6767506" lon="10.9394815"><ele>123.42857142857142</ele><time>2026-04-04T16:00:16.725Z</time></trkpt><trkpt lat="43.676782" lon="10.9395597"><ele>124.14285714285714</ele><time>2026-04-04T16:00:21.703Z</time></trkpt><trkpt lat="43.6768247" lon="10.9396322"><ele>124.85714285714285</ele><time>2026-04-04T16:00:26.835Z</time></trkpt><trkpt lat="43.676867" lon="10.9397138"><ele>125.57142857142856</ele><time>2026-04-04T16:00:32.629Z</time></trkpt><trkpt lat="43.676903" lon="10.9397888"><ele>126.28571428571429</ele><time>2026-04-04T16:00:37.798Z</time></trkpt><trkpt lat="43.6769314" lon="10.9398736"><ele>127.0</ele><time>2026-04-04T16:00:43.803Z</time></trkpt><trkpt lat="43.6769667" lon="10.9399575"><ele>127.14285714285714</ele><time>2026-04-04T16:00:50.798Z</time></trkpt><trkpt lat="43.6769965" lon="10.9400413"><ele>127.28571428571428</ele><time>2026-04-04T16:00:56.813Z</time></trkpt><trkpt lat="43.6770254" lon="10.9401333"><ele>127.42857142857142</ele><time>2026-04-04T16:01:04.75Z</time></trkpt><trkpt lat="43.6770534" lon="10.9402151"><ele>127.57142857142857</ele><time>2026-04-04T16:01:09.827Z</time></trkpt><trkpt lat="43.6770842" lon="10.9403045"><ele>127.7142857142857</ele><time>2026-04-04T16:01:15.829Z</time></trkpt><trkpt lat="43.6771156" lon="10.9403903"><ele>127.85714285714285</ele><time>2026-04-04T16:01:21.88Z</time></trkpt><trkpt lat="43.6771574" lon="10.9404833"><ele>128.0</ele><time>2026-04-04T16:01:28.899Z</time></trkpt><trkpt lat="43.6771936" lon="10.9405602"><ele>128.0</ele><time>2026-04-04T16:01:34.879Z</time></trkpt><trkpt lat="43.6772189" lon="10.9406492"><ele>127.99999999999999</ele><time>2026-04-04T16:01:40.825Z</time></trkpt><trkpt lat="43.6772383" lon="10.9407463"><ele>128.0</ele><time>2026-04-04T16:01:46.835Z</time></trkpt><trkpt lat="43.6772698" lon="10.940833"><ele>128.0</ele><time>2026-04-04T16:01:53.832Z</time></trkpt><trkpt lat="43.6772762" lon="10.940927"><ele>127.99999999999999</ele><time>2026-04-04T16:01:59.826Z</time></trkpt><trkpt lat="43.677305" lon="10.941015"><ele>128.0</ele><time>2026-04-04T16:02:05.831Z</time></trkpt><trkpt lat="43.6773654" lon="10.9410531"><ele>128.0</ele><time>2026-04-04T16:02:11.829Z</time></trkpt><trkpt lat="43.677428" lon="10.9410922"><ele>128.0</ele><time>2026-04-04T16:02:18.83Z</time></trkpt><trkpt lat="43.6774938" lon="10.9411289"><ele>127.99999999999999</ele><time>2026-04-04T16:02:25.828Z</time></trkpt><trkpt lat="43.6775588" lon="10.941157"><ele>128.0</ele><time>2026-04-04T16:02:31.835Z</time></trkpt><trkpt lat="43.6776261" lon="10.9411936"><ele>128.0</ele><time>2026-04-04T16:02:37.81Z</time></trkpt><trkpt lat="43.6776887" lon="10.941236"><ele>127.99999999999999</ele><time>2026-04-04T16:02:43.661Z</time></trkpt><trkpt lat="43.6777498" lon="10.9412873"><ele>128.0</ele><time>2026-04-04T16:02:49.829Z</time></trkpt><trkpt lat="43.6778085" lon="10.9413301"><ele>128.0</ele><time>2026-04-04T16:02:55.828Z</time></trkpt><trkpt lat="43.6778757" lon="10.9413737"><ele>128.0</ele><time>2026-04-04T16:03:01.834Z</time></trkpt><trkpt lat="43.6779366" lon="10.941414"><ele>127.99999999999999</ele><time>2026-04-04T16:03:07.829Z</time></trkpt><trkpt lat="43.6779958" lon="10.9414635"><ele>128.0</ele><time>2026-04-04T16:03:13.834Z</time></trkpt><trkpt lat="43.6780537" lon="10.9415178"><ele>128.0</ele><time>2026-04-04T16:03:19.757Z</time></trkpt><trkpt lat="43.6781076" lon="10.9415734"><ele>127.99999999999999</ele><time>2026-04-04T16:03:25.838Z</time></trkpt><trkpt lat="43.6781601" lon="10.9416362"><ele>128.0</ele><time>2026-04-04T16:03:31.746Z</time></trkpt><trkpt lat="43.678206" lon="10.9417065"><ele>128.0</ele><time>2026-04-04T16:03:37.834Z</time></trkpt><trkpt lat="43.678253" lon="10.9417646"><ele>129.42857142857142</ele><time>2026-04-04T16:03:43.827Z</time></trkpt><trkpt lat="43.6783022" lon="10.9418244"><ele>130.85714285714283</ele><time>2026-04-04T16:03:49.831Z</time></trkpt><trkpt lat="43.6783502" lon="10.9418888"><ele>132.28571428571428</ele><time>2026-04-04T16:03:55.838Z</time></trkpt><trkpt lat="43.6783968" lon="10.9419584"><ele>133.71428571428572</ele><time>2026-04-04T16:04:01.831Z</time></trkpt><trkpt lat="43.6784472" lon="10.9420326"><ele>135.14285714285717</ele><time>2026-04-04T16:04:07.838Z</time></trkpt><trkpt lat="43.6784945" lon="10.9420968"><ele>136.57142857142858</ele><time>2026-04-04T16:04:12.83Z</time></trkpt><trkpt lat="43.6785422" lon="10.9421625"><ele>138.0</ele><time>2026-04-04T16:04:18.798Z</time></trkpt><trkpt lat="43.6785842" lon="10.9422416"><ele>136.71428571428572</ele><time>2026-04-04T16:04:24.83Z</time></trkpt><trkpt lat="43.6786293" lon="10.9423142"><ele>135.42857142857144</ele><time>2026-04-04T16:04:30.785Z</time></trkpt><trkpt lat="43.6786801" lon="10.9423764"><ele>134.14285714285714</ele><time>2026-04-04T16:04:36.834Z</time></trkpt><trkpt lat="43.6787293" lon="10.9424312"><ele>132.85714285714286</ele><time>2026-04-04T16:04:42.831Z</time></trkpt><trkpt lat="43.6787779" lon="10.9424912"><ele>131.57142857142856</ele><time>2026-04-04T16:04:48.83Z</time></trkpt><trkpt lat="43.6788193" lon="10.9425695"><ele>130.28571428571428</ele><time>2026-04-04T16:04:54.839Z</time></trkpt><trkpt lat="43.6788715" lon="10.9426192"><ele>129.0</ele><time>2026-04-04T16:05:00.831Z</time></trkpt><trkpt lat="43.6789398" lon="10.9426339"><ele>129.0</ele><time>2026-04-04T16:05:07.765Z</time></trkpt><trkpt lat="43.6790056" lon="10.9426522"><ele>129.0</ele><time>2026-04-04T16:05:19.84Z</time></trkpt></trkseg></trk></gpx>